ftp/pub/palmer/observations_modified/2017/November/AR171120_BASE.txt
Download
Sample DateTime Unit Id WS Avg 2min WD Avg 2min WGS 10min WGD 10min Air Temp Rel Humidity Dew Point Pyranometer Quantum Air Pressure Snow Level Rainfall PW Current Visibility CBase 1 CBase 2 CBase 3 Vert Vis
2017/11/20 00:00:01 BASE 1.15 181 2.06 191 -0.8 96 -1.4 90 177 986.2 NA 0.0000 9999 0 0 0 0
2017/11/20 00:01:01 BASE 1.08 169 2.06 191 -0.9 96 -1.4 89 174 986.2 NA 0.0000 9999 0 0 0 0
2017/11/20 00:02:01 BASE 0.62 167 2.06 191 -0.9 96 -1.5 87 170 986.2 NA 0.0000 9999 0 0 0 0
2017/11/20 00:03:01 BASE 0.15 180 2.06 191 -0.9 96 -1.5 85 167 986.2 NA 0.0000 9999 0 0 0 0
2017/11/20 00:04:01 BASE 0.00 164 2.06 191 -0.9 96 -1.5 84 164 986.2 NA 0.0000 9999 0 0 0 0
2017/11/20 00:05:01 BASE 0.04 121 2.06 191 -0.9 96 -1.5 82 161 986.2 NA 0.0000 9999 0 0 0 0
2017/11/20 00:06:01 BASE 0.50 98 2.06 191 -0.9 96 -1.5 80 157 986.2 NA 0.0000 9999 0 0 0 0
2017/11/20 00:07:01 BASE 1.11 105 2.06 191 -0.9 96 -1.5 78 154 986.2 NA 0.0000 9999 0 0 0 0
2017/11/20 00:08:01 BASE 1.16 104 2.06 191 -0.9 96 -1.5 76 151 986.2 NA 0.0000 9999 0 0 0 0
2017/11/20 00:09:01 BASE 0.56 101 2.06 191 -0.9 96 -1.5 75 147 986.2 NA 0.0000 9999 0 0 0 0
2017/11/20 00:10:01 BASE 0.29 105 1.70 96 -0.9 95 -1.6 73 144 986.2 NA 0.0000 9999 0 0 0 0
2017/11/20 00:11:01 BASE 0.25 123 1.70 96 -1.0 95 -1.6 72 141 986.2 NA 0.0000 9999 0 0 0 0
2017/11/20 00:12:01 BASE 0.00 149 1.70 96 -1.0 95 -1.7 70 139 986.2 NA 0.0000 9999 0 0 0 0
2017/11/20 00:13:01 BASE 0.00 158 1.70 96 -1.0 95 -1.7 69 135 986.2 NA 0.0000 9999 0 0 0 0
2017/11/20 00:14:01 BASE 0.00 146 1.70 96 -1.0 95 -1.7 67 133 986.2 NA 0.0000 9999 0 0 0 0
2017/11/20 00:15:01 BASE 0.25 123 1.70 96 -1.0 95 -1.7 66 130 986.2 NA 0.0000 9999 0 0 0 0
2017/11/20 00:16:01 BASE 0.83 94 1.70 96 -1.0 95 -1.7 64 127 986.2 NA 0.0000 9999 0 0 0 0
2017/11/20 00:17:01 BASE 0.98 71 1.70 96 -1.0 95 -1.7 62 124 986.2 NA 0.0000 9999 0 0 0 0
2017/11/20 00:18:01 BASE 1.14 57 2.06 58 -1.0 95 -1.7 61 121 986.2 NA 0.0000 9999 0 0 0 0
2017/11/20 00:19:01 BASE 1.87 57 2.52 78 -0.9 95 -1.6 59 118 986.2 NA 0.0000 9999 0 0 0 0
2017/11/20 00:20:01 BASE 2.00 75 2.52 78 -0.9 95 -1.6 58 116 986.2 NA 0.0000 9999 0 0 0 0
2017/11/20 00:21:01 BASE 1.65 75 2.52 78 -0.9 95 -1.6 57 113 986.2 NA 0.0000 9999 0 0 0 0
2017/11/20 00:22:01 BASE 1.56 79 2.52 78 -1.0 95 -1.7 56 111 986.2 NA 0.0000 9999 0 0 0 0
2017/11/20 00:23:01 BASE 1.28 91 2.52 78 -1.0 95 -1.7 55 108 986.2 NA 0.0000 9999 0 0 0 0
2017/11/20 00:24:01 BASE 1.26 92 2.52 78 -1.0 95 -1.7 53 105 986.2 NA 0.0000 9999 1180 0 0 0
2017/11/20 00:25:01 BASE 1.44 112 2.52 78 -1.0 95 -1.7 51 102 986.2 NA 0.0000 9999 0 0 0 0
2017/11/20 00:26:01 BASE 0.93 118 2.52 78 -1.0 95 -1.7 46 94 986.2 NA 0.0000 9999 0 0 0 0
2017/11/20 00:27:01 BASE 0.70 102 2.52 78 -1.0 95 -1.7 41 89 986.3 NA 0.0000 9999 0 0 0 0
2017/11/20 00:28:01 BASE 1.23 93 2.52 78 -1.1 95 -1.8 43 91 986.2 NA 0.0000 9999 0 0 0 0
2017/11/20 00:29:01 BASE 1.70 94 2.21 119 -1.1 95 -1.8 45 92 986.3 NA 0.0000 9999 0 0 0 0
2017/11/20 00:30:01 BASE 1.86 97 2.21 119 -1.1 95 -1.8 46 91 986.2 NA 0.0000 9999 0 0 0 0
2017/11/20 00:31:01 BASE 2.02 100 2.42 107 -1.1 95 -1.8 44 89 986.3 NA 0.0000 9999 0 0 0 0
2017/11/20 00:32:01 BASE 1.97 110 2.42 107 -1.1 95 -1.8 43 87 986.3 NA 0.0000 9999 0 0 0 0
2017/11/20 00:33:01 BASE 1.53 111 2.42 107 -1.2 95 -1.9 42 84 986.3 NA 0.0000 9999 0 0 0 0
2017/11/20 00:34:01 BASE 1.39 104 2.42 107 -1.2 95 -1.9 41 82 986.2 NA 0.0000 9999 0 0 0 0
2017/11/20 00:35:01 BASE 1.52 99 2.42 107 -1.2 95 -1.9 40 80 986.2 NA 0.0000 9999 0 0 0 0
2017/11/20 00:36:01 BASE 1.53 105 2.42 107 -1.2 95 -1.9 39 78 986.2 NA 0.0000 9999 0 0 0 0
2017/11/20 00:37:01 BASE 1.10 114 2.42 107 -1.2 95 -1.9 37 76 986.2 NA 0.0000 9999 0 0 0 0
2017/11/20 00:38:01 BASE 0.95 114 2.42 107 -1.2 95 -1.9 36 74 986.2 NA 0.0000 9999 0 0 0 0
2017/11/20 00:39:01 BASE 1.30 124 2.42 107 -1.2 95 -1.9 35 72 986.2 NA 0.0000 9999 0 0 0 0
2017/11/20 00:40:01 BASE 1.24 144 2.42 107 -1.2 95 -1.9 34 70 986.2 NA 0.0000 9999 0 0 0 0
2017/11/20 00:41:01 BASE 1.08 149 2.31 127 -1.2 95 -1.9 33 69 986.3 NA 0.0000 9999 0 0 0 0
2017/11/20 00:42:01 BASE 0.68 156 1.95 128 -1.2 95 -1.9 32 67 986.3 NA 0.0000 9999 0 0 0 0
2017/11/20 00:43:01 BASE 0.48 168 1.95 128 -1.2 95 -1.9 32 65 986.3 NA 0.0000 9999 0 0 0 0
2017/11/20 00:44:01 BASE 0.72 178 1.95 128 -1.2 95 -1.9 30 63 986.3 NA 0.0000 9999 0 0 0 0
2017/11/20 00:45:01 BASE 0.65 171 1.95 128 -1.2 94 -2.0 30 61 986.3 NA 0.0000 9999 0 0 0 0
2017/11/20 00:46:01 BASE 1.23 158 2.16 165 -1.2 94 -2.0 29 60 986.3 NA 0.0000 9999 0 0 0 0
2017/11/20 00:47:01 BASE 1.97 165 2.16 165 -1.2 94 -2.0 28 58 986.3 NA 0.0000 9999 0 0 0 0
2017/11/20 00:48:01 BASE 1.89 172 2.31 174 -1.2 94 -2.0 27 57 986.3 NA 0.0000 9999 0 0 0 0
2017/11/20 00:49:01 BASE 1.72 175 2.31 174 -1.2 94 -2.0 26 55 986.3 NA 0.0000 9999 0 0 0 0
2017/11/20 00:50:01 BASE 1.12 174 2.31 174 -1.2 94 -2.0 26 54 986.3 NA 0.0000 9999 0 0 0 0
2017/11/20 00:51:01 BASE 0.99 170 2.31 174 -1.2 94 -2.0 26 53 986.3 NA 0.0000 9999 0 0 0 0
2017/11/20 00:52:01 BASE 0.86 171 2.31 174 -1.2 94 -2.0 26 52 986.3 NA 0.0000 9999 0 0 0 0
2017/11/20 00:53:01 BASE 0.55 174 2.31 174 -1.2 94 -2.0 25 50 986.3 NA 0.0000 9999 0 0 0 0
2017/11/20 00:54:01 BASE 1.14 172 2.31 174 -1.2 94 -2.0 24 49 986.3 NA 0.0000 9999 0 0 0 0
2017/11/20 00:55:01 BASE 1.43 175 2.31 174 -1.2 95 -1.9 23 47 986.3 NA 0.0000 9999 0 0 0 0
2017/11/20 00:56:01 BASE 0.99 173 2.31 174 -1.2 95 -1.9 22 45 986.3 NA 0.0000 9999 0 0 0 0
2017/11/20 00:57:01 BASE 0.96 172 2.31 174 -1.2 95 -1.9 21 44 986.3 NA 0.0000 9999 0 0 0 0
2017/11/20 00:58:01 BASE 0.64 180 2.06 170 -1.2 95 -1.9 20 43 986.3 NA 0.0000 9999 0 0 0 0
2017/11/20 00:59:01 BASE 0.00 191 1.80 172 -1.2 95 -1.9 19 41 986.3 NA 0.0000 9999 0 0 0 0
2017/11/20 01:00:01 BASE 0.00 201 1.80 172 -1.2 95 -1.9 19 40 986.3 NA 0.0000 9999 0 0 0 0
2017/11/20 01:01:01 BASE 0.00 196 1.80 172 -1.2 95 -1.9 18 39 986.3 NA 0.0000 9999 0 0 0 0
2017/11/20 01:02:01 BASE 0.00 185 1.80 172 -1.2 95 -1.9 18 38 986.3 NA 0.0000 9999 0 0 0 0
2017/11/20 01:03:01 BASE 0.05 175 1.75 171 -1.2 95 -1.9 17 37 986.3 NA 0.0000 9999 0 0 0 0
2017/11/20 01:04:01 BASE 0.05 168 1.49 172 -1.2 95 -1.9 17 36 986.3 NA 0.0000 9999 0 0 0 0
2017/11/20 01:05:01 BASE 0.00 168 1.44 164 -1.2 95 -1.9 16 35 986.3 NA 0.0000 9999 0 0 0 0
2017/11/20 01:06:01 BASE 0.00 168 1.44 164 -1.2 95 -1.9 16 34 986.3 NA 0.0000 9999 0 0 0 0
2017/11/20 01:07:01 BASE 0.00 168 1.08 168 -1.2 95 -1.9 15 33 986.3 NA 0.0000 9999 0 0 0 0
2017/11/20 01:08:01 BASE 0.00 168 1.08 168 -1.2 95 -1.9 15 32 986.3 NA 0.0000 9999 0 0 0 0
2017/11/20 01:09:01 BASE 0.00 168 1.08 168 -1.1 95 -1.9 14 31 986.4 NA 0.0000 9999 0 0 0 0
2017/11/20 01:10:01 BASE 0.00 168 1.08 168 -1.1 94 -1.9 14 30 986.4 NA 0.0000 9999 0 0 0 0
2017/11/20 01:11:01 BASE 0.00 168 1.08 168 -1.1 94 -1.9 14 29 986.4 NA 0.0000 9999 0 0 0 0
2017/11/20 01:12:01 BASE 0.00 166 1.08 168 -1.2 94 -2.0 13 28 986.4 NA 0.0000 9999 0 0 0 0
2017/11/20 01:13:01 BASE 0.05 160 1.08 152 -1.2 94 -2.0 14 28 986.4 NA 0.0000 9999 0 0 0 0
2017/11/20 01:14:01 BASE 0.05 159 1.08 152 -1.2 94 -2.0 16 28 986.4 NA 0.0000 9999 0 0 0 0
2017/11/20 01:15:01 BASE 0.00 166 1.08 152 -1.2 94 -2.1 17 29 986.4 NA 0.0000 9999 1080 0 0 0
2017/11/20 01:16:01 BASE 0.00 177 1.08 152 -1.2 94 -2.0 17 28 986.4 NA 0.0000 9999 1120 0 0 0
2017/11/20 01:17:01 BASE 0.25 222 1.29 262 -1.2 95 -2.0 15 26 986.4 NA 0.0000 9999 1050 0 0 0
2017/11/20 01:18:01 BASE 0.72 267 1.44 271 -1.2 95 -1.9 13 25 986.4 NA 0.0000 9999 1020 0 0 0
2017/11/20 01:19:01 BASE 0.94 267 1.44 271 -1.1 95 -1.8 12 24 986.4 NA 0.0000 9999 1050 0 0 0
2017/11/20 01:20:01 BASE 0.76 255 1.65 244 -1.1 95 -1.8 12 23 986.4 NA 0.0000 9999 1180 0 0 0
2017/11/20 01:21:01 BASE 0.91 248 1.65 248 -1.1 95 -1.8 11 22 986.4 NA 0.0000 9999 1250 0 0 0
2017/11/20 01:22:01 BASE 1.30 242 1.65 248 -1.1 95 -1.8 10 21 986.4 NA 0.0000 9999 1210 0 0 0
2017/11/20 01:23:01 BASE 0.95 232 1.65 248 -1.2 95 -1.9 9 20 986.4 NA 0.0000 9999 0 0 0 0
2017/11/20 01:24:01 BASE 0.40 226 1.65 248 -1.2 95 -1.9 9 19 986.4 NA 0.0000 9999 0 0 0 0
2017/11/20 01:25:01 BASE 0.27 217 1.65 248 -1.3 95 -2.0 9 18 986.4 NA 0.0000 9999 0 0 0 0
2017/11/20 01:26:01 BASE 0.29 234 1.65 248 -1.3 95 -2.0 9 18 986.4 NA 0.0000 9999 0 0 0 0
2017/11/20 01:27:01 BASE 0.15 254 1.65 248 -1.4 95 -2.0 8 17 986.4 NA 0.0000 9999 1150 0 0 0
2017/11/20 01:28:01 BASE 0.27 238 1.65 248 -1.4 95 -2.0 7 16 986.4 NA 0.0000 9999 0 0 0 0
2017/11/20 01:29:01 BASE 0.27 224 1.65 248 -1.4 96 -2.0 7 15 986.4 NA 0.0000 9999 0 0 0 0
2017/11/20 01:30:01 BASE 0.09 229 1.65 248 -1.4 96 -2.0 7 15 986.4 NA 0.0000 9999 0 0 0 0
2017/11/20 01:31:01 BASE 0.47 247 1.59 234 -1.4 96 -1.9 6 14 986.4 NA 0.0000 9999 1150 0 0 0
2017/11/20 01:32:01 BASE 0.47 255 1.29 262 -1.4 96 -2.0 6 14 986.4 NA 0.0000 9999 0 0 0 0
2017/11/20 01:33:01 BASE 0.70 244 1.49 236 -1.4 96 -2.0 6 13 986.4 NA 0.0000 9999 0 0 0 0
2017/11/20 01:34:01 BASE 0.61 230 1.49 236 -1.4 96 -2.0 6 13 986.4 NA 0.0000 9999 0 0 0 0
2017/11/20 01:35:01 BASE 0.11 222 1.49 236 -1.4 96 -2.0 6 12 986.4 NA 0.0000 9999 0 0 0 0
2017/11/20 01:36:01 BASE 0.11 217 1.49 236 -1.5 96 -2.0 6 12 986.4 NA 0.0000 9999 0 0 0 0
2017/11/20 01:37:01 BASE 0.00 215 1.49 236 -1.5 96 -2.0 5 11 986.4 NA 0.0000 9999 0 0 0 0
2017/11/20 01:38:01 BASE 0.00 214 1.49 236 -1.5 96 -2.0 5 11 986.4 NA 0.0000 9999 0 0 0 0
2017/11/20 01:39:01 BASE 0.40 220 1.95 231 -1.5 96 -2.0 5 11 986.4 NA 0.0000 9999 0 0 0 0
2017/11/20 01:40:01 BASE 1.16 236 1.95 231 -1.5 96 -2.1 4 10 986.5 NA 0.0000 9999 0 0 0 0
2017/11/20 01:41:01 BASE 1.51 240 1.95 231 -1.5 95 -2.1 4 10 986.5 NA 0.0000 9999 0 0 0 0
2017/11/20 01:42:01 BASE 1.13 232 1.95 231 -1.5 95 -2.2 4 9 986.5 NA 0.0000 9999 0 0 0 0
2017/11/20 01:43:01 BASE 0.72 229 1.95 231 -1.6 95 -2.3 4 9 986.5 NA 0.0000 9999 0 0 0 0
2017/11/20 01:44:01 BASE 0.65 223 1.95 231 -1.6 95 -2.2 4 9 986.5 NA 0.0000 9999 0 0 0 0
2017/11/20 01:45:01 BASE 0.52 228 1.95 231 -1.6 95 -2.2 4 8 986.5 NA 0.0000 9999 0 0 0 0
2017/11/20 01:46:01 BASE 0.48 239 1.95 231 -1.6 95 -2.3 4 8 986.5 NA 0.0000 9999 1150 0 0 0
2017/11/20 01:47:01 BASE 0.88 236 1.95 231 -1.6 95 -2.3 3 8 986.5 NA 0.0000 9999 0 0 0 0
2017/11/20 01:48:01 BASE 1.24 234 1.95 231 -1.6 95 -2.3 3 7 986.5 NA 0.0000 9999 0 0 0 0
2017/11/20 01:49:01 BASE 0.92 236 1.80 238 -1.6 95 -2.3 3 7 986.5 NA 0.0000 9999 0 0 0 0
2017/11/20 01:50:01 BASE 0.34 245 1.65 238 -1.6 95 -2.3 3 7 986.5 NA 0.0000 9999 0 0 0 0
2017/11/20 01:51:01 BASE 0.05 250 1.59 230 -1.6 95 -2.3 3 7 986.5 NA 0.0000 9999 0 0 0 0
2017/11/20 01:52:01 BASE 0.00 248 1.59 230 -1.6 95 -2.3 3 6 986.5 NA 0.0000 9999 0 0 0 0
2017/11/20 01:53:01 BASE 0.00 251 1.59 230 -1.6 95 -2.3 3 6 986.5 NA 0.0000 9999 0 0 0 0
2017/11/20 01:54:01 BASE 0.00 258 1.59 230 -1.6 95 -2.3 3 6 986.5 NA 0.0000 9999 0 0 0 0
2017/11/20 01:55:01 BASE 0.00 264 1.59 230 -1.6 95 -2.3 3 6 986.5 NA 0.0000 9999 0 0 0 0
2017/11/20 01:56:01 BASE 0.00 255 1.59 230 -1.6 95 -2.3 3 5 986.5 NA 0.0000 9999 0 0 0 0
2017/11/20 01:57:01 BASE 0.00 252 1.59 230 -1.6 95 -2.3 2 5 986.5 NA 0.0000 9999 0 0 0 0
2017/11/20 01:58:01 BASE 0.00 258 1.39 240 -1.6 95 -2.3 2 5 986.5 NA 0.0000 9999 0 0 0 0
2017/11/20 01:59:01 BASE 0.00 258 1.08 252 -1.6 95 -2.3 2 5 986.5 NA 0.0000 9999 0 0 0 0
2017/11/20 02:00:01 BASE 0.00 258 M M -1.6 95 -2.3 2 4 986.5 NA 0.0000 9999 0 0 0 0
2017/11/20 02:01:01 BASE 0.04 275 1.03 303 -1.6 95 -2.3 2 4 986.5 NA 0.0000 9999 0 0 0 0
2017/11/20 02:02:01 BASE 0.71 298 1.44 302 -1.5 95 -2.2 2 4 986.5 NA 0.0000 9999 0 0 0 0
2017/11/20 02:03:01 BASE 0.82 300 1.44 302 -1.5 95 -2.2 2 4 986.5 NA 0.0000 9999 0 0 0 0
2017/11/20 02:04:01 BASE 0.15 304 1.44 302 -1.6 95 -2.2 2 4 986.5 NA 0.0000 9999 0 0 0 0
2017/11/20 02:05:01 BASE 0.00 326 1.44 302 -1.6 95 -2.2 2 4 986.5 NA 0.0000 9999 0 0 0 0
2017/11/20 02:06:01 BASE 0.00 342 1.44 302 -1.6 95 -2.2 2 3 986.5 NA 0.0000 9999 0 0 0 0
2017/11/20 02:07:01 BASE 0.00 339 1.44 302 -1.6 95 -2.2 2 3 986.5 NA 0.0000 9999 0 0 0 0
2017/11/20 02:08:01 BASE 0.00 320 1.44 302 -1.6 95 -2.2 2 3 986.5 NA 0.0000 9999 0 0 0 0
2017/11/20 02:09:01 BASE 0.00 317 1.44 302 -1.6 95 -2.3 2 3 986.5 NA 0.0000 9999 0 0 0 0
2017/11/20 02:10:01 BASE 0.15 311 1.44 302 -1.6 95 -2.3 2 3 986.5 NA 0.0000 9999 0 0 0 0
2017/11/20 02:11:01 BASE 0.35 298 1.44 302 -1.6 95 -2.3 1 3 986.5 NA 0.0000 9999 0 0 0 0
2017/11/20 02:12:01 BASE 0.21 289 1.29 302 -1.6 95 -2.3 1 3 986.5 NA 0.0000 9999 0 0 0 0
2017/11/20 02:13:01 BASE 0.00 269 1.29 302 -1.6 95 -2.3 1 2 986.5 NA 0.0000 9999 0 0 0 0
2017/11/20 02:14:01 BASE 0.00 272 1.29 302 -1.6 95 -2.3 1 2 986.5 NA 0.0000 9999 0 0 0 0
2017/11/20 02:15:01 BASE 0.14 288 1.29 302 -1.6 95 -2.3 1 2 986.5 NA 0.0000 9999 0 0 0 0
2017/11/20 02:16:01 BASE 0.14 324 1.29 302 -1.6 95 -2.3 1 2 986.5 NA 0.0000 9999 0 0 0 0
2017/11/20 02:17:01 BASE 0.50 348 1.44 11 -1.6 95 -2.3 1 2 986.5 NA 0.0000 9999 0 0 0 0
2017/11/20 02:18:01 BASE 0.94 9 1.44 11 -1.6 95 -2.3 1 2 986.5 NA 0.0000 9999 0 0 0 0
2017/11/20 02:19:01 BASE 0.99 7 1.49 12 -1.6 95 -2.3 1 2 986.5 NA 0.0000 9999 0 0 0 0
2017/11/20 02:20:01 BASE 1.29 8 1.54 12 -1.7 95 -2.4 1 2 986.5 NA 0.0000 9999 0 0 0 0
2017/11/20 02:21:01 BASE 1.52 2 1.65 352 -1.7 95 -2.4 1 2 986.5 NA 0.0000 9999 0 0 0 0
2017/11/20 02:22:01 BASE 1.54 333 1.75 290 -1.7 95 -2.3 1 2 986.6 NA 0.0000 9999 0 0 0 0
2017/11/20 02:23:01 BASE 1.33 297 1.75 290 -1.7 96 -2.3 1 1 986.6 NA 0.0000 9999 0 0 0 0
2017/11/20 02:24:01 BASE 1.19 294 1.75 290 -1.7 96 -2.3 1 1 986.6 NA 0.0000 9999 0 0 0 0
2017/11/20 02:25:01 BASE 0.93 303 1.75 290 -1.7 96 -2.3 1 1 986.6 NA 0.0000 9999 0 0 0 0
2017/11/20 02:26:01 BASE 0.84 299 1.75 290 -1.7 96 -2.3 1 1 986.6 NA 0.0000 9999 0 0 0 0
2017/11/20 02:27:01 BASE 0.80 292 1.75 290 -1.7 96 -2.3 1 1 986.6 NA 0.0000 9999 0 0 0 0
2017/11/20 02:28:01 BASE 0.70 290 1.75 290 -1.7 96 -2.3 1 1 986.6 NA 0.0000 9999 0 0 0 0
2017/11/20 02:29:01 BASE 0.93 280 1.75 290 -1.7 96 -2.3 1 1 986.6 NA 0.0000 9999 0 0 0 0
2017/11/20 02:30:01 BASE 0.62 284 1.75 290 -1.7 96 -2.3 1 1 986.6 NA 0.0000 9999 0 0 0 0
2017/11/20 02:31:01 BASE 0.76 296 1.75 290 -1.7 95 -2.3 1 1 986.6 NA 0.0000 9999 0 0 0 0
2017/11/20 02:32:01 BASE 1.39 295 1.70 295 -1.7 95 -2.3 1 1 986.6 NA 0.0000 9999 0 0 0 0
2017/11/20 02:33:01 BASE 1.59 296 2.01 296 -1.7 95 -2.3 1 1 986.6 NA 0.0000 9999 0 0 0 0
2017/11/20 02:34:01 BASE 1.83 304 2.31 301 -1.7 96 -2.3 1 1 986.6 NA 0.0000 9999 0 0 0 0
2017/11/20 02:35:01 BASE 1.98 308 2.31 301 -1.7 96 -2.3 1 1 986.6 NA 0.0000 9999 0 0 0 0
2017/11/20 02:36:01 BASE 1.75 293 2.31 301 -1.7 96 -2.3 1 1 986.6 NA 0.0000 9999 0 0 0 0
2017/11/20 02:37:01 BASE 1.00 281 2.31 301 -1.7 96 -2.3 1 1 986.6 NA 0.0000 9999 0 0 0 0
2017/11/20 02:38:01 BASE 0.62 292 2.31 301 -1.7 96 -2.3 1 1 986.6 NA 0.0000 9999 0 0 0 0
2017/11/20 02:39:01 BASE 0.88 306 2.31 301 -1.7 95 -2.4 1 1 986.6 NA 0.0000 9999 0 0 0 0
2017/11/20 02:40:01 BASE 0.71 313 2.31 301 -1.7 95 -2.4 1 1 986.6 NA 0.0000 9999 0 0 0 0
2017/11/20 02:41:01 BASE 0.97 320 2.31 301 -1.7 95 -2.4 0 1 986.6 NA 0.0000 9999 0 0 0 0
2017/11/20 02:42:01 BASE 1.54 323 2.31 301 -1.7 95 -2.4 0 1 986.6 NA 0.0000 9999 0 0 0 0
2017/11/20 02:43:01 BASE 1.74 318 2.31 301 -1.7 95 -2.4 0 1 986.6 NA 0.0000 9999 0 0 0 0
2017/11/20 02:44:01 BASE 1.82 314 2.21 320 -1.7 95 -2.4 0 1 986.6 NA 0.0000 9999 0 0 0 0
2017/11/20 02:45:01 BASE 1.84 317 2.21 320 -1.7 96 -2.3 0 1 986.6 NA 0.0000 9999 0 0 0 0
2017/11/20 02:46:01 BASE 1.86 323 2.21 320 -1.8 96 -2.3 0 1 986.6 NA 0.0000 9999 0 0 0 0
2017/11/20 02:47:01 BASE 1.76 326 2.21 320 -1.8 96 -2.3 0 1 986.6 NA 0.0000 9999 0 0 0 0
2017/11/20 02:48:01 BASE 1.66 326 2.21 320 -1.8 96 -2.4 0 1 986.6 NA 0.0000 9999 0 0 0 0
2017/11/20 02:49:01 BASE 1.47 322 2.21 320 -1.8 96 -2.4 0 0 986.6 NA 0.0000 9999 0 0 0 0
2017/11/20 02:50:01 BASE 1.59 323 2.21 320 -1.8 96 -2.4 0 0 986.6 NA 0.0000 9999 0 0 0 0
2017/11/20 02:51:01 BASE 1.86 330 2.21 320 -1.8 96 -2.4 0 0 986.6 NA 0.0000 9999 0 0 0 0
2017/11/20 02:52:01 BASE 1.95 328 2.31 320 -1.8 96 -2.4 0 0 986.6 NA 0.0000 9999 0 0 0 0
2017/11/20 02:53:01 BASE 1.89 320 2.31 320 -1.8 96 -2.4 0 0 986.6 NA 0.0000 9999 0 0 0 0
2017/11/20 02:54:01 BASE 1.46 314 2.31 320 -1.8 96 -2.4 0 0 986.6 NA 0.0000 9999 0 0 0 0
2017/11/20 02:55:01 BASE 1.40 320 2.31 320 -1.8 96 -2.4 0 0 986.6 NA 0.0000 9999 0 0 0 0
2017/11/20 02:56:01 BASE 1.84 328 2.31 320 -1.8 96 -2.4 0 0 986.7 NA 0.0000 9999 0 0 0 0
2017/11/20 02:57:01 BASE 2.25 328 2.78 315 -1.8 96 -2.4 0 0 986.7 NA 0.0000 9999 0 0 0 0
2017/11/20 02:58:01 BASE 2.45 316 2.78 315 -1.8 96 -2.4 0 0 986.7 NA 0.0000 9999 0 0 0 0
2017/11/20 02:59:01 BASE 2.17 307 2.78 315 -1.8 96 -2.4 0 0 986.7 NA 0.0000 9999 0 0 0 0
2017/11/20 03:00:01 BASE 1.79 303 2.78 315 -1.8 96 -2.4 0 0 986.7 NA 0.0000 9999 0 0 0 0
2017/11/20 03:01:01 BASE 1.80 298 2.78 315 -1.8 96 -2.4 0 0 986.7 NA 0.0000 9999 0 0 0 0
2017/11/20 03:02:01 BASE 1.90 296 2.78 315 -1.8 95 -2.4 0 0 986.8 NA 0.0000 9999 0 0 0 0
2017/11/20 03:03:01 BASE 1.83 307 2.78 315 -1.8 95 -2.5 0 0 986.8 NA 0.0000 9999 0 0 0 0
2017/11/20 03:04:01 BASE 1.74 322 2.78 315 -1.8 95 -2.5 0 0 986.8 NA 0.0000 9999 0 0 0 0
2017/11/20 03:05:01 BASE 1.59 328 2.78 315 -1.8 95 -2.5 0 0 986.8 NA 0.0000 9999 0 0 0 0
2017/11/20 03:06:01 BASE 1.58 327 2.78 315 -1.9 95 -2.6 0 0 986.8 NA 0.0000 9999 0 0 0 0
2017/11/20 03:07:01 BASE 1.53 320 2.68 308 -1.9 95 -2.6 0 0 986.8 NA 0.0000 9999 0 0 0 0
2017/11/20 03:08:01 BASE 1.36 310 2.16 293 -2.0 95 -2.6 0 0 986.8 NA 0.0000 9999 0 0 0 0
2017/11/20 03:09:01 BASE 1.37 309 2.16 293 -2.0 95 -2.6 0 0 986.7 NA 0.0000 9999 0 0 0 0
2017/11/20 03:10:01 BASE 2.01 311 2.88 294 -2.0 96 -2.6 0 0 986.7 NA 0.0000 9999 0 0 0 0
2017/11/20 03:11:01 BASE 2.50 297 2.88 294 -1.9 96 -2.6 0 0 986.7 NA 0.0000 9999 0 0 0 0
2017/11/20 03:12:01 BASE 1.87 293 2.88 294 -1.9 95 -2.6 0 0 986.7 NA 0.0000 9999 0 0 0 0
2017/11/20 03:13:01 BASE 1.03 307 2.88 294 -1.9 95 -2.6 0 0 986.7 NA 0.0000 9999 0 0 0 0
2017/11/20 03:14:01 BASE 1.06 324 2.88 294 -1.9 95 -2.6 0 0 986.7 NA 0.0000 9999 0 0 0 0
2017/11/20 03:15:01 BASE 1.59 333 2.88 294 -1.9 95 -2.6 0 0 986.7 NA 0.0000 9999 0 0 0 0
2017/11/20 03:16:01 BASE 1.55 329 2.88 294 -1.9 94 -2.7 0 0 986.7 NA 0.0000 9999 0 0 0 0
2017/11/20 03:17:01 BASE 1.51 319 2.88 294 -1.9 94 -2.7 0 0 986.7 NA 0.0000 9999 0 0 0 0
2017/11/20 03:18:01 BASE 1.75 323 2.88 294 -1.9 94 -2.7 0 0 986.7 NA 0.0000 9999 0 0 0 0
2017/11/20 03:19:01 BASE 1.85 333 2.88 294 -1.9 94 -2.7 0 0 986.7 NA 0.0000 9999 0 0 0 0
2017/11/20 03:20:01 BASE 1.66 331 2.62 287 -1.9 94 -2.8 0 0 986.7 NA 0.0000 9999 0 0 0 0
2017/11/20 03:21:01 BASE 1.67 339 2.21 322 -1.9 94 -2.8 0 0 986.7 NA 0.0000 9999 0 0 0 0
2017/11/20 03:22:01 BASE 1.98 350 2.37 343 -1.9 94 -2.8 0 0 986.7 NA 0.0000 9999 0 0 0 0
2017/11/20 03:23:01 BASE 2.00 347 2.37 343 -1.9 94 -2.8 0 0 986.7 NA 0.0000 9999 0 0 0 0
2017/11/20 03:24:01 BASE 1.84 340 2.37 343 -2.0 94 -2.8 0 0 986.7 NA 0.0000 9999 0 0 0 0
2017/11/20 03:25:01 BASE 1.71 333 2.37 343 -2.0 94 -2.8 0 0 986.7 NA 0.0000 9999 0 0 0 0
2017/11/20 03:26:01 BASE 1.62 333 2.37 343 -2.0 94 -2.8 0 0 986.6 NA 0.0000 9999 0 0 0 0
2017/11/20 03:27:01 BASE 1.50 336 2.37 343 -2.0 94 -2.8 0 0 986.6 NA 0.0000 9999 0 0 0 0
2017/11/20 03:28:01 BASE 1.21 340 2.37 343 -1.9 94 -2.8 0 0 986.7 NA 0.0000 9999 0 0 0 0
2017/11/20 03:29:01 BASE 0.92 348 2.37 343 -2.0 94 -2.8 0 0 986.7 NA 0.0000 9999 0 0 0 0
2017/11/20 03:30:01 BASE 1.12 359 2.37 343 -2.0 94 -2.8 0 0 986.6 NA 0.0000 9999 0 0 0 0
2017/11/20 03:31:01 BASE 1.41 9 2.37 343 -2.0 94 -2.8 0 0 986.6 NA 0.0000 9999 0 0 0 0
2017/11/20 03:32:01 BASE 1.45 15 2.06 345 -2.1 94 -2.9 0 0 986.6 NA 0.0000 9999 0 0 0 0
2017/11/20 03:33:01 BASE 1.44 17 2.01 345 -2.1 94 -2.9 0 0 986.6 NA 0.0000 9999 0 0 0 0
2017/11/20 03:34:01 BASE 0.89 20 1.85 330 -2.1 94 -2.9 0 0 986.6 NA 0.0000 9999 0 0 0 0
2017/11/20 03:35:01 BASE 0.86 26 1.80 329 -2.1 94 -2.9 0 0 986.6 NA 0.0000 9999 0 0 0 0
2017/11/20 03:36:01 BASE 1.31 32 1.75 360 -2.1 94 -2.9 0 0 986.6 NA 0.0000 9999 0 0 0 0
2017/11/20 03:37:01 BASE 1.42 31 1.75 360 -2.1 94 -2.9 0 0 986.6 NA 0.0000 9999 0 0 0 0
2017/11/20 03:38:01 BASE 1.62 33 2.01 40 -2.1 94 -3.0 0 0 986.6 NA 0.0000 9999 0 0 0 0
2017/11/20 03:39:01 BASE 1.47 33 2.01 40 -2.1 94 -2.9 0 0 986.6 NA 0.0000 9999 0 0 0 0
2017/11/20 03:40:01 BASE 1.43 28 2.01 40 -2.1 94 -3.0 0 0 986.6 NA 0.0000 9999 0 0 0 0
2017/11/20 03:41:01 BASE 1.63 24 2.01 40 -2.1 94 -3.0 0 0 986.6 NA 0.0000 9999 0 0 0 0
2017/11/20 03:42:01 BASE 1.57 24 2.01 40 -2.1 93 -3.0 0 0 986.6 NA 0.0000 9999 0 0 0 0
2017/11/20 03:43:01 BASE 1.36 32 2.01 40 -2.1 93 -3.1 0 0 986.6 NA 0.0000 9999 0 0 0 0
2017/11/20 03:44:01 BASE 1.26 32 2.01 40 -2.2 93 -3.2 0 0 986.6 NA 0.0000 9999 0 0 0 0
2017/11/20 03:45:01 BASE 1.09 23 2.01 40 -2.2 93 -3.2 0 0 986.6 NA 0.0000 9999 0 0 0 0
2017/11/20 03:46:01 BASE 1.03 28 2.01 40 -2.2 93 -3.2 0 0 986.6 NA 0.0000 9999 0 0 0 0
2017/11/20 03:47:01 BASE 1.02 28 2.01 40 -2.2 93 -3.1 0 0 986.6 NA 0.0000 9999 0 0 0 0
2017/11/20 03:48:01 BASE 1.17 12 1.85 19 -2.1 93 -3.1 0 0 986.6 NA 0.0000 9999 0 0 0 0
2017/11/20 03:49:01 BASE 1.46 2 1.85 346 -2.1 93 -3.1 0 0 986.6 NA 0.0000 9999 0 0 0 0
2017/11/20 03:50:01 BASE 1.21 333 1.85 346 -2.1 92 -3.2 0 0 986.6 NA 0.0000 9999 0 0 0 0
2017/11/20 03:51:01 BASE 0.74 329 1.85 346 -2.1 92 -3.2 0 0 986.6 NA 0.0000 9999 0 0 0 0
2017/11/20 03:52:01 BASE 0.96 351 1.85 346 -2.1 92 -3.2 0 0 986.6 NA 0.0000 9999 0 0 0 0
2017/11/20 03:53:01 BASE 1.48 345 1.85 325 -2.1 92 -3.3 0 0 986.6 NA 0.0000 9999 0 0 0 0
2017/11/20 03:54:01 BASE 1.10 354 1.85 325 -2.2 92 -3.3 0 0 986.6 NA 0.0000 9999 0 0 0 0
2017/11/20 03:55:01 BASE 1.04 3 1.85 325 -2.2 92 -3.3 0 0 986.6 NA 0.0000 9999 1280 0 0 0
2017/11/20 03:56:00 BASE 1.34 358 1.85 325 -2.2 92 -3.3 0 0 986.6 NA 0.0000 9999 0 0 0 0
2017/11/20 03:57:00 BASE 0.90 358 1.85 325 -2.2 92 -3.3 0 0 986.6 NA 0.0000 9999 0 0 0 0
2017/11/20 03:58:00 BASE 0.62 4 1.85 325 -2.2 92 -3.3 0 0 986.6 NA 0.0000 9999 0 0 0 0
2017/11/20 03:59:00 BASE 0.40 14 1.85 325 -2.2 92 -3.3 0 0 986.6 NA 0.0000 9999 0 0 0 0
2017/11/20 04:00:00 BASE 0.48 25 1.85 325 -2.2 92 -3.3 0 0 986.6 NA 0.0000 9999 0 0 0 0
2017/11/20 04:01:00 BASE 1.23 28 1.95 18 -2.2 92 -3.3 0 0 986.6 NA 0.0000 9999 0 0 0 0
2017/11/20 04:02:00 BASE 1.75 13 2.26 3 -2.2 92 -3.3 0 0 986.6 NA 0.0000 9999 0 0 0 0
2017/11/20 04:03:00 BASE 1.96 6 2.26 3 -2.2 92 -3.3 0 0 986.6 NA 0.0000 9999 0 0 0 0
2017/11/20 04:04:00 BASE 1.83 359 2.26 3 -2.2 92 -3.3 0 0 986.6 NA 0.0000 9999 0 0 0 0
2017/11/20 04:05:00 BASE 1.75 3 2.26 3 -2.2 92 -3.3 0 0 986.6 NA 0.0000 9999 0 0 0 0
2017/11/20 04:06:00 BASE 1.58 3 2.26 3 -2.2 92 -3.3 0 0 986.6 NA 0.0000 9999 0 0 0 0
2017/11/20 04:07:00 BASE 1.17 5 2.26 3 -2.1 92 -3.3 0 0 986.6 NA 0.0000 9999 0 0 0 0
2017/11/20 04:08:00 BASE 1.22 7 2.26 3 -2.1 92 -3.3 0 0 986.6 NA 0.0000 9999 0 0 0 0
2017/11/20 04:09:00 BASE 1.21 356 2.26 3 -2.2 92 -3.3 0 0 986.6 NA 0.0000 9999 0 0 0 0
2017/11/20 04:10:00 BASE 1.18 4 2.26 3 -2.2 92 -3.3 0 0 986.6 NA 0.0000 9999 0 0 0 0
2017/11/20 04:11:01 BASE 1.34 6 2.26 3 -2.2 92 -3.4 0 0 986.6 NA 0.0000 9999 0 0 0 0
2017/11/20 04:12:00 BASE 1.34 352 2.21 8 -2.3 92 -3.4 0 0 986.6 NA 0.0000 9999 0 0 0 0
2017/11/20 04:13:00 BASE 1.40 337 2.21 8 -2.3 92 -3.4 0 0 986.6 NA 0.0000 9999 0 0 0 0
2017/11/20 04:14:00 BASE 1.33 327 2.21 8 -2.3 92 -3.3 0 0 986.6 NA 0.0000 9999 0 0 0 0
2017/11/20 04:15:00 BASE 1.32 325 2.21 8 -2.3 93 -3.3 0 0 986.6 NA 0.0000 9999 0 0 0 0
2017/11/20 04:16:00 BASE 1.30 328 2.21 8 -2.3 93 -3.3 0 0 986.6 NA 0.0000 9999 0 0 0 0
2017/11/20 04:17:00 BASE 1.28 333 1.95 305 -2.3 93 -3.3 0 0 986.6 NA 0.0000 9999 0 0 0 0
2017/11/20 04:18:00 BASE 1.31 337 1.95 305 -2.3 93 -3.3 0 0 986.6 NA 0.0000 9999 0 0 0 0
2017/11/20 04:19:00 BASE 0.89 332 1.95 305 -2.3 93 -3.3 0 0 986.6 NA 0.0000 9999 0 0 0 0
2017/11/20 04:20:00 BASE 0.71 324 1.95 305 -2.3 93 -3.2 0 0 986.6 NA 0.0000 9999 0 0 0 0
2017/11/20 04:21:00 BASE 1.19 319 1.95 305 -2.3 94 -3.2 0 0 986.6 NA 0.0000 9999 0 0 0 0
2017/11/20 04:22:00 BASE 1.59 322 2.42 324 -2.3 94 -3.2 0 0 986.6 NA 0.0000 9999 0 0 0 0
2017/11/20 04:23:00 BASE 1.74 331 2.42 324 -2.3 94 -3.1 0 0 986.6 NA 0.0000 9999 0 0 0 0
2017/11/20 04:24:00 BASE 1.91 338 2.42 324 -2.3 94 -3.1 0 0 986.6 NA 0.0000 9999 0 0 0 0
2017/11/20 04:25:00 BASE 2.02 346 2.42 324 -2.3 94 -3.1 0 0 986.6 NA 0.0000 9999 0 0 0 0
2017/11/20 04:26:00 BASE 2.02 351 2.42 324 -2.3 94 -3.1 0 0 986.6 NA 0.0000 9999 0 0 0 0
2017/11/20 04:27:00 BASE 2.12 342 2.57 339 -2.3 94 -3.1 0 0 986.6 NA 0.0000 9999 0 0 0 0
2017/11/20 04:28:00 BASE 2.12 325 2.57 336 -2.3 94 -3.1 0 0 986.6 NA 0.0000 9999 0 0 0 0
2017/11/20 04:29:00 BASE 1.78 321 2.57 336 -2.3 95 -3.0 0 0 986.6 NA 0.0000 9999 0 0 0 0
2017/11/20 04:30:00 BASE 1.71 332 2.57 336 -2.2 95 -2.9 0 0 986.6 NA 0.0000 9999 0 0 0 0
2017/11/20 04:31:00 BASE 1.89 333 2.57 336 -2.2 95 -2.9 0 0 986.6 NA 0.0000 9999 0 0 0 0
2017/11/20 04:32:00 BASE 2.03 328 2.93 318 -2.3 95 -3.0 0 0 986.6 NA 0.0000 9999 0 0 0 0
2017/11/20 04:33:00 BASE 2.30 324 2.93 318 -2.3 95 -3.0 0 0 986.6 NA 0.0000 9999 0 0 0 0
2017/11/20 04:34:00 BASE 2.32 321 2.93 318 -2.4 95 -3.1 0 0 986.6 NA 0.0000 9999 0 0 0 0
2017/11/20 04:35:00 BASE 2.29 317 2.93 318 -2.5 95 -3.1 0 0 986.6 NA 0.0000 9999 0 0 0 0
2017/11/20 04:36:00 BASE 2.08 310 2.93 318 -2.4 95 -3.1 0 0 986.6 NA 0.0000 9999 0 0 0 0
2017/11/20 04:37:00 BASE 1.75 304 2.93 318 -2.4 96 -3.0 0 0 986.6 NA 0.0000 9999 0 0 0 0
2017/11/20 04:38:00 BASE 1.94 295 2.93 318 -2.3 96 -2.9 0 0 986.6 NA 0.0000 9999 0 0 0 0
2017/11/20 04:39:00 BASE 2.28 291 2.93 318 -2.2 96 -2.8 0 0 986.6 NA 0.0000 9999 0 0 0 0
2017/11/20 04:40:00 BASE 2.36 294 2.93 318 -2.1 96 -2.7 0 0 986.6 NA 0.0000 9999 0 0 0 0
2017/11/20 04:41:00 BASE 2.34 298 2.93 318 -2.1 96 -2.6 0 0 986.6 NA 0.0000 9999 0 0 0 0
2017/11/20 04:42:00 BASE 2.14 297 2.78 291 -2.1 97 -2.6 0 0 986.6 NA 0.0000 9999 0 0 0 0
2017/11/20 04:43:00 BASE 1.94 295 2.78 291 -2.1 97 -2.5 0 0 986.6 NA 0.0000 9999 0 0 0 0
2017/11/20 04:44:00 BASE 1.97 297 2.78 291 -2.1 97 -2.5 0 0 986.6 NA 0.0000 9999 0 0 0 0
2017/11/20 04:45:00 BASE 2.00 297 2.78 291 -2.1 97 -2.5 0 0 986.6 NA 0.0000 9999 0 0 0 0
2017/11/20 04:46:00 BASE 1.96 299 2.78 291 -2.1 97 -2.5 0 0 986.6 NA 0.0000 9999 0 0 0 0
2017/11/20 04:47:00 BASE 1.95 302 2.78 291 -2.1 97 -2.5 0 0 986.6 NA 0.0000 9999 0 0 0 0
2017/11/20 04:48:00 BASE 2.06 298 2.78 291 -2.2 97 -2.6 0 0 986.6 NA 0.0000 9999 0 0 0 0
2017/11/20 04:49:00 BASE 2.39 290 2.88 285 -2.2 97 -2.6 0 0 986.6 NA 0.0000 9999 0 0 0 0
2017/11/20 04:50:00 BASE 2.74 286 3.09 282 -2.2 97 -2.6 0 0 986.6 NA 0.0000 9999 0 0 0 0
2017/11/20 04:51:00 BASE 2.85 285 3.09 282 -2.2 97 -2.6 0 0 986.6 NA 0.0000 9999 0 0 0 0
2017/11/20 04:52:00 BASE 2.81 288 3.09 282 -2.2 97 -2.6 0 0 986.6 NA 0.0000 9999 0 0 0 0
2017/11/20 04:53:00 BASE 2.60 292 3.09 282 -2.1 97 -2.5 0 0 986.6 NA 0.0000 9999 0 0 0 0
2017/11/20 04:54:00 BASE 2.43 294 3.09 282 -2.1 97 -2.5 0 0 986.6 NA 0.0000 9999 0 0 0 0
2017/11/20 04:55:00 BASE 2.48 297 3.09 282 -2.1 97 -2.5 0 0 986.6 NA 0.0000 9999 0 0 0 0
2017/11/20 04:56:00 BASE 2.48 302 3.09 282 -2.1 97 -2.5 0 0 986.6 NA 0.0000 9999 0 0 0 0
2017/11/20 04:57:00 BASE 2.21 305 3.09 282 -2.1 97 -2.5 0 0 986.6 NA 0.0000 9999 0 0 0 0
2017/11/20 04:58:00 BASE 1.84 309 3.09 282 -2.2 97 -2.6 0 0 986.6 NA 0.0000 9999 0 0 0 0
2017/11/20 04:59:00 BASE 1.56 330 3.09 282 -2.2 97 -2.6 0 0 986.6 NA 0.0000 9999 0 0 0 0
2017/11/20 05:00:00 BASE 1.29 3 2.93 288 -2.2 97 -2.6 0 0 986.6 NA 0.0000 9999 0 0 0 0
2017/11/20 05:01:00 BASE 1.28 26 2.83 295 -2.4 97 -2.8 0 0 986.6 NA 0.0000 9999 0 0 0 0
2017/11/20 05:02:00 BASE 1.67 24 2.78 298 -2.5 97 -3.0 0 0 986.6 NA 0.0000 9999 0 0 0 0
2017/11/20 05:03:00 BASE 1.87 4 2.78 298 -2.7 96 -3.2 0 0 986.6 NA 0.0000 9999 0 0 0 0
2017/11/20 05:04:00 BASE 1.84 353 2.78 298 -2.9 96 -3.4 0 0 986.6 NA 0.0000 9999 0 0 0 0
2017/11/20 05:05:00 BASE 1.99 356 2.68 304 -2.9 96 -3.5 0 0 986.6 NA 0.0000 9999 0 0 0 0
2017/11/20 05:06:00 BASE 2.00 2 2.52 1 -2.9 96 -3.5 0 0 986.6 NA 0.0000 9999 0 0 0 0
2017/11/20 05:07:00 BASE 1.84 4 2.52 1 -2.9 96 -3.4 0 0 986.6 NA 0.0000 9999 0 0 0 0
2017/11/20 05:08:00 BASE 1.52 4 2.52 1 -2.9 96 -3.4 0 0 986.6 NA 0.0000 9999 0 0 0 0
2017/11/20 05:09:00 BASE 1.36 359 2.52 1 -2.8 96 -3.4 0 0 986.6 NA 0.0000 9999 0 0 0 0
2017/11/20 05:10:00 BASE 1.38 340 2.52 1 -2.8 96 -3.4 0 0 986.6 NA 0.0000 9999 0 0 0 0
2017/11/20 05:11:00 BASE 1.27 329 2.52 1 -2.8 96 -3.4 0 0 986.6 NA 0.0000 9999 0 0 0 0
2017/11/20 05:12:00 BASE 1.44 323 2.52 1 -2.8 96 -3.3 0 0 986.6 NA 0.0000 9999 0 0 0 0
2017/11/20 05:13:00 BASE 1.74 315 2.52 1 -2.7 96 -3.3 0 0 986.6 NA 0.0000 9999 0 0 0 0
2017/11/20 05:14:00 BASE 2.15 309 3.14 298 -2.7 96 -3.2 0 1 986.6 NA 0.0000 9999 0 0 0 0
2017/11/20 05:15:00 BASE 2.46 305 3.14 298 -2.6 96 -3.2 0 0 986.6 NA 0.0000 9999 0 0 0 0
2017/11/20 05:16:00 BASE 2.58 299 3.14 298 -2.5 96 -3.1 0 1 986.6 NA 0.0000 9999 0 0 0 0
2017/11/20 05:17:00 BASE 2.74 294 3.19 287 -2.5 96 -3.0 0 1 986.6 NA 0.0000 9999 0 0 0 0
2017/11/20 05:18:00 BASE 2.80 296 3.19 296 -2.4 96 -2.9 0 1 986.6 NA 0.0000 9999 0 0 0 0
2017/11/20 05:19:00 BASE 2.68 300 3.19 296 -2.3 96 -2.9 0 1 986.7 NA 0.0000 9999 0 0 0 0
2017/11/20 05:20:00 BASE 2.69 300 3.29 293 -2.3 96 -2.8 0 1 986.7 NA 0.0000 9999 0 0 0 0
2017/11/20 05:21:00 BASE 2.81 302 3.29 293 -2.3 96 -2.8 1 1 986.7 NA 0.0000 9999 0 0 0 0
2017/11/20 05:22:00 BASE 2.91 304 3.29 293 -2.3 96 -2.8 1 1 986.7 NA 0.0000 9999 0 0 0 0
2017/11/20 05:23:00 BASE 3.02 303 3.29 293 -2.3 96 -2.8 1 1 986.7 NA 0.0000 9999 890 0 0 0
2017/11/20 05:24:00 BASE 3.06 299 3.60 296 -2.3 96 -2.8 1 1 986.7 NA 0.0000 9999 0 0 0 0
2017/11/20 05:25:00 BASE 3.02 299 3.60 296 -2.3 97 -2.7 1 1 986.7 NA 0.0000 9999 0 0 0 0
2017/11/20 05:26:00 BASE 2.93 296 3.60 296 -2.3 97 -2.7 1 1 986.8 NA 0.0000 9999 1150 0 0 0
2017/11/20 05:27:00 BASE 3.32 283 4.12 272 -2.2 97 -2.7 1 1 986.8 NA 0.0000 9999 0 0 0 0
2017/11/20 05:28:00 BASE 3.83 275 4.53 273 -2.2 97 -2.6 1 1 986.8 NA 0.0000 9999 0 0 0 0
2017/11/20 05:29:00 BASE 3.61 269 4.53 273 -2.1 97 -2.5 1 1 986.8 NA 0.0000 9999 0 0 0 0
2017/11/20 05:30:00 BASE 3.57 264 4.53 259 -2.1 97 -2.4 1 1 986.8 NA 0.0000 9999 0 0 0 0
2017/11/20 05:31:00 BASE 3.91 264 4.53 259 -2.1 98 -2.4 1 1 986.8 NA 0.0000 9999 0 0 0 0
2017/11/20 05:32:00 BASE 4.01 268 4.53 259 -2.0 98 -2.3 1 1 986.8 NA 0.0000 9999 0 0 0 0
2017/11/20 05:33:00 BASE 4.16 270 4.53 259 -2.1 98 -2.3 1 1 986.8 NA 0.0000 9999 0 0 0 0
2017/11/20 05:34:00 BASE 4.06 271 4.53 259 -2.1 98 -2.3 1 1 986.8 NA 0.0000 9999 0 0 0 0
2017/11/20 05:35:00 BASE 3.86 271 4.53 259 -2.1 98 -2.3 1 1 986.8 NA 0.0000 9999 0 0 0 0
2017/11/20 05:36:00 BASE 3.62 270 4.53 259 -2.1 99 -2.3 1 1 986.8 NA 0.0000 9999 0 0 0 0
2017/11/20 05:37:00 BASE 3.22 272 4.53 259 -2.1 99 -2.2 1 1 986.8 NA 0.0000 9999 0 0 0 0
2017/11/20 05:38:00 BASE 2.94 273 4.53 259 -2.0 99 -2.2 1 1 986.8 NA 0.0000 9999 0 0 0 0
2017/11/20 05:39:00 BASE 2.91 268 4.53 259 -2.0 99 -2.2 1 1 986.8 NA 0.0000 9999 1020 0 0 0
2017/11/20 05:40:00 BASE 2.93 270 4.42 269 -2.0 99 -2.1 1 2 986.8 NA 0.0000 9999 0 0 0 0
2017/11/20 05:41:00 BASE 3.04 278 4.42 269 -2.0 99 -2.1 1 2 986.9 NA 0.0000 9999 980 0 0 0
2017/11/20 05:42:00 BASE 3.04 276 4.32 270 -2.0 99 -2.1 1 2 986.9 NA 0.0000 9999 1020 0 0 0
2017/11/20 05:43:00 BASE 2.73 265 4.22 271 -2.0 99 -2.1 1 2 987.0 NA 0.0000 9999 0 0 0 0
2017/11/20 05:44:00 BASE 2.59 255 4.12 268 -2.0 99 -2.1 1 2 987.0 NA 0.0000 9999 0 0 0 0
2017/11/20 05:45:00 BASE 2.56 252 3.86 264 -2.0 99 -2.2 1 2 987.0 NA 0.0000 9999 0 0 0 0
2017/11/20 05:46:00 BASE 2.52 249 3.91 245 -2.0 99 -2.2 1 2 987.0 NA 0.0000 9999 0 0 0 0
2017/11/20 05:47:00 BASE 3.01 245 4.12 243 -2.1 99 -2.2 1 2 987.0 NA 0.0000 9999 0 0 0 0
2017/11/20 05:48:00 BASE 3.11 244 4.12 243 -2.1 99 -2.3 1 2 987.0 NA 0.0000 9999 0 0 0 0
2017/11/20 05:49:00 BASE 3.01 241 4.12 243 -2.2 99 -2.3 1 2 987.0 NA 0.0000 9999 0 0 0 0
2017/11/20 05:50:00 BASE 2.76 246 4.12 243 -2.2 99 -2.3 1 2 987.0 NA 0.0000 9999 0 0 0 0
2017/11/20 05:51:00 BASE 2.25 255 4.12 243 -2.2 99 -2.4 1 2 987.0 NA 0.0000 9999 0 0 0 0
2017/11/20 05:52:00 BASE 2.43 254 4.12 243 -2.2 99 -2.3 1 3 987.0 NA 0.0000 9999 0 0 0 0
2017/11/20 05:53:00 BASE 2.71 252 4.12 243 -2.2 99 -2.3 2 3 987.0 NA 0.0000 9999 0 0 0 0
2017/11/20 05:54:00 BASE 2.99 254 4.12 243 -2.2 99 -2.3 2 3 987.1 NA 0.0000 9999 0 0 0 0
2017/11/20 05:55:00 BASE 3.19 258 4.12 243 -2.2 99 -2.3 2 3 987.0 NA 0.0000 9999 0 0 0 0
2017/11/20 05:56:00 BASE 3.25 259 4.12 243 -2.2 99 -2.3 2 3 987.0 NA 0.0000 9999 0 0 0 0
2017/11/20 05:57:00 BASE 3.05 256 4.01 230 -2.2 99 -2.3 2 3 987.0 NA 0.0000 9999 0 0 0 0
2017/11/20 05:58:00 BASE 2.83 254 4.01 230 -2.2 99 -2.3 2 4 987.0 NA 0.0000 9999 0 0 0 0
2017/11/20 05:59:00 BASE 2.75 256 3.96 251 -2.2 99 -2.3 2 4 987.0 NA 0.0000 9999 820 0 0 0
2017/11/20 06:00:00 BASE 2.86 257 3.96 251 -2.2 99 -2.3 2 4 987.0 NA 0.0000 9999 0 0 0 0
2017/11/20 06:01:00 BASE 3.04 254 4.12 225 -2.2 99 -2.3 2 4 987.0 NA 0.0000 9999 0 0 0 0
2017/11/20 06:02:00 BASE 3.49 244 4.32 236 -2.2 99 -2.3 2 4 987.1 NA 0.0000 9999 0 0 0 0
2017/11/20 06:03:00 BASE 3.67 240 4.32 236 -2.3 99 -2.4 2 4 987.1 NA 0.0000 9999 0 0 0 0
2017/11/20 06:04:00 BASE 2.88 247 4.32 236 -2.3 99 -2.4 2 4 987.1 NA 0.0000 9999 0 0 0 0
2017/11/20 06:05:00 BASE 2.36 248 4.32 236 -2.4 99 -2.5 2 5 987.1 NA 0.0000 9999 0 0 0 0
2017/11/20 06:06:00 BASE 2.37 244 4.32 236 -2.4 99 -2.6 2 5 987.1 NA 0.0000 9999 0 0 0 0
2017/11/20 06:07:00 BASE 2.24 241 4.32 236 -2.5 99 -2.6 2 5 987.1 NA 0.0000 9999 850 0 0 0
2017/11/20 06:08:00 BASE 2.16 238 4.32 236 -2.5 99 -2.6 3 5 987.2 NA 0.0000 9999 920 0 0 0
2017/11/20 06:09:00 BASE 2.19 240 4.32 236 -2.5 100 -2.5 3 5 987.2 NA 0.0000 9999 0 0 0 720
2017/11/20 06:10:00 BASE 2.00 243 4.32 236 -2.5 100 -2.5 3 6 987.1 NA 0.0000 9999 0 0 0 0
2017/11/20 06:11:00 BASE 1.97 243 4.32 236 -2.5 100 -2.5 3 6 987.2 NA 0.0000 9999 890 0 0 0
2017/11/20 06:12:00 BASE 1.69 245 3.81 235 -2.5 100 -2.5 3 6 987.2 NA 0.0000 9999 820 0 0 0
2017/11/20 06:13:00 BASE 1.28 247 3.34 237 -2.5 100 -2.5 3 6 987.2 NA 0.0000 9999 0 0 0 0
2017/11/20 06:14:00 BASE 1.70 242 3.34 237 -2.4 100 -2.4 3 7 987.2 NA 0.0000 9999 0 0 0 0
2017/11/20 06:15:00 BASE 2.08 241 3.09 233 -2.4 100 -2.4 3 7 987.2 NA 0.0000 9999 0 0 0 0
2017/11/20 06:16:00 BASE 2.17 253 2.88 238 -2.5 100 -2.5 3 7 987.2 NA 0.0000 9999 0 0 0 0
2017/11/20 06:17:00 BASE 2.58 261 3.19 256 -2.5 100 -2.5 3 8 987.2 NA 0.0000 9999 0 0 0 0
2017/11/20 06:18:00 BASE 3.02 259 3.81 253 -2.4 100 -2.4 3 8 987.2 NA 0.0000 9999 0 0 0 0
2017/11/20 06:19:00 BASE 3.11 259 3.81 253 -2.4 100 -2.4 3 8 987.2 NA 0.0000 9999 0 0 0 0
2017/11/20 06:20:00 BASE 3.04 256 3.81 253 -2.4 100 -2.4 3 8 987.2 NA 0.0000 9999 0 0 0 0
2017/11/20 06:21:00 BASE 2.73 252 3.81 253 -2.4 100 -2.4 4 9 987.2 NA 0.0000 9999 0 0 0 0
2017/11/20 06:22:00 BASE 2.62 249 3.81 253 -2.4 100 -2.4 4 9 987.2 NA 0.0000 9999 0 0 0 0
2017/11/20 06:23:00 BASE 2.81 252 3.81 253 -2.4 100 -2.4 4 9 987.3 NA 0.0000 9999 0 0 0 0
2017/11/20 06:24:00 BASE 2.81 256 3.81 253 -2.4 100 -2.4 4 10 987.3 NA 0.0000 9999 0 0 0 0
2017/11/20 06:25:00 BASE 2.64 252 3.81 253 -2.4 100 -2.4 4 10 987.3 NA 0.0000 9999 0 0 0 0
2017/11/20 06:26:00 BASE 2.39 254 3.81 253 -2.4 100 -2.4 4 10 987.3 NA 0.0000 9999 0 0 0 0
2017/11/20 06:27:00 BASE 2.41 262 3.81 253 -2.4 100 -2.4 4 11 987.3 NA 0.0000 9999 920 0 0 0
2017/11/20 06:28:00 BASE 3.24 263 4.27 267 -2.4 100 -2.4 4 11 987.3 NA 0.0000 9999 890 0 0 0
2017/11/20 06:29:00 BASE 3.85 258 4.27 267 -2.4 100 -2.4 4 11 987.3 NA 0.0000 9999 850 0 0 0
2017/11/20 06:30:00 BASE 3.87 259 4.78 252 -2.4 100 -2.4 4 11 987.3 NA 0.0000 9999 950 0 0 0
2017/11/20 06:31:00 BASE 4.07 258 4.78 252 -2.4 100 -2.4 4 12 987.3 NA 0.0000 9999 1020 0 0 0
2017/11/20 06:32:00 BASE 4.04 254 4.78 252 -2.4 100 -2.4 4 12 987.3 NA 0.0000 9999 980 0 0 0
2017/11/20 06:33:00 BASE 3.50 252 4.78 252 -2.4 100 -2.4 4 12 987.3 NA 0.0000 9999 0 0 0 0
2017/11/20 06:34:00 BASE 2.71 250 4.78 252 -2.4 100 -2.4 5 13 987.3 NA 0.0000 9999 950 0 0 0
2017/11/20 06:35:00 BASE 2.51 254 4.78 252 -2.4 100 -2.4 5 13 987.3 NA 0.0000 9999 920 0 0 0
2017/11/20 06:36:00 BASE 2.89 257 4.78 252 -2.4 100 -2.4 5 14 987.3 NA 0.0000 9999 0 0 0 0
2017/11/20 06:37:00 BASE 3.54 260 4.78 252 -2.4 100 -2.4 5 14 987.3 NA 0.0000 9999 0 0 0 0
2017/11/20 06:38:00 BASE 3.81 261 4.78 252 -2.4 100 -2.4 5 15 987.3 NA 0.0000 9999 0 0 0 0
2017/11/20 06:39:00 BASE 3.57 258 4.78 252 -2.4 100 -2.4 5 15 987.3 NA 0.0000 9999 890 0 0 0
2017/11/20 06:40:00 BASE 3.91 255 5.09 252 -2.4 100 -2.4 5 15 987.3 NA 0.0000 9999 1020 0 0 0
2017/11/20 06:41:00 BASE 3.94 250 5.09 252 -2.4 100 -2.4 5 15 987.4 NA 0.0000 9999 820 0 0 0
2017/11/20 06:42:00 BASE 3.48 244 5.09 252 -2.4 100 -2.4 5 15 987.4 NA 0.0000 9999 950 0 0 0
2017/11/20 06:43:00 BASE 3.98 239 5.20 235 -2.4 100 -2.4 5 14 987.4 NA 0.0000 9999 820 0 0 0
2017/11/20 06:44:00 BASE 4.32 237 5.20 235 -2.4 100 -2.4 5 14 987.4 NA 0.0000 9999 890 0 0 0
2017/11/20 06:45:00 BASE 3.46 241 5.20 235 -2.4 100 -2.4 5 14 987.4 NA 0.0000 9999 890 0 0 0
2017/11/20 06:46:00 BASE 3.39 245 5.20 235 -2.4 100 -2.4 5 14 987.4 NA 0.0000 9999 850 0 0 0
2017/11/20 06:47:00 BASE 4.41 241 5.35 233 -2.3 100 -2.3 5 15 987.4 NA 0.0000 9999 820 0 0 0
2017/11/20 06:48:00 BASE 4.77 236 5.35 233 -2.3 100 -2.3 5 15 987.4 NA 0.0000 9999 820 0 0 0
2017/11/20 06:49:00 BASE 4.45 241 5.66 234 -2.3 100 -2.3 6 15 987.5 NA 0.0000 9999 790 0 0 0
2017/11/20 06:50:00 BASE 4.49 239 5.66 234 -2.3 100 -2.3 7 17 987.5 NA 0.0000 9999 820 0 0 0
2017/11/20 06:51:00 BASE 4.79 230 5.66 234 -2.3 100 -2.3 8 19 987.6 NA 0.0000 9999 720 0 0 0
2017/11/20 06:52:00 BASE 4.64 228 5.66 234 -2.3 100 -2.3 8 20 987.6 NA 0.0000 9999 1120 0 0 0
2017/11/20 06:53:00 BASE 4.52 227 5.66 234 -2.3 100 -2.3 9 20 987.6 NA 0.0000 9999 790 0 0 0
2017/11/20 06:54:00 BASE 4.36 222 5.66 234 -2.3 100 -2.3 9 21 987.6 NA 0.0000 9999 950 0 0 0
2017/11/20 06:55:00 BASE 3.86 223 5.66 234 -2.3 100 -2.3 9 22 987.6 NA 0.0000 9999 0 0 0 0
2017/11/20 06:56:00 BASE 4.17 227 5.66 234 -2.4 100 -2.4 11 24 987.5 NA 0.0000 9999 890 0 0 0
2017/11/20 06:57:00 BASE 4.48 228 5.66 234 -2.4 100 -2.4 14 26 987.5 NA 0.0000 9999 920 0 0 0
2017/11/20 06:58:00 BASE 4.01 232 5.66 234 -2.4 100 -2.4 14 27 987.5 NA 0.0000 9999 790 0 0 0
2017/11/20 06:59:00 BASE 3.64 233 5.56 238 -2.4 100 -2.4 15 27 987.5 NA 0.0000 9999 950 0 0 0
2017/11/20 07:00:00 BASE 3.22 231 5.50 220 -2.3 100 -2.3 13 26 987.6 NA 0.0000 9999 790 0 0 0
2017/11/20 07:01:00 BASE 2.75 242 5.45 233 -2.3 100 -2.3 12 25 987.6 NA 0.0000 9999 790 0 0 0
2017/11/20 07:02:00 BASE 3.02 250 5.25 232 -2.3 100 -2.3 13 26 987.6 NA 0.0000 9999 750 0 0 0
2017/11/20 07:03:00 BASE 3.94 242 5.25 232 -2.3 100 -2.3 17 29 987.6 NA 0.0000 9999 790 0 0 0
2017/11/20 07:04:00 BASE 3.84 238 5.25 232 -2.2 100 -2.2 17 30 987.6 NA 0.0000 9999 790 0 0 0
2017/11/20 07:05:00 BASE 3.24 236 5.25 232 -2.2 100 -2.2 13 28 987.6 NA 0.0000 9999 750 0 0 0
2017/11/20 07:06:00 BASE 3.27 233 5.04 225 -2.2 100 -2.2 11 27 987.6 NA 0.0000 9999 750 0 0 0
2017/11/20 07:07:00 BASE 2.95 234 4.89 234 -2.2 100 -2.2 13 28 987.7 NA 0.0000 9999 750 0 0 0
2017/11/20 07:08:00 BASE 2.80 235 4.89 234 -2.2 100 -2.2 15 30 987.7 NA 0.0000 9999 790 0 0 0
2017/11/20 07:09:00 BASE 3.32 228 4.89 234 -2.2 100 -2.2 14 30 987.7 NA 0.0000 9999 750 0 0 0
2017/11/20 07:10:00 BASE 3.67 221 4.89 234 -2.2 100 -2.2 13 30 987.7 NA 0.0000 9999 790 0 0 0
2017/11/20 07:11:00 BASE 3.98 228 4.99 231 -2.2 100 -2.2 11 30 987.7 NA 0.0000 9999 750 0 0 0
2017/11/20 07:12:00 BASE 4.33 231 4.99 221 -2.2 100 -2.2 11 31 987.7 NA 0.0000 9999 750 0 0 0
2017/11/20 07:13:00 BASE 4.22 224 4.99 221 -2.2 100 -2.2 11 33 987.8 NA 0.0000 9999 820 0 0 0
2017/11/20 07:14:00 BASE 3.99 224 4.99 221 -2.2 100 -2.2 10 34 987.8 NA 0.0000 9999 790 0 0 0
2017/11/20 07:15:00 BASE 3.52 225 4.99 221 -2.2 100 -2.2 11 35 987.8 NA 0.0000 9999 750 0 0 0
2017/11/20 07:16:00 BASE 3.51 220 4.99 221 -2.3 100 -2.3 12 36 987.7 NA 0.0000 9999 820 0 0 0
2017/11/20 07:17:00 BASE 3.76 221 4.99 231 -2.3 100 -2.3 15 40 987.7 NA 0.0000 9999 720 0 0 0
2017/11/20 07:18:00 BASE 3.57 222 4.99 231 -2.3 100 -2.3 15 41 987.8 NA 0.0000 9999 790 2170 0 0
2017/11/20 07:19:00 BASE 3.48 222 4.99 231 -2.3 100 -2.3 15 40 987.8 NA 0.0000 9999 720 0 0 0
2017/11/20 07:20:00 BASE 3.39 228 4.99 231 -2.3 100 -2.3 16 41 987.8 NA 0.0000 9999 790 0 0 0
2017/11/20 07:21:00 BASE 3.56 227 4.99 231 -2.3 100 -2.3 18 42 987.8 NA 0.0000 9999 750 0 0 0
2017/11/20 07:22:00 BASE 3.85 223 4.99 231 -2.3 100 -2.3 18 41 987.8 NA 0.0000 9999 850 2030 0 0
2017/11/20 07:23:00 BASE 4.03 225 4.99 231 -2.3 100 -2.3 16 38 987.8 NA 0.0000 9999 850 2000 0 0
2017/11/20 07:24:00 BASE 4.32 227 5.35 230 -2.3 100 -2.3 18 39 987.8 NA 0.0000 9999 790 2030 0 0
2017/11/20 07:25:00 BASE 4.70 228 5.35 226 -2.3 100 -2.3 20 42 987.8 NA 0.0000 9999 1970 0 0 0
2017/11/20 07:26:00 BASE 4.91 231 5.97 237 -2.3 100 -2.3 24 45 987.8 NA 0.0000 9999 820 0 0 0
2017/11/20 07:27:00 BASE 4.91 232 5.97 237 -2.3 100 -2.3 23 45 987.8 NA 0.0000 9999 720 0 0 0
2017/11/20 07:28:00 BASE 5.13 229 6.02 229 -2.3 100 -2.3 21 43 987.8 NA 0.0000 9999 820 1840 0 0
2017/11/20 07:29:00 BASE 4.79 223 6.02 229 -2.3 100 -2.3 22 44 987.8 NA 0.0000 9999 720 0 0 0
2017/11/20 07:30:00 BASE 4.23 222 6.02 229 -2.3 100 -2.3 26 48 987.8 NA 0.0000 9999 720 0 0 0
2017/11/20 07:31:00 BASE 3.98 224 6.02 229 -2.3 100 -2.3 27 49 987.9 NA 0.0000 9999 720 0 0 0
2017/11/20 07:32:00 BASE 3.51 229 6.02 229 -2.2 100 -2.2 29 52 987.9 NA 0.0000 9999 720 0 0 0
2017/11/20 07:33:00 BASE 3.25 235 6.02 229 -2.2 100 -2.2 26 50 987.8 NA 0.0000 9999 720 0 0 0
2017/11/20 07:34:00 BASE 3.43 232 6.02 229 -2.2 100 -2.2 22 47 987.8 NA 0.0000 9999 690 0 0 0
2017/11/20 07:35:00 BASE 4.14 231 6.02 229 -2.1 100 -2.1 19 44 987.8 NA 0.0000 9999 720 1670 0 0
2017/11/20 07:36:00 BASE 4.33 223 6.02 229 -2.1 100 -2.1 19 44 987.8 NA 0.0000 9999 790 1610 0 0
2017/11/20 07:37:00 BASE 3.69 218 6.02 229 -2.2 100 -2.2 19 43 987.8 NA 0.0000 9999 820 1640 0 0
2017/11/20 07:38:00 BASE 3.35 228 5.14 231 -2.2 100 -2.2 18 43 987.8 NA 0.0000 9999 720 0 0 0
2017/11/20 07:39:00 BASE 3.55 233 5.14 231 -2.2 100 -2.2 19 44 987.8 NA 0.0000 9999 690 1610 0 0
2017/11/20 07:40:00 BASE 3.32 229 5.14 231 -2.2 100 -2.2 18 43 987.8 NA 0.0000 9999 750 1570 0 0
2017/11/20 07:41:00 BASE 3.14 226 5.14 231 -2.2 100 -2.2 16 41 987.8 NA 0.0000 9999 820 1540 0 0
2017/11/20 07:42:00 BASE 3.86 225 5.14 231 -2.2 100 -2.2 17 42 987.8 NA 0.0000 9999 850 0 0 0
2017/11/20 07:43:00 BASE 4.33 225 5.14 231 -2.2 100 -2.2 19 46 987.8 NA 0.0000 9999 850 1510 0 0
2017/11/20 07:44:00 BASE 3.87 223 5.14 231 -2.2 100 -2.2 20 48 987.8 NA 0.0000 9999 1410 0 0 0
2017/11/20 07:45:00 BASE 3.60 218 5.04 225 -2.2 100 -2.2 21 49 987.8 NA 0.0000 9999 820 1440 0 0
2017/11/20 07:46:00 BASE 3.20 223 4.94 228 -2.2 100 -2.2 22 49 987.8 NA 0.0000 9999 980 1480 0 0
2017/11/20 07:47:00 BASE 2.60 231 4.94 228 -2.2 100 -2.2 23 50 987.8 NA 0.0000 9999 690 0 0 0
2017/11/20 07:48:00 BASE 2.63 232 4.94 228 -2.2 100 -2.2 23 52 987.8 NA 0.0000 9999 690 0 0 0
2017/11/20 07:49:00 BASE 2.86 232 4.94 228 -2.2 100 -2.2 24 54 987.8 NA 0.0000 9999 790 1540 0 0
2017/11/20 07:50:00 BASE 2.99 233 4.94 228 -2.2 100 -2.2 24 54 987.8 NA 0.0000 9999 850 1380 0 0
2017/11/20 07:51:00 BASE 2.94 227 4.94 228 -2.2 100 -2.2 22 52 987.8 NA 0.0000 9999 720 0 0 0
2017/11/20 07:52:00 BASE 2.82 220 4.84 224 -2.2 100 -2.2 22 52 987.8 NA 0.0000 9999 1440 0 0 0
2017/11/20 07:53:00 BASE 3.10 219 4.17 216 -2.2 100 -2.2 23 53 987.8 NA 0.0000 9999 820 0 0 0
2017/11/20 07:54:00 BASE 3.40 222 4.17 216 -2.2 100 -2.2 23 54 987.8 NA 0.0000 9999 750 0 0 0
2017/11/20 07:55:00 BASE 3.23 230 3.76 225 -2.2 100 -2.2 23 54 987.8 NA 0.0000 9999 750 1380 0 0
2017/11/20 07:56:00 BASE 3.16 232 4.48 219 -2.2 100 -2.2 22 53 987.8 NA 0.0000 9999 850 0 0 0
2017/11/20 07:57:00 BASE 3.01 235 4.48 219 -2.2 100 -2.2 21 53 987.8 NA 0.0000 9999 720 1350 0 0
2017/11/20 07:58:00 BASE 2.73 246 4.48 219 -2.2 100 -2.2 19 52 987.8 NA 0.0000 9999 1180 0 0 0
2017/11/20 07:59:00 BASE 3.14 242 4.48 219 -2.2 100 -2.2 21 54 987.8 NA 0.0000 9999 1120 0 0 0
2017/11/20 08:00:00 BASE 3.31 233 4.48 219 -2.2 100 -2.2 22 56 987.8 NA 0.0000 9999 950 0 0 0
2017/11/20 08:01:00 BASE 3.61 235 4.53 239 -2.2 100 -2.2 22 54 987.8 NA 0.0000 9999 850 0 0 0
2017/11/20 08:02:00 BASE 4.40 233 5.14 230 -2.2 100 -2.2 20 53 987.8 NA 0.0000 9999 820 0 0 0
2017/11/20 08:03:00 BASE 4.09 232 5.14 230 -2.2 100 -2.2 19 53 987.8 NA 0.0000 9999 720 0 0 0
2017/11/20 08:04:00 BASE 3.49 230 5.14 230 -2.2 100 -2.2 21 58 987.8 NA 0.0000 9999 1050 0 0 0
2017/11/20 08:05:00 BASE 3.24 223 5.14 230 -2.1 100 -2.1 27 66 987.8 NA 0.0000 9999 790 1380 0 0
2017/11/20 08:06:00 BASE 3.61 223 5.45 224 -2.1 100 -2.1 28 65 987.8 NA 0.0000 9999 1250 0 0 0
2017/11/20 08:07:00 BASE 4.09 223 5.45 224 -2.1 100 -2.1 26 62 987.8 NA 0.0000 9999 1050 0 0 0
2017/11/20 08:08:00 BASE 3.70 229 5.45 224 -2.1 100 -2.1 28 63 987.8 NA 0.0000 9999 980 0 0 0
2017/11/20 08:09:00 BASE 3.57 235 5.45 224 -2.2 100 -2.2 23 55 987.8 NA 0.0000 9999 820 0 0 0
2017/11/20 08:10:00 BASE 3.87 235 5.45 232 -2.2 100 -2.2 19 50 987.8 NA 0.0000 9999 790 0 0 0
2017/11/20 08:11:00 BASE 5.58 231 8.23 223 -2.2 100 -2.2 18 50 987.7 NA 0.0000 9999 980 0 0 0
2017/11/20 08:12:00 BASE 6.92 221 8.23 223 -2.2 100 -2.2 18 52 987.7 NA 0.0000 9999 890 0 0 0
2017/11/20 08:13:00 BASE 6.57 209 8.23 223 -2.2 100 -2.2 19 55 987.8 NA 0.0000 9999 950 0 0 0
2017/11/20 08:14:00 BASE 6.58 204 8.23 223 -2.2 100 -2.2 24 63 987.8 NA 0.0000 9999 1080 0 0 0
2017/11/20 08:15:00 BASE 6.47 199 8.23 223 -2.2 100 -2.2 30 75 987.8 NA 0.0000 9999 950 0 0 0
2017/11/20 08:16:00 BASE 6.02 187 8.23 223 -2.2 100 -2.2 31 75 987.8 NA 0.0000 9999 1180 0 0 0
2017/11/20 08:17:00 BASE 5.53 186 8.23 223 -2.2 100 -2.2 34 80 987.8 NA 0.0000 9999 1050 0 0 0
2017/11/20 08:18:00 BASE 4.94 195 8.23 223 -2.2 100 -2.2 38 87 987.8 NA 0.0000 9999 1020 0 0 0
2017/11/20 08:19:00 BASE 4.72 200 8.23 223 -2.2 100 -2.2 41 92 987.8 NA 0.0000 9999 980 0 0 0
2017/11/20 08:20:00 BASE 4.86 191 8.23 223 -2.3 100 -2.3 44 97 987.8 NA 0.0000 9999 980 0 0 0
2017/11/20 08:21:00 BASE 4.84 184 7.92 219 -2.3 100 -2.3 49 104 987.8 NA 0.0000 9999 980 0 0 0
2017/11/20 08:22:00 BASE 5.36 191 7.20 195 -2.2 100 -2.2 54 112 987.8 NA 0.0000 9999 950 0 0 0
2017/11/20 08:23:00 BASE 6.06 189 7.15 202 -2.2 100 -2.2 52 110 987.8 NA 0.0000 9999 950 0 0 0
2017/11/20 08:24:00 BASE 6.36 184 7.51 188 -2.2 100 -2.2 51 108 987.8 NA 0.0000 9999 950 0 0 0
2017/11/20 08:25:00 BASE 7.00 186 8.18 187 -2.2 100 -2.2 55 118 987.8 NA 0.0000 9999 890 0 0 0
2017/11/20 08:26:00 BASE 7.42 187 8.28 190 -2.3 100 -2.3 56 123 987.7 NA 0.0000 9999 950 0 0 0
2017/11/20 08:27:00 BASE 6.92 187 8.28 190 -2.3 100 -2.3 56 125 987.8 NA 0.0000 9999 920 1410 0 0
2017/11/20 08:28:00 BASE 5.77 188 8.28 190 -2.3 100 -2.3 63 136 987.8 NA 0.0000 9999 1080 0 0 0
2017/11/20 08:29:00 BASE 5.08 190 8.28 190 -2.3 100 -2.3 66 142 987.8 NA 0.0000 9999 1020 0 0 0
2017/11/20 08:30:00 BASE 5.26 187 8.28 190 -2.3 100 -2.3 65 142 987.8 NA 0.0000 9999 1150 0 0 0
2017/11/20 08:31:00 BASE 5.48 186 8.28 190 -2.3 100 -2.3 66 143 987.8 NA 0.0000 9999 980 0 0 0
2017/11/20 08:32:00 BASE 5.14 187 8.28 190 -2.3 100 -2.3 71 150 987.8 NA 0.0000 9999 950 0 0 0
2017/11/20 08:33:00 BASE 4.58 185 8.28 190 -2.3 100 -2.3 75 158 987.8 NA 0.0000 9999 980 0 0 0
2017/11/20 08:34:00 BASE 4.33 185 8.28 190 -2.3 100 -2.3 80 167 987.8 NA 0.0000 9999 980 0 0 0
2017/11/20 08:35:00 BASE 4.42 185 8.28 190 -2.3 100 -2.3 88 182 987.7 NA 0.0000 9999 920 0 0 0
2017/11/20 08:36:00 BASE 4.15 184 7.20 190 -2.3 100 -2.3 83 175 987.7 NA 0.0000 9999 1080 0 0 0
2017/11/20 08:37:00 BASE 3.48 187 5.92 187 -2.3 100 -2.3 75 162 987.7 NA 0.0000 9999 1150 0 0 0
2017/11/20 08:38:00 BASE 2.92 193 5.92 187 -2.3 100 -2.3 69 151 987.7 NA 0.0000 9999 1020 0 0 0
2017/11/20 08:39:00 BASE 2.91 196 5.92 187 -2.3 100 -2.3 67 149 987.8 NA 0.0000 9999 1080 0 0 0
2017/11/20 08:40:00 BASE 3.15 200 5.92 187 -2.3 100 -2.3 70 154 987.8 NA 0.0000 9999 890 0 0 0
2017/11/20 08:41:00 BASE 3.12 205 5.56 189 -2.2 100 -2.2 66 147 987.8 NA 0.0000 9999 1050 0 0 0
2017/11/20 08:42:00 BASE 3.13 211 4.84 179 -2.2 100 -2.2 58 134 987.8 NA 0.0000 9999 950 0 0 0
2017/11/20 08:43:00 BASE 3.18 219 4.84 179 -2.2 100 -2.2 56 130 987.8 NA 0.0000 9999 920 0 0 0
2017/11/20 08:44:00 BASE 3.13 223 4.84 179 -2.2 100 -2.2 54 128 987.8 NA 0.0000 9999 920 0 0 0
2017/11/20 08:45:00 BASE 2.11 231 4.32 169 -2.2 100 -2.2 51 124 987.7 NA 0.0000 9999 950 0 0 0
2017/11/20 08:46:00 BASE 1.26 224 3.91 185 -2.2 100 -2.2 48 117 987.7 NA 0.0000 9999 1020 0 0 0
2017/11/20 08:47:00 BASE 2.28 209 3.91 221 -2.2 100 -2.2 48 118 987.7 NA 0.0000 9999 1020 0 0 0
2017/11/20 08:48:00 BASE 3.48 198 4.42 190 -2.2 100 -2.2 56 131 987.7 NA 0.0000 9999 980 0 0 0
2017/11/20 08:49:00 BASE 3.89 187 4.42 190 -2.2 99 -2.3 65 148 987.7 NA 0.0000 9999 950 0 0 0
2017/11/20 08:50:00 BASE 3.76 183 4.42 190 -2.2 99 -2.3 67 151 987.7 NA 0.0000 9999 1080 0 0 0
2017/11/20 08:51:00 BASE 3.12 183 4.42 190 -2.2 99 -2.3 69 157 987.7 NA 0.0000 9999 1080 0 0 0
2017/11/20 08:52:00 BASE 2.76 192 4.42 190 -2.2 99 -2.3 65 150 987.7 NA 0.0000 9999 980 0 0 0
2017/11/20 08:53:00 BASE 2.83 202 4.42 190 -2.2 99 -2.3 61 143 987.7 NA 0.0000 9999 1050 0 0 0
2017/11/20 08:54:00 BASE 2.87 207 4.42 190 -2.2 99 -2.3 63 146 987.7 NA 0.0000 9999 1020 0 0 0
2017/11/20 08:55:00 BASE 2.57 207 4.42 190 -2.1 99 -2.3 62 144 987.6 NA 0.0000 9999 1080 0 0 0
2017/11/20 08:56:00 BASE 2.46 201 4.42 190 -2.1 99 -2.3 58 136 987.6 NA 0.0000 9999 1020 0 0 0
2017/11/20 08:57:00 BASE 3.57 190 5.35 190 -2.1 99 -2.2 58 136 987.6 NA 0.0000 9999 1020 0 0 0
2017/11/20 08:58:00 BASE 4.47 198 5.35 190 -2.1 99 -2.2 58 135 987.6 NA 0.0000 9999 1050 0 0 0
2017/11/20 08:59:00 BASE 3.92 216 5.35 190 -2.1 99 -2.2 57 134 987.6 NA 0.0000 9999 1050 0 0 0
2017/11/20 09:00:00 BASE 3.50 229 5.50 232 -2.1 99 -2.2 55 131 987.6 NA 0.0000 9999 1020 1380 0 0
2017/11/20 09:01:00 BASE 4.06 226 5.56 221 -2.1 99 -2.2 57 136 987.6 NA 0.0000 9999 1180 0 0 0
2017/11/20 09:02:00 BASE 4.50 217 5.56 221 -2.1 99 -2.2 58 138 987.6 NA 0.0000 9999 1120 0 0 0
2017/11/20 09:03:00 BASE 4.15 217 5.56 221 -2.1 99 -2.2 59 140 987.6 NA 0.0000 9999 1150 0 0 0
2017/11/20 09:04:00 BASE 3.66 211 5.56 221 -2.1 99 -2.2 62 147 987.6 NA 0.0000 9999 1050 0 0 0
2017/11/20 09:05:00 BASE 3.22 213 5.56 221 -2.1 99 -2.2 65 153 987.6 NA 0.0000 9999 1210 0 0 0
2017/11/20 09:06:00 BASE 2.80 218 5.56 221 -2.1 99 -2.2 64 151 987.6 NA 0.0000 9999 1120 0 0 0
2017/11/20 09:07:00 BASE 2.55 213 5.56 221 -2.1 99 -2.2 65 153 987.6 NA 0.0000 9999 1120 0 0 0
2017/11/20 09:08:00 BASE 2.38 219 5.56 221 -2.1 99 -2.2 71 164 987.5 NA 0.0000 9999 1120 0 0 0
2017/11/20 09:09:00 BASE 2.50 231 5.56 221 -2.0 99 -2.2 75 173 987.4 NA 0.0000 9999 1180 0 0 0
2017/11/20 09:10:00 BASE 2.67 235 5.56 221 -2.0 99 -2.1 77 176 987.4 NA 0.0000 9999 1150 0 0 0
2017/11/20 09:11:00 BASE 2.69 225 5.09 224 -2.0 99 -2.1 72 166 987.4 NA 0.0000 9999 1380 0 0 0
2017/11/20 09:12:00 BASE 2.75 219 4.99 222 -2.0 99 -2.1 65 153 987.4 NA 0.0000 9999 1080 0 0 0
2017/11/20 09:13:00 BASE 2.48 220 3.91 203 -2.0 99 -2.1 57 138 987.4 NA 0.0000 9999 1050 0 0 0
2017/11/20 09:14:00 BASE 2.30 219 3.76 219 -2.0 99 -2.1 47 122 987.4 NA 0.0000 9999 980 0 0 0
2017/11/20 09:15:00 BASE 2.75 226 3.45 224 -2.0 99 -2.1 40 108 987.5 NA 0.0000 9999 980 0 0 0
2017/11/20 09:16:00 BASE 2.53 231 3.45 224 -2.0 99 -2.1 39 104 987.6 NA 0.0000 9999 1080 0 0 0
2017/11/20 09:17:00 BASE 2.03 234 3.45 224 -2.0 99 -2.1 38 102 987.6 NA 0.0000 9999 980 0 0 0
2017/11/20 09:18:00 BASE 2.13 230 3.45 224 -2.0 99 -2.1 38 102 987.5 NA 0.0000 9999 920 0 0 0
2017/11/20 09:19:00 BASE 2.34 216 3.45 224 -2.0 99 -2.1 40 106 987.5 NA 0.0000 9999 1020 0 0 0
2017/11/20 09:20:00 BASE 2.45 196 3.45 224 -2.0 99 -2.1 41 108 987.5 NA 0.0000 9999 1180 0 0 0
2017/11/20 09:21:00 BASE 2.42 189 3.45 224 -2.0 99 -2.1 43 113 987.5 NA 0.0000 9999 1020 0 0 0
2017/11/20 09:22:00 BASE 2.33 198 3.45 224 -2.0 99 -2.1 43 113 987.5 NA 0.0000 9999 1080 0 0 0
2017/11/20 09:23:00 BASE 2.24 193 3.45 224 -2.0 99 -2.1 43 114 987.4 NA 0.0000 9999 1050 0 0 0
2017/11/20 09:24:00 BASE 2.11 192 3.45 224 -2.0 99 -2.1 44 113 987.5 NA 0.0000 9999 1150 0 0 0
2017/11/20 09:25:00 BASE 1.90 205 3.09 242 -2.0 99 -2.1 44 114 987.5 NA 0.0000 9999 1050 1740 0 0
2017/11/20 09:26:00 BASE 2.06 208 2.98 214 -2.0 99 -2.1 43 111 987.5 NA 0.0000 9999 980 0 0 0
2017/11/20 09:27:00 BASE 2.43 211 2.98 214 -2.0 99 -2.1 41 108 987.5 NA 0.0000 9999 980 0 0 0
2017/11/20 09:28:00 BASE 2.30 215 2.88 208 -2.0 99 -2.1 42 110 987.4 NA 0.0000 9999 950 0 0 0
2017/11/20 09:29:00 BASE 1.88 215 2.88 208 -2.0 99 -2.1 43 113 987.4 NA 0.0000 9999 950 0 0 0
2017/11/20 09:30:00 BASE 2.15 211 2.98 208 -2.0 99 -2.1 42 112 987.4 NA 0.0000 9999 920 0 0 0
2017/11/20 09:31:00 BASE 2.65 208 3.24 209 -2.0 99 -2.1 43 116 987.4 NA 0.0000 9999 1050 0 0 0
2017/11/20 09:32:00 BASE 2.57 212 3.24 209 -2.0 99 -2.1 45 121 987.4 NA 0.0000 9999 1080 0 0 0
2017/11/20 09:33:00 BASE 2.38 221 3.24 209 -2.0 99 -2.1 46 124 987.4 NA 0.0000 9999 1350 0 0 0
2017/11/20 09:34:00 BASE 2.15 223 3.24 209 -2.0 99 -2.1 44 120 987.4 NA 0.0000 9999 1410 0 0 0
2017/11/20 09:35:00 BASE 1.75 211 3.24 209 -2.0 99 -2.1 42 116 987.4 NA 0.0000 9999 1210 0 0 0
2017/11/20 09:36:00 BASE 1.31 217 3.24 209 -2.0 99 -2.1 44 120 987.4 NA 0.0000 9999 1020 0 0 0
2017/11/20 09:37:00 BASE 0.80 224 3.24 209 -2.0 99 -2.1 50 133 987.4 NA 0.0000 9999 980 0 0 0
2017/11/20 09:38:00 BASE 0.99 221 3.24 209 -2.0 99 -2.1 58 149 987.4 NA 0.0000 9999 1310 0 0 0
2017/11/20 09:39:00 BASE 0.97 226 3.24 209 -1.9 99 -2.1 67 166 987.4 NA 0.0000 9999 1210 0 0 0
2017/11/20 09:40:00 BASE 0.37 231 3.24 209 -1.9 99 -2.1 72 176 987.3 NA 0.0000 9999 1150 0 0 0
2017/11/20 09:41:00 BASE 0.42 234 2.73 196 -1.9 99 -2.0 76 185 987.3 NA 0.0000 9999 1080 0 0 0
2017/11/20 09:42:00 BASE 1.27 231 2.62 222 -1.9 99 -2.0 74 182 987.4 NA 0.0000 9999 980 0 0 0
2017/11/20 09:43:00 BASE 2.02 227 2.47 213 -1.9 99 -2.1 69 172 987.4 NA 0.0000 9999 1080 0 0 0
2017/11/20 09:44:00 BASE 2.01 215 2.47 213 -1.9 99 -2.1 70 175 987.4 NA 0.0000 9999 1080 0 0 0
2017/11/20 09:45:00 BASE 1.95 203 2.47 213 -1.9 99 -2.1 78 191 987.4 NA 0.0000 9999 1050 0 0 0
2017/11/20 09:46:00 BASE 1.93 203 2.47 213 -1.9 99 -2.1 92 219 987.4 NA 0.0000 9999 1020 0 0 0
2017/11/20 09:47:00 BASE 1.95 202 2.47 213 -1.9 99 -2.1 102 241 987.4 NA 0.0000 9999 1120 0 0 0
2017/11/20 09:48:00 BASE 1.75 199 2.47 213 -1.9 99 -2.0 112 263 987.3 NA 0.0000 9999 1350 1740 0 0
2017/11/20 09:49:00 BASE 1.43 226 2.47 213 -1.9 99 -2.0 119 277 987.3 NA 0.0000 9999 1280 0 0 0
2017/11/20 09:50:00 BASE 1.97 252 3.14 249 -1.9 99 -2.0 120 280 987.3 NA 0.0000 9999 1080 0 0 0
2017/11/20 09:51:00 BASE 2.76 240 3.40 235 -1.9 99 -2.0 121 282 987.3 NA 0.0000 9999 1540 0 0 0
2017/11/20 09:52:00 BASE 2.73 224 3.40 235 -1.9 99 -2.0 118 278 987.3 NA 0.0000 9999 1510 0 0 0
2017/11/20 09:53:00 BASE 2.56 223 3.40 235 -1.9 99 -2.0 114 271 987.3 NA 0.0000 9999 1440 0 0 0
2017/11/20 09:54:00 BASE 2.22 231 3.40 235 -1.9 99 -2.0 109 261 987.3 NA 0.0000 9999 1440 0 0 0
2017/11/20 09:55:00 BASE 2.01 237 3.40 235 -1.9 99 -2.0 104 252 987.3 NA 0.0000 9999 1480 0 0 0
2017/11/20 09:56:00 BASE 2.27 238 3.40 235 -1.9 99 -2.0 102 248 987.3 NA 0.0000 9999 1210 0 0 0
2017/11/20 09:57:00 BASE 2.50 236 3.40 235 -1.8 99 -2.0 98 239 987.3 NA 0.0000 9999 1180 0 0 0
2017/11/20 09:58:00 BASE 2.40 238 3.40 235 -1.8 99 -1.9 94 231 987.3 NA 0.0000 9999 1050 0 0 0
2017/11/20 09:59:00 BASE 2.02 242 3.40 235 -1.8 99 -1.9 94 229 987.3 NA 0.0000 9999 1120 0 0 0
2017/11/20 10:00:00 BASE 1.85 246 3.40 235 -1.8 99 -1.9 94 228 987.3 NA 0.0000 9999 1150 0 0 0
2017/11/20 10:01:00 BASE 1.75 245 3.14 214 -1.8 99 -1.9 93 227 987.3 NA 0.0000 9999 1080 0 0 0
2017/11/20 10:02:00 BASE 1.94 241 2.88 236 -1.8 99 -1.9 92 226 987.3 NA 0.0000 9999 1080 0 0 0
2017/11/20 10:03:00 BASE 2.38 232 2.88 236 -1.8 99 -1.9 93 229 987.3 NA 0.0000 9999 1120 0 0 0
2017/11/20 10:04:00 BASE 2.53 219 2.88 215 -1.8 99 -1.9 87 217 987.3 NA 0.0000 9999 1020 1900 0 0
2017/11/20 10:05:00 BASE 2.34 217 2.88 215 -1.8 99 -2.0 82 205 987.3 NA 0.0000 9999 980 0 0 0
2017/11/20 10:06:00 BASE 1.93 220 2.88 215 -1.9 99 -2.0 77 196 987.3 NA 0.0000 9999 920 0 0 0
2017/11/20 10:07:00 BASE 1.30 224 2.88 215 -1.9 99 -2.0 72 185 987.3 NA 0.0000 9999 1080 0 0 0
2017/11/20 10:08:00 BASE 0.41 226 2.88 215 -1.9 99 -2.0 68 176 987.3 NA 0.0000 9999 1180 0 0 0
2017/11/20 10:09:00 BASE 0.00 242 2.88 215 -1.8 99 -2.0 67 173 987.3 NA 0.0000 9999 1080 0 0 0
2017/11/20 10:10:00 BASE 0.00 264 2.88 215 -1.8 99 -2.0 68 177 987.3 NA 0.0000 9999 1150 0 0 0
2017/11/20 10:11:00 BASE 0.00 281 2.88 215 -1.8 99 -1.9 71 182 987.3 NA 0.0000 9999 1210 0 0 0
2017/11/20 10:12:00 BASE 0.00 281 2.88 215 -1.8 99 -1.9 72 185 987.3 NA 0.0000 9999 1120 0 0 0
2017/11/20 10:13:00 BASE 0.68 262 2.88 215 -1.7 99 -1.9 71 183 987.2 NA 0.0000 9999 1080 0 0 0
2017/11/20 10:14:00 BASE 1.16 247 2.31 222 -1.8 99 -1.9 70 182 987.2 NA 0.0000 9999 1020 0 0 0
2017/11/20 10:15:00 BASE 0.99 234 2.31 222 -1.8 99 -1.9 74 189 987.2 NA 0.0000 9999 920 0 0 0
2017/11/20 10:16:00 BASE 1.36 229 1.95 227 -1.8 99 -1.9 80 201 987.2 NA 0.0000 9999 890 0 0 0
2017/11/20 10:17:00 BASE 1.29 226 1.95 227 -1.8 99 -1.9 79 201 987.2 NA 0.0000 9999 850 0 0 0
2017/11/20 10:18:00 BASE 1.21 221 1.95 227 -1.8 99 -1.9 83 210 987.2 NA 0.0000 9999 790 0 0 0
2017/11/20 10:19:00 BASE 1.28 228 1.95 227 -1.8 99 -1.9 86 217 987.2 NA 0.0000 8000 750 0 0 0
2017/11/20 10:20:00 BASE 0.82 235 1.95 227 -1.8 99 -1.9 85 215 987.2 NA 0.0000 UP 8000 720 0 0 0
2017/11/20 10:21:00 BASE 1.04 232 1.95 227 -1.8 99 -1.9 87 218 987.2 NA 0.0000 UP 9999 490 0 0 0
2017/11/20 10:22:00 BASE 1.44 238 1.95 227 -1.8 99 -1.9 100 244 987.2 NA 0.0000 UP 9999 390 0 0 0
2017/11/20 10:23:00 BASE 1.94 243 3.34 246 -1.8 99 -1.9 114 272 987.2 NA 0.0000 UP 6000 300 1120 0 0
2017/11/20 10:24:00 BASE 2.38 242 3.34 246 -1.7 99 -1.8 119 282 987.2 NA 0.0000 UP BR 3400 820 0 0 0
2017/11/20 10:25:00 BASE 2.50 243 3.34 246 -1.7 99 -1.8 116 279 987.2 NA 0.0000 UP BR 2800 1020 1540 0 0
2017/11/20 10:26:00 BASE 2.40 243 3.34 246 -1.7 100 -1.7 108 263 987.2 NA 0.0000 UP BR 8000 1120 1640 0 0
2017/11/20 10:27:00 BASE 2.24 240 3.34 246 -1.6 100 -1.7 108 263 987.1 NA 0.0000 UP BR 9999 1570 0 0 0
2017/11/20 10:28:00 BASE 2.56 235 3.34 246 -1.6 100 -1.6 111 270 987.1 NA 0.0000 UP BR 9999 1480 0 0 0
2017/11/20 10:29:00 BASE 2.58 239 3.34 237 -1.6 100 -1.6 111 270 987.1 NA 0.0000 UP BR 9999 1510 0 0 0
2017/11/20 10:30:00 BASE 2.90 240 3.55 236 -1.6 100 -1.6 104 258 987.2 NA 0.0000 UP BR 9999 1480 0 0 0
2017/11/20 10:31:00 BASE 3.25 237 3.55 236 -1.6 100 -1.6 100 249 987.2 NA 0.0000 UP BR 9999 1380 0 0 0
2017/11/20 10:32:00 BASE 3.23 234 3.55 236 -1.6 100 -1.6 94 236 987.2 NA 0.0000 UP BR 9999 1180 0 0 0
2017/11/20 10:33:00 BASE 3.47 235 4.17 234 -1.6 100 -1.6 91 231 987.2 NA 0.0000 UP BR 9999 950 0 0 0
2017/11/20 10:34:00 BASE 3.65 234 4.42 234 -1.6 100 -1.6 90 228 987.2 NA 0.0000 BR 9999 1210 0 0 0
2017/11/20 10:35:00 BASE 3.50 231 4.42 234 -1.6 100 -1.6 89 226 987.2 NA 0.0000 9999 1050 1610 0 0
2017/11/20 10:36:00 BASE 3.29 230 4.42 234 -1.6 100 -1.6 89 226 987.2 NA 0.0000 9999 890 1610 0 0
2017/11/20 10:37:00 BASE 3.29 227 4.42 234 -1.5 100 -1.5 93 233 987.2 NA 0.0000 9999 950 1610 0 0
2017/11/20 10:38:00 BASE 3.28 228 4.42 234 -1.5 100 -1.5 90 228 987.1 NA 0.0000 9999 1050 1610 0 0
2017/11/20 10:39:00 BASE 4.03 231 5.50 224 -1.5 100 -1.5 80 208 987.1 NA 0.0000 9999 1570 0 0 0
2017/11/20 10:40:00 BASE 4.85 232 5.50 224 -1.5 100 -1.5 74 194 987.1 NA 0.0000 9999 1570 0 0 0
2017/11/20 10:41:00 BASE 5.40 234 6.84 242 -1.5 100 -1.5 72 190 987.1 NA 0.0000 9999 1510 0 0 0
2017/11/20 10:42:00 BASE 5.83 233 6.84 242 -1.6 100 -1.6 78 202 987.1 NA 0.0000 9999 1120 1610 0 0
2017/11/20 10:43:00 BASE 5.73 235 6.84 242 -1.6 100 -1.6 83 213 987.1 NA 0.0000 9999 1540 0 0 0
2017/11/20 10:44:00 BASE 5.54 236 6.84 242 -1.6 100 -1.6 91 230 987.1 NA 0.0000 9999 1210 0 0 0
2017/11/20 10:45:00 BASE 5.45 231 6.84 242 -1.6 100 -1.6 96 240 987.1 NA 0.0000 9999 720 1410 0 0
2017/11/20 10:46:00 BASE 5.48 230 6.84 242 -1.6 100 -1.6 94 237 987.1 NA 0.0000 9999 1510 0 0 0
2017/11/20 10:47:00 BASE 5.60 230 6.84 242 -1.7 100 -1.7 92 235 987.1 NA 0.0000 9999 1540 0 0 0
2017/11/20 10:48:00 BASE 5.86 230 6.84 242 -1.7 100 -1.7 90 231 987.1 NA 0.0000 9999 1570 0 0 0
2017/11/20 10:49:00 BASE 5.85 230 6.84 242 -1.7 100 -1.7 89 228 987.1 NA 0.0000 9999 1440 0 0 0
2017/11/20 10:50:00 BASE 5.81 230 6.84 242 -1.7 100 -1.7 86 222 987.1 NA 0.0000 9999 1410 0 0 0
2017/11/20 10:51:00 BASE 5.76 230 6.64 230 -1.7 100 -1.7 78 207 987.1 NA 0.0000 9999 1180 1610 0 0
2017/11/20 10:52:00 BASE 5.70 230 6.58 233 -1.7 100 -1.7 74 198 987.1 NA 0.0000 9999 460 0 0 0
2017/11/20 10:53:00 BASE 5.64 232 6.58 233 -1.7 100 -1.7 75 200 987.1 NA 0.0000 9000 390 1350 0 0
2017/11/20 10:54:00 BASE 5.69 232 6.58 233 -1.7 100 -1.7 72 191 987.1 NA 0.0000 6000 1020 0 0 0
2017/11/20 10:55:00 BASE 6.10 228 6.84 227 -1.7 100 -1.7 69 183 987.1 NA 0.0000 UP BR 4400 300 0 0 0
2017/11/20 10:56:00 BASE 6.12 227 6.84 227 -1.7 100 -1.7 73 190 987.1 NA 0.0000 UP BR 2200 260 0 0 0
2017/11/20 10:57:00 BASE 5.78 231 6.84 227 -1.7 100 -1.7 70 183 987.1 NA 0.0000 UP BR 3200 300 0 0 0
2017/11/20 10:58:00 BASE 6.08 234 6.84 235 -1.8 100 -1.8 75 196 987.1 NA 0.0000 UP BR 5000 520 1210 0 0
2017/11/20 10:59:00 BASE 6.10 233 6.84 235 -1.8 100 -1.8 74 194 987.1 NA 0.0000 UP BR 9000 460 0 0 0
2017/11/20 11:00:00 BASE 6.11 232 7.41 231 -1.8 100 -1.8 86 222 987.1 NA 0.0000 UP BR 9000 490 0 0 0
2017/11/20 11:01:00 BASE 6.58 234 7.41 231 -1.8 100 -1.8 78 206 987.1 NA 0.0000 UP BR 9000 360 0 0 0
2017/11/20 11:02:00 BASE 6.68 234 7.41 232 -1.8 100 -1.8 71 190 987.1 NA 0.0000 UP BR 6000 360 0 0 0
2017/11/20 11:03:00 BASE 6.09 234 7.41 232 -1.8 100 -1.8 67 181 987.1 NA 0.0000 UP BR 5000 230 0 0 0
2017/11/20 11:04:00 BASE 6.10 236 7.41 235 -1.9 100 -1.9 67 180 987.1 NA 0.0000 UP BR 4500 360 0 0 0
2017/11/20 11:05:00 BASE 6.83 234 7.41 232 -1.9 100 -1.9 60 165 987.1 NA 0.0000 UP BR 8000 390 0 0 0
2017/11/20 11:06:00 BASE 6.90 232 7.41 232 -1.9 100 -1.9 57 156 987.1 NA 0.0000 UP BR 8000 330 0 0 0
2017/11/20 11:07:00 BASE 6.55 232 7.41 232 -1.9 100 -1.9 63 171 987.1 NA 0.0000 UP BR 8000 430 0 0 0
2017/11/20 11:08:00 BASE 6.26 229 7.41 232 -1.9 100 -1.9 70 188 987.1 NA 0.0000 UP BR 8000 390 1210 0 0
2017/11/20 11:09:00 BASE 6.56 226 7.82 223 -1.9 100 -1.9 72 192 987.1 NA 0.0000 UP BR 8000 360 1210 0 0
2017/11/20 11:10:00 BASE 6.61 225 7.82 223 -1.9 100 -1.9 75 198 987.1 NA 0.0000 UP BR 9000 430 0 0 0
2017/11/20 11:11:00 BASE 6.41 224 7.82 223 -2.0 100 -2.0 82 214 987.1 NA 0.0000 UP BR 9999 430 0 0 0
2017/11/20 11:12:00 BASE 6.54 223 7.82 223 -2.0 100 -2.0 88 228 987.1 NA 0.0000 UP BR 9999 690 0 0 0
2017/11/20 11:13:00 BASE 6.45 226 7.82 223 -2.0 100 -2.0 91 236 987.1 NA 0.0000 UP BR 9999 660 0 0 0
2017/11/20 11:14:00 BASE 6.46 230 7.82 223 -2.0 100 -2.0 91 235 987.1 NA 0.0000 UP BR 9999 560 0 0 0
2017/11/20 11:15:00 BASE 6.74 232 7.82 223 -2.0 100 -2.0 102 259 987.1 NA 0.0000 UP 9999 520 0 0 0
2017/11/20 11:16:00 BASE 6.93 233 7.82 223 -2.0 100 -2.0 105 267 987.1 NA 0.0000 UP 9999 560 1380 0 0
2017/11/20 11:17:00 BASE 6.74 232 7.82 223 -2.0 100 -2.0 95 248 987.1 NA 0.0000 UP 9999 520 0 0 0
2017/11/20 11:18:00 BASE 6.86 235 8.08 240 -2.0 100 -2.0 92 240 987.1 NA 0.0000 UP 9999 460 0 0 0
2017/11/20 11:19:00 BASE 7.37 236 8.08 233 -2.0 100 -2.0 97 250 987.1 NA 0.0000 UP 9999 430 0 0 0
2017/11/20 11:20:00 BASE 7.54 235 8.13 239 -2.0 100 -2.0 93 241 987.1 NA 0.0000 9999 490 0 0 0
2017/11/20 11:21:00 BASE 7.55 234 8.28 222 -2.1 100 -2.1 87 227 987.1 NA 0.0000 9999 330 0 0 0
2017/11/20 11:22:00 BASE 7.25 232 8.28 222 -2.1 100 -2.1 89 232 987.1 NA 0.0000 9000 300 0 0 0
2017/11/20 11:23:00 BASE 7.23 231 8.54 235 -2.1 100 -2.1 88 230 987.1 NA 0.0000 UP 8000 330 0 0 0
2017/11/20 11:24:00 BASE 7.41 231 8.54 235 -2.1 100 -2.1 84 221 987.0 NA 0.0000 UP 8000 330 0 0 0
2017/11/20 11:25:00 BASE 7.43 229 8.54 235 -2.1 100 -2.1 71 191 987.1 NA 0.0000 UP 8000 330 0 0 0
2017/11/20 11:26:00 BASE 7.35 229 8.54 235 -2.2 100 -2.2 66 179 987.1 NA 0.0000 UP BR 8000 430 0 0 0
2017/11/20 11:27:00 BASE 7.08 229 8.54 235 -2.2 100 -2.2 65 177 987.1 NA 0.0000 UP BR 8000 490 0 0 0
2017/11/20 11:28:00 BASE 6.72 230 8.54 235 -2.2 100 -2.2 67 181 987.0 NA 0.0000 UP BR 8000 430 0 0 0
2017/11/20 11:29:00 BASE 6.42 231 8.54 235 -2.2 100 -2.2 62 171 987.1 NA 0.0000 UP BR 9000 490 0 0 0
2017/11/20 11:30:00 BASE 6.78 232 8.54 235 -2.2 100 -2.2 61 169 987.0 NA 0.0000 UP BR 9999 490 0 0 0
2017/11/20 11:31:00 BASE 7.25 233 8.54 235 -2.2 100 -2.2 60 165 987.1 NA 0.0000 UP BR 9999 490 0 0 0
2017/11/20 11:32:00 BASE 7.41 232 8.54 235 -2.2 100 -2.2 62 170 987.0 NA 0.0000 UP BR 9999 520 0 0 0
2017/11/20 11:33:00 BASE 7.26 230 8.39 228 -2.2 100 -2.2 65 177 987.1 NA 0.0000 BR 9999 560 0 0 0
2017/11/20 11:34:00 BASE 6.97 230 8.39 228 -2.2 100 -2.2 70 188 987.0 NA 0.0000 BR 9999 560 0 0 0
2017/11/20 11:35:00 BASE 6.91 233 8.39 228 -2.3 100 -2.3 71 190 986.9 NA 0.0000 9999 520 0 0 0
2017/11/20 11:36:00 BASE 7.49 234 8.80 234 -2.3 100 -2.3 76 201 987.0 NA 0.0000 9999 490 0 0 0
2017/11/20 11:37:00 BASE 7.60 233 8.80 234 -2.3 100 -2.3 79 208 987.0 NA 0.0000 9999 520 0 0 0
2017/11/20 11:38:00 BASE 7.24 235 8.80 234 -2.3 100 -2.3 77 204 986.9 NA 0.0000 9999 490 0 0 0
2017/11/20 11:39:00 BASE 7.11 234 8.80 234 -2.3 100 -2.3 75 200 987.0 NA 0.0000 9999 490 0 0 0
2017/11/20 11:40:00 BASE 6.90 232 8.80 234 -2.3 100 -2.3 74 198 986.9 NA 0.0000 9999 520 0 0 0
2017/11/20 11:41:00 BASE 7.29 233 8.80 234 -2.3 100 -2.3 77 206 987.0 NA 0.0000 9999 490 0 0 0
2017/11/20 11:42:00 BASE 7.86 234 8.90 231 -2.3 100 -2.3 72 194 987.0 NA 0.0000 9999 560 0 0 0
2017/11/20 11:43:00 BASE 7.56 235 8.90 231 -2.3 100 -2.3 71 191 987.0 NA 0.0000 9999 560 0 0 0
2017/11/20 11:44:00 BASE 7.17 231 8.90 231 -2.3 100 -2.3 72 194 987.0 NA 0.0000 9999 590 0 0 0
2017/11/20 11:45:00 BASE 6.78 228 8.90 231 -2.3 100 -2.3 73 198 987.0 NA 0.0000 9999 720 0 0 0
2017/11/20 11:46:00 BASE 6.69 228 8.90 231 -2.3 100 -2.3 68 188 987.0 NA 0.0000 9999 750 0 0 0
2017/11/20 11:47:00 BASE 7.61 230 8.90 231 -2.3 100 -2.3 68 187 987.0 NA 0.0000 9999 660 0 0 0
2017/11/20 11:48:00 BASE 8.37 231 9.31 229 -2.3 100 -2.3 67 186 987.0 NA 0.0000 9999 920 0 0 0
2017/11/20 11:49:00 BASE 8.32 231 9.31 229 -2.4 100 -2.4 65 184 987.0 NA 0.0000 9999 820 0 0 0
2017/11/20 11:50:00 BASE 7.79 229 9.31 229 -2.4 100 -2.4 65 184 987.0 NA 0.0000 9999 660 0 0 0
2017/11/20 11:51:00 BASE 6.62 228 9.31 229 -2.4 100 -2.4 67 187 987.1 NA 0.0000 9999 720 0 0 0
2017/11/20 11:52:00 BASE 6.40 230 9.31 229 -2.4 100 -2.4 73 200 987.0 NA 0.0000 9999 620 0 0 0
2017/11/20 11:53:00 BASE 7.45 232 9.31 229 -2.4 100 -2.4 84 224 987.0 NA 0.0000 9999 690 0 0 0
2017/11/20 11:54:00 BASE 7.83 233 9.31 229 -2.4 100 -2.4 93 243 987.0 NA 0.0000 9999 750 0 0 0
2017/11/20 11:55:00 BASE 7.85 232 9.31 229 -2.4 100 -2.4 101 263 987.0 NA 0.0000 9999 1120 0 0 0
2017/11/20 11:56:00 BASE 7.65 229 9.31 229 -2.4 100 -2.4 104 270 987.0 NA 0.0000 9999 1210 0 0 0
2017/11/20 11:57:00 BASE 7.06 227 9.31 229 -2.4 100 -2.4 101 266 987.0 NA 0.0000 9999 1050 0 0 0
2017/11/20 11:58:00 BASE 6.51 229 9.21 231 -2.4 100 -2.4 97 258 987.0 NA 0.0000 9999 590 1020 0 0
2017/11/20 11:59:00 BASE 6.51 232 9.21 231 -2.4 100 -2.4 83 227 987.0 NA 0.0000 9999 890 0 0 0
2017/11/20 12:00:00 BASE 6.70 230 9.21 231 -2.4 100 -2.4 82 221 987.0 NA 0.0000 9999 660 0 0 0
2017/11/20 12:01:00 BASE 6.88 230 9.21 231 -2.4 100 -2.4 84 227 987.0 NA 0.0000 9999 690 1120 0 0
2017/11/20 12:02:00 BASE 6.94 230 9.21 231 -2.4 100 -2.4 83 223 987.1 NA 0.0000 9999 690 0 0 0
2017/11/20 12:03:00 BASE 6.84 228 9.21 231 -2.4 100 -2.4 90 239 987.1 NA 0.0000 9999 590 0 0 0
2017/11/20 12:04:00 BASE 6.84 226 9.21 231 -2.5 100 -2.5 97 256 987.1 NA 0.0000 9999 820 0 0 0
2017/11/20 12:05:01 BASE 6.84 229 8.18 226 -2.5 100 -2.5 96 255 987.1 NA 0.0000 9999 890 0 0 0
2017/11/20 12:06:00 BASE 6.86 234 8.08 228 -2.5 100 -2.5 93 249 987.1 NA 0.0000 9999 560 0 0 0
2017/11/20 12:07:00 BASE 7.25 237 8.08 228 -2.5 100 -2.5 89 240 987.1 NA 0.0000 9999 390 0 0 0
2017/11/20 12:08:00 BASE 7.43 235 8.08 228 -2.5 100 -2.5 86 232 987.1 NA 0.0000 9999 390 0 0 0
2017/11/20 12:09:00 BASE 6.83 235 8.08 228 -2.5 100 -2.5 94 250 987.1 NA 0.0000 9999 360 0 0 0
2017/11/20 12:10:00 BASE 6.49 233 8.08 228 -2.5 100 -2.5 98 258 987.1 NA 0.0000 9999 360 0 0 0
2017/11/20 12:11:00 BASE 6.38 231 7.97 237 -2.5 100 -2.5 108 282 987.1 NA 0.0000 9999 430 0 0 0
2017/11/20 12:12:00 BASE 6.63 229 7.97 237 -2.6 100 -2.6 106 280 987.1 NA 0.0000 9999 430 0 0 0
2017/11/20 12:13:00 BASE 6.89 224 7.97 237 -2.6 100 -2.6 94 252 987.1 NA 0.0000 9999 560 24050 0 0
2017/11/20 12:14:00 BASE 6.90 226 8.08 221 -2.6 100 -2.6 93 249 987.1 NA 0.0000 9999 460 0 0 0
2017/11/20 12:15:00 BASE 7.15 230 8.08 221 -2.6 100 -2.6 94 252 987.1 NA 0.0000 9999 460 0 0 0
2017/11/20 12:16:00 BASE 7.51 229 8.59 230 -2.7 100 -2.7 91 246 987.1 NA 0.0000 9999 430 0 0 0
2017/11/20 12:17:00 BASE 7.32 229 8.59 230 -2.7 100 -2.7 88 237 987.1 NA 0.0000 9999 460 0 0 0
2017/11/20 12:18:00 BASE 6.71 230 8.59 230 -2.8 100 -2.8 94 249 987.1 NA 0.0000 9999 430 0 0 0
2017/11/20 12:19:00 BASE 6.10 229 8.59 230 -2.8 100 -2.8 98 260 987.1 NA 0.0000 9999 460 0 0 0
2017/11/20 12:20:00 BASE 5.44 227 8.59 230 -2.8 100 -2.8 92 245 987.1 NA 0.0000 9999 430 0 0 0
2017/11/20 12:21:00 BASE 5.80 227 8.59 230 -2.7 100 -2.7 98 258 987.1 NA 0.0000 9999 430 0 0 0
2017/11/20 12:22:00 BASE 6.60 229 8.59 230 -2.7 100 -2.7 99 263 987.1 NA 0.0000 9999 460 0 0 0
2017/11/20 12:23:00 BASE 6.80 229 8.59 230 -2.7 100 -2.7 97 258 987.1 NA 0.0000 9999 490 0 0 0
2017/11/20 12:24:00 BASE 6.72 232 8.59 230 -2.7 100 -2.7 97 258 987.1 NA 0.0000 9999 490 0 0 0
2017/11/20 12:25:00 BASE 6.40 233 8.59 230 -2.8 100 -2.8 95 254 987.1 NA 0.0000 9999 520 0 0 0
2017/11/20 12:26:00 BASE 6.12 233 7.61 227 -2.8 100 -2.8 100 267 987.1 NA 0.0000 9999 490 0 0 0
2017/11/20 12:27:00 BASE 6.59 230 7.61 234 -2.8 100 -2.8 99 264 987.1 NA 0.0000 9999 520 0 0 0
2017/11/20 12:28:00 BASE 6.51 227 7.61 234 -2.8 100 -2.8 95 255 987.1 NA 0.0000 9999 460 0 0 0
2017/11/20 12:29:00 BASE 6.22 230 7.61 234 -2.8 100 -2.8 97 259 987.1 NA 0.0000 9999 460 0 0 0
2017/11/20 12:30:00 BASE 6.39 233 7.61 234 -2.8 100 -2.8 102 270 987.1 NA 0.0000 9999 460 0 0 0
2017/11/20 12:31:00 BASE 6.28 232 7.61 234 -2.8 100 -2.8 104 276 987.1 NA 0.0000 9999 460 0 0 0
2017/11/20 12:32:00 BASE 5.98 231 7.61 234 -2.8 100 -2.8 110 289 987.1 NA 0.0000 9999 460 0 0 0
2017/11/20 12:33:00 BASE 5.93 229 7.61 234 -2.8 100 -2.8 106 283 987.1 NA 0.0000 9999 460 0 0 0
2017/11/20 12:34:00 BASE 6.28 228 7.61 234 -2.8 100 -2.8 99 268 987.2 NA 0.0000 9999 460 0 0 0
2017/11/20 12:35:00 BASE 6.38 232 7.61 234 -2.8 100 -2.8 96 259 987.2 NA 0.0000 9999 490 0 0 0
2017/11/20 12:36:00 BASE 6.11 236 7.61 234 -2.8 100 -2.8 95 256 987.2 NA 0.0000 9999 520 0 0 0
2017/11/20 12:37:00 BASE 6.13 233 7.41 229 -2.8 100 -2.8 96 257 987.2 NA 0.0000 9999 520 0 0 0
2017/11/20 12:38:00 BASE 6.08 232 7.41 229 -2.8 100 -2.8 97 259 987.2 NA 0.0000 9999 520 0 0 0
2017/11/20 12:39:00 BASE 5.86 233 7.41 229 -2.8 100 -2.8 100 267 987.2 NA 0.0000 9999 520 0 0 0
2017/11/20 12:40:00 BASE 5.71 231 7.41 229 -2.8 100 -2.8 97 261 987.2 NA 0.0000 9999 660 0 0 0
2017/11/20 12:41:00 BASE 5.72 231 7.41 229 -2.8 100 -2.8 106 279 987.2 NA 0.0000 9999 520 0 0 0
2017/11/20 12:42:00 BASE 5.82 230 7.41 229 -2.8 100 -2.8 109 288 987.2 NA 0.0000 9999 750 0 0 0
2017/11/20 12:43:00 BASE 5.35 228 7.41 229 -2.8 100 -2.8 106 282 987.2 NA 0.0000 9999 590 0 0 0
2017/11/20 12:44:00 BASE 5.22 227 6.74 239 -2.8 100 -2.8 99 266 987.1 NA 0.0000 9999 590 0 0 0
2017/11/20 12:45:00 BASE 5.45 226 6.74 239 -2.8 100 -2.8 103 273 987.2 NA 0.0000 9999 620 0 0 0
2017/11/20 12:46:00 BASE 5.82 230 7.31 232 -2.8 100 -2.8 111 291 987.1 NA 0.0000 9999 690 23100 0 0
2017/11/20 12:47:00 BASE 6.16 234 7.31 232 -2.7 100 -2.7 120 311 987.1 NA 0.0000 9999 590 0 0 0
2017/11/20 12:48:00 BASE 5.81 232 7.31 232 -2.7 100 -2.7 122 319 987.1 NA 0.0000 9999 1020 0 0 0
2017/11/20 12:49:00 BASE 5.58 231 7.31 232 -2.7 100 -2.7 119 314 987.1 NA 0.0000 9999 590 0 0 0
2017/11/20 12:50:00 BASE 5.67 229 7.31 232 -2.7 100 -2.7 116 309 987.1 NA 0.0000 9999 720 0 0 0
2017/11/20 12:51:00 BASE 5.60 228 7.31 232 -2.7 100 -2.7 113 301 987.1 NA 0.0000 9999 790 0 0 0
2017/11/20 12:52:00 BASE 5.43 230 7.31 232 -2.7 100 -2.7 110 294 987.1 NA 0.0000 9999 820 0 0 0
2017/11/20 12:53:00 BASE 5.36 233 7.31 232 -2.7 100 -2.7 115 303 987.1 NA 0.0000 9999 690 0 0 0
2017/11/20 12:54:00 BASE 5.22 232 7.31 232 -2.7 100 -2.7 124 324 987.1 NA 0.0000 9999 620 0 0 0
2017/11/20 12:55:00 BASE 4.79 230 7.31 232 -2.7 100 -2.7 128 333 987.1 NA 0.0000 9999 1050 0 0 0
2017/11/20 12:56:00 BASE 4.83 232 6.58 235 -2.7 100 -2.7 124 326 987.1 NA 0.0000 9999 1050 0 0 0
2017/11/20 12:57:00 BASE 4.96 233 6.38 230 -2.7 100 -2.7 127 332 987.1 NA 0.0000 9999 620 0 0 0
2017/11/20 12:58:00 BASE 4.91 234 6.38 230 -2.7 100 -2.7 136 350 987.0 NA 0.0000 9999 620 1180 0 0
2017/11/20 12:59:00 BASE 5.10 231 6.28 224 -2.7 100 -2.7 143 369 987.0 NA 0.0000 9999 620 0 0 0
2017/11/20 13:00:00 BASE 4.83 226 6.12 230 -2.7 100 -2.7 147 379 987.0 NA 0.0000 9999 1020 0 0 0
2017/11/20 13:01:00 BASE 4.89 228 6.02 229 -2.7 100 -2.7 143 374 987.0 NA 0.0000 9999 1120 0 0 0
2017/11/20 13:02:00 BASE 5.04 236 5.97 238 -2.7 100 -2.7 134 356 987.0 NA 0.0000 9999 690 0 0 0
2017/11/20 13:03:00 BASE 4.95 239 5.97 238 -2.7 100 -2.7 128 344 987.0 NA 0.0000 9000 660 0 0 0
2017/11/20 13:04:00 BASE 4.95 237 5.97 238 -2.7 100 -2.7 115 313 987.0 NA 0.0000 UP 7000 560 0 0 0
2017/11/20 13:05:00 BASE 5.10 235 5.97 238 -2.7 100 -2.7 116 310 987.0 NA 0.0000 UP 6000 360 0 0 0
2017/11/20 13:06:00 BASE 5.50 235 6.12 238 -2.8 100 -2.8 120 318 987.0 NA 0.0000 UP BR 6000 300 0 0 0
2017/11/20 13:07:00 BASE 5.58 236 6.12 238 -2.8 100 -2.8 125 328 987.0 NA 0.0000 UP BR 4100 230 0 0 0
2017/11/20 13:08:00 BASE 5.44 237 6.12 238 -2.8 100 -2.8 126 332 986.9 NA 0.0000 UP BR 4700 230 850 0 0
2017/11/20 13:09:00 BASE 5.21 236 6.12 238 -2.8 100 -2.8 135 352 987.0 NA 0.0000 UP BR 6000 330 0 0 0
2017/11/20 13:10:00 BASE 4.68 234 6.12 238 -2.8 100 -2.8 146 376 987.0 NA 0.0000 UP BR 8000 330 0 0 0
2017/11/20 13:11:00 BASE 4.27 235 6.12 238 -2.8 100 -2.8 140 366 986.9 NA 0.0000 UP BR 9000 430 0 0 0
2017/11/20 13:12:00 BASE 4.70 236 6.12 238 -2.8 100 -2.8 136 355 986.8 NA 0.0000 UP BR 8000 490 0 0 0
2017/11/20 13:13:00 BASE 5.18 236 6.12 238 -2.8 100 -2.8 142 369 986.8 NA 0.0000 UP BR 7000 430 0 0 0
2017/11/20 13:14:00 BASE 5.01 238 6.12 238 -2.8 100 -2.8 137 359 986.8 NA 0.0000 UP BR 7000 490 0 0 0
2017/11/20 13:15:00 BASE 4.83 238 6.12 238 -2.8 100 -2.8 127 336 986.8 NA 0.0000 UP BR 7000 430 0 0 0
2017/11/20 13:16:00 BASE 5.00 237 5.97 248 -2.8 100 -2.8 128 336 986.8 NA 0.0000 UP BR 7000 460 0 0 0
2017/11/20 13:17:00 BASE 5.14 236 6.12 235 -2.8 100 -2.8 134 347 986.8 NA 0.0000 UP BR 7000 490 0 0 0
2017/11/20 13:18:00 BASE 5.21 234 6.12 235 -2.8 100 -2.8 134 349 986.8 NA 0.0000 UP BR 9999 430 0 0 0
2017/11/20 13:19:00 BASE 5.08 231 6.12 235 -2.8 100 -2.8 124 329 986.8 NA 0.0000 UP BR 9999 430 0 0 0
2017/11/20 13:20:01 BASE 4.85 228 6.12 235 -2.8 100 -2.8 125 331 986.8 NA 0.0000 UP BR 9999 390 0 0 0
2017/11/20 13:21:00 BASE 5.06 221 6.12 235 -2.8 100 -2.8 126 333 986.8 NA 0.0000 UP BR 7000 390 0 0 0
2017/11/20 13:22:00 BASE 5.08 221 6.12 235 -2.7 100 -2.7 139 360 986.8 NA 0.0000 UP BR 4600 390 0 0 0
2017/11/20 13:23:00 BASE 4.61 233 6.12 235 -2.7 100 -2.7 144 371 986.8 NA 0.0000 UP BR 9000 660 0 0 0
2017/11/20 13:24:00 BASE 4.32 241 6.12 235 -2.7 100 -2.7 151 386 986.8 NA 0.0000 UP BR 9999 590 0 0 0
2017/11/20 13:25:00 BASE 4.55 237 6.12 235 -2.7 100 -2.7 158 402 986.8 NA 0.0000 UP BR 9999 430 0 0 0
2017/11/20 13:26:00 BASE 4.63 231 6.12 235 -2.7 100 -2.7 161 410 986.7 NA 0.0000 UP BR 8000 360 24050 0 0
2017/11/20 13:27:00 BASE 4.25 224 5.81 217 -2.7 100 -2.7 163 416 986.8 NA 0.0000 UP BR 9000 750 0 0 0
2017/11/20 13:28:00 BASE 4.01 222 5.81 217 -2.7 100 -2.7 161 412 986.7 NA 0.0000 UP BR 9999 720 0 0 0
2017/11/20 13:29:00 BASE 4.02 220 5.81 217 -2.7 100 -2.7 158 405 986.7 NA 0.0000 UP BR 9999 560 0 0 0
2017/11/20 13:30:00 BASE 4.05 216 5.81 217 -2.7 100 -2.7 154 396 986.7 NA 0.0000 UP BR 9999 750 22380 0 0
2017/11/20 13:31:00 BASE 3.83 219 5.81 217 -2.7 100 -2.7 158 405 986.7 NA 0.0000 UP BR 9999 790 0 0 0
2017/11/20 13:32:00 BASE 4.36 225 6.38 236 -2.7 100 -2.7 161 413 986.7 NA 0.0000 UP 9999 820 0 0 0
2017/11/20 13:33:00 BASE 5.52 229 6.74 228 -2.6 100 -2.6 166 423 986.7 NA 0.0000 UP 9999 850 0 0 0
2017/11/20 13:34:00 BASE 5.80 228 6.74 228 -2.6 100 -2.6 169 431 986.7 NA 0.0000 UP 9999 850 0 0 0
2017/11/20 13:35:00 BASE 5.57 228 6.74 228 -2.6 100 -2.6 168 432 986.7 NA 0.0000 UP 9999 920 0 0 0
2017/11/20 13:36:00 BASE 5.25 227 6.74 228 -2.6 100 -2.6 163 424 986.7 NA 0.0000 UP 9000 890 0 0 0
2017/11/20 13:37:00 BASE 5.06 227 6.74 228 -2.7 100 -2.7 154 406 986.8 NA 0.0000 UP 4500 300 890 0 0
2017/11/20 13:38:00 BASE 4.71 229 6.74 228 -2.7 100 -2.7 150 394 986.8 NA 0.0000 UP BR 3600 330 0 0 0
2017/11/20 13:39:00 BASE 4.45 231 6.74 228 -2.7 100 -2.7 139 368 986.8 NA 0.0000 UP BR 5000 460 0 0 0
2017/11/20 13:40:00 BASE 4.64 232 6.74 228 -2.7 100 -2.7 138 362 986.8 NA 0.0000 UP BR 8000 520 0 0 0
2017/11/20 13:41:00 BASE 4.80 227 6.74 228 -2.7 100 -2.7 142 371 986.7 NA 0.0000 UP BR 9999 620 0 0 0
2017/11/20 13:42:00 BASE 5.22 225 6.74 228 -2.7 100 -2.7 149 386 986.7 NA 0.0000 UP BR 9999 720 0 0 0
2017/11/20 13:43:00 BASE 5.61 225 6.48 220 -2.7 100 -2.7 153 395 986.7 NA 0.0000 UP BR 9999 750 0 0 0
2017/11/20 13:44:00 BASE 5.75 224 6.43 226 -2.8 100 -2.8 155 401 986.7 NA 0.0000 UP BR 9999 750 0 0 0
2017/11/20 13:45:00 BASE 5.36 224 6.43 226 -2.8 100 -2.8 159 409 986.7 NA 0.0000 UP BR 9999 720 0 0 0
2017/11/20 13:46:00 BASE 5.11 225 6.43 226 -2.8 100 -2.8 161 414 986.7 NA 0.0000 UP BR 9999 790 0 0 0
2017/11/20 13:47:00 BASE 5.32 225 6.43 226 -2.8 100 -2.8 163 418 986.7 NA 0.0000 UP BR 9999 790 0 0 0
2017/11/20 13:48:00 BASE 5.35 223 6.43 226 -2.8 100 -2.8 170 433 986.7 NA 0.0000 UP 9999 820 0 0 0
2017/11/20 13:49:00 BASE 5.15 225 6.43 226 -2.8 100 -2.8 178 452 986.7 NA 0.0000 UP 9999 820 0 0 0
2017/11/20 13:50:00 BASE 5.21 227 6.43 226 -2.7 100 -2.7 183 464 986.7 NA 0.0000 9999 850 0 0 0
2017/11/20 13:51:00 BASE 5.44 227 6.48 236 -2.7 100 -2.7 184 467 986.7 NA 0.0000 9999 820 0 0 0
2017/11/20 13:52:00 BASE 5.75 225 6.48 224 -2.7 100 -2.7 182 462 986.7 NA 0.0000 9999 890 0 0 0
2017/11/20 13:53:00 BASE 5.67 222 6.48 224 -2.7 100 -2.7 180 460 986.7 NA 0.0000 9999 820 0 0 0
2017/11/20 13:54:00 BASE 4.87 223 6.48 224 -2.7 100 -2.7 180 460 986.7 NA 0.0000 9999 820 0 0 0
2017/11/20 13:55:00 BASE 4.66 228 6.48 224 -2.7 100 -2.7 181 461 986.7 NA 0.0000 9999 820 0 0 0
2017/11/20 13:56:00 BASE 4.80 231 6.48 224 -2.7 100 -2.7 182 461 986.7 NA 0.0000 9999 850 0 0 0
2017/11/20 13:57:00 BASE 4.88 231 6.48 224 -2.7 100 -2.7 185 468 986.7 NA 0.0000 9999 890 0 0 0
2017/11/20 13:58:00 BASE 4.98 227 6.48 224 -2.7 100 -2.7 186 470 986.7 NA 0.0000 9999 950 0 0 0
2017/11/20 13:59:00 BASE 4.90 225 6.48 224 -2.7 100 -2.7 188 476 986.7 NA 0.0000 9999 950 0 0 0
2017/11/20 14:00:00 BASE 4.65 226 6.48 224 -2.7 100 -2.7 190 481 986.7 NA 0.0000 9999 950 0 0 0
2017/11/20 14:01:00 BASE 4.47 223 6.48 224 -2.7 100 -2.7 192 486 986.7 NA 0.0000 9999 890 0 0 0
2017/11/20 14:02:00 BASE 4.25 219 6.02 219 -2.7 100 -2.7 196 495 986.6 NA 0.0000 9999 980 0 0 0
2017/11/20 14:03:00 BASE 3.91 217 5.86 219 -2.7 100 -2.7 201 506 986.7 NA 0.0000 9999 980 0 0 0
2017/11/20 14:04:00 BASE 4.42 215 5.86 219 -2.6 100 -2.6 204 511 986.6 NA 0.0000 9999 1050 0 0 0
2017/11/20 14:05:00 BASE 5.08 215 5.86 219 -2.6 100 -2.6 201 506 986.7 NA 0.0000 9999 1050 0 0 0
2017/11/20 14:06:00 BASE 4.85 217 5.86 219 -2.6 100 -2.6 193 489 986.7 NA 0.0000 9999 1050 0 0 0
2017/11/20 14:07:00 BASE 4.37 221 5.61 216 -2.6 100 -2.6 183 470 986.7 NA 0.0000 9999 1050 0 0 0
2017/11/20 14:08:00 BASE 4.17 224 5.61 216 -2.6 100 -2.6 172 445 986.7 NA 0.0000 9999 950 0 0 0
2017/11/20 14:09:00 BASE 4.06 224 5.61 216 -2.6 100 -2.6 166 430 986.7 NA 0.0000 9999 950 0 0 0
2017/11/20 14:10:00 BASE 4.41 224 5.61 216 -2.6 100 -2.6 171 440 986.7 NA 0.0000 9999 950 0 0 0
2017/11/20 14:11:00 BASE 5.04 217 5.97 213 -2.6 100 -2.6 180 459 986.7 NA 0.0000 9999 1020 0 0 0
2017/11/20 14:12:00 BASE 5.42 211 5.97 213 -2.5 100 -2.5 186 474 986.6 NA 0.0000 9999 980 0 0 0
2017/11/20 14:13:00 BASE 5.23 216 5.97 213 -2.5 100 -2.5 187 475 986.7 NA 0.0000 9999 1020 0 0 0
2017/11/20 14:14:00 BASE 4.83 221 5.97 213 -2.6 100 -2.6 183 468 986.7 NA 0.0000 9999 1050 0 0 0
2017/11/20 14:15:00 BASE 4.55 222 5.97 213 -2.6 100 -2.7 178 457 986.7 NA 0.0000 9999 950 0 0 0
2017/11/20 14:16:00 BASE 4.39 221 5.97 213 -2.6 99 -2.7 178 457 986.6 NA 0.0000 9999 950 0 0 0
2017/11/20 14:17:00 BASE 4.78 218 5.97 213 -2.6 99 -2.7 190 483 986.6 NA 0.0000 9999 1050 0 0 0
2017/11/20 14:18:00 BASE 4.99 219 5.97 213 -2.6 99 -2.8 211 528 986.6 NA 0.0000 9999 980 0 0 0
2017/11/20 14:19:00 BASE 4.90 217 5.97 213 -2.6 99 -2.8 215 538 986.6 NA 0.0000 9999 980 0 0 0
2017/11/20 14:20:00 BASE 4.85 212 5.97 213 -2.6 99 -2.8 204 517 986.6 NA 0.0000 9999 1080 0 0 0
2017/11/20 14:21:00 BASE 4.77 213 5.92 216 -2.6 99 -2.8 208 524 986.6 NA 0.0000 9999 980 0 0 0
2017/11/20 14:22:00 BASE 4.66 211 5.92 216 -2.7 99 -2.8 215 538 986.6 NA 0.0000 9999 980 0 0 0
2017/11/20 14:23:00 BASE 4.35 210 5.92 216 -2.7 99 -2.9 211 530 986.6 NA 0.0000 9999 980 0 0 0
2017/11/20 14:24:00 BASE 3.96 213 5.92 216 -2.7 98 -2.9 209 527 986.6 NA 0.0000 9999 1020 0 0 0
2017/11/20 14:25:00 BASE 3.89 214 5.92 216 -2.7 98 -2.9 207 524 986.6 NA 0.0000 9999 1020 0 0 0
2017/11/20 14:26:00 BASE 4.07 214 5.92 216 -2.7 98 -3.0 203 514 986.6 NA 0.0000 9999 980 0 0 0
2017/11/20 14:27:00 BASE 4.08 213 5.81 218 -2.7 98 -2.9 203 515 986.6 NA 0.0000 9999 980 0 0 0
2017/11/20 14:28:00 BASE 4.02 213 5.61 213 -2.6 98 -2.9 208 523 986.6 NA 0.0000 9999 980 0 0 0
2017/11/20 14:29:00 BASE 4.06 213 5.61 213 -2.6 98 -2.9 210 529 986.6 NA 0.0000 9999 980 0 0 0
2017/11/20 14:30:00 BASE 4.19 213 5.35 220 -2.6 98 -2.9 214 536 986.6 NA 0.0000 9999 1020 0 0 0
2017/11/20 14:31:00 BASE 4.55 210 5.14 208 -2.6 98 -2.9 219 547 986.6 NA 0.0000 9999 1020 22150 0 0
2017/11/20 14:32:00 BASE 4.40 207 5.14 208 -2.6 98 -2.9 227 564 986.6 NA 0.0000 9999 1080 0 0 0
2017/11/20 14:33:00 BASE 4.13 206 5.14 208 -2.6 98 -2.9 225 562 986.6 NA 0.0000 9999 1120 0 0 0
2017/11/20 14:34:00 BASE 4.22 207 5.14 208 -2.6 98 -2.9 217 547 986.6 NA 0.0000 9999 1080 0 0 0
2017/11/20 14:35:00 BASE 3.97 211 5.14 208 -2.6 98 -2.9 210 531 986.6 NA 0.0000 9999 1050 0 0 0
2017/11/20 14:36:00 BASE 3.61 214 5.14 208 -2.6 98 -2.9 205 520 986.6 NA 0.0000 9999 1020 0 0 0
2017/11/20 14:37:00 BASE 3.54 210 5.14 208 -2.6 98 -2.9 206 520 986.6 NA 0.0000 9999 1020 0 0 0
2017/11/20 14:38:00 BASE 3.83 212 5.14 208 -2.6 98 -2.8 213 536 986.6 NA 0.0000 9999 980 0 0 0
2017/11/20 14:39:00 BASE 4.28 217 5.14 208 -2.6 98 -2.8 220 549 986.5 NA 0.0000 9999 1120 0 0 0
2017/11/20 14:40:00 BASE 4.16 214 5.14 208 -2.5 98 -2.8 222 554 986.6 NA 0.0000 9999 1120 0 0 0
2017/11/20 14:41:00 BASE 3.98 205 5.04 214 -2.5 98 -2.8 224 560 986.5 NA 0.0000 9999 1080 0 0 0
2017/11/20 14:42:00 BASE 4.38 203 5.04 214 -2.5 98 -2.8 220 552 986.6 NA 0.0000 9999 1150 0 0 0
2017/11/20 14:43:00 BASE 4.42 205 5.04 214 -2.5 98 -2.9 214 540 986.6 NA 0.0000 9999 1120 0 0 0
2017/11/20 14:44:00 BASE 4.20 206 5.04 214 -2.5 97 -2.9 214 539 986.6 NA 0.0000 9999 1080 0 0 0
2017/11/20 14:45:00 BASE 4.31 208 5.04 214 -2.6 97 -2.9 215 542 986.5 NA 0.0000 9999 1080 0 0 0
2017/11/20 14:46:00 BASE 4.30 208 5.04 214 -2.6 97 -3.0 218 548 986.5 NA 0.0000 9999 1050 0 0 0
2017/11/20 14:47:00 BASE 3.78 207 5.04 214 -2.6 97 -3.0 220 552 986.5 NA 0.0000 9999 1150 0 0 0
2017/11/20 14:48:00 BASE 3.68 205 5.04 214 -2.6 97 -3.0 218 549 986.5 NA 0.0000 9999 1050 0 0 0
2017/11/20 14:49:00 BASE 4.07 209 4.99 208 -2.5 97 -2.9 216 544 986.5 NA 0.0000 9999 1050 0 0 0
2017/11/20 14:50:00 BASE 4.60 211 5.61 207 -2.5 97 -2.9 220 552 986.5 NA 0.0000 9999 1080 0 0 0
2017/11/20 14:51:00 BASE 5.02 209 5.61 207 -2.5 97 -2.9 227 567 986.5 NA 0.0000 9999 1120 0 0 0
2017/11/20 14:52:00 BASE 5.00 213 6.07 208 -2.5 97 -2.9 232 579 986.5 NA 0.0000 9999 1120 0 0 0
2017/11/20 14:53:00 BASE 4.88 219 6.07 208 -2.5 97 -2.9 236 588 986.5 NA 0.0000 9999 1050 0 0 0
2017/11/20 14:54:00 BASE 4.90 216 6.07 208 -2.5 97 -2.9 239 592 986.5 NA 0.0000 9999 1080 0 0 0
2017/11/20 14:55:00 BASE 4.79 211 6.07 208 -2.5 97 -2.9 242 599 986.5 NA 0.0000 9999 1120 0 0 0
2017/11/20 14:56:00 BASE 4.44 213 6.07 208 -2.4 97 -2.9 240 597 986.5 NA 0.0000 9999 1080 0 0 0
2017/11/20 14:57:00 BASE 4.05 218 6.07 208 -2.4 97 -2.9 233 581 986.5 NA 0.0000 9999 1080 0 0 0
2017/11/20 14:58:00 BASE 4.15 215 6.07 208 -2.4 97 -2.8 227 569 986.5 NA 0.0000 9999 1120 0 0 0
2017/11/20 14:59:00 BASE 4.26 212 6.07 208 -2.4 97 -2.8 223 561 986.5 NA 0.0000 9999 1050 0 0 0
2017/11/20 15:00:00 BASE 4.00 213 6.07 208 -2.4 97 -2.8 220 554 986.5 NA 0.0000 9999 1050 0 0 0
2017/11/20 15:01:00 BASE 3.83 220 6.07 208 -2.4 97 -2.8 215 544 986.5 NA 0.0000 9999 1080 0 0 0
2017/11/20 15:02:00 BASE 3.59 224 5.50 214 -2.4 97 -2.8 213 538 986.5 NA 0.0000 9999 1050 0 0 0
2017/11/20 15:03:00 BASE 3.63 218 5.50 214 -2.4 97 -2.8 214 541 986.5 NA 0.0000 9999 980 0 0 0
2017/11/20 15:04:00 BASE 3.98 213 5.35 207 -2.4 97 -2.8 217 546 986.5 NA 0.0000 9999 980 0 0 0
2017/11/20 15:05:00 BASE 3.88 213 4.99 203 -2.4 97 -2.8 216 544 986.5 NA 0.0000 9999 980 0 0 0
2017/11/20 15:06:00 BASE 3.57 222 4.99 203 -2.4 97 -2.9 211 535 986.5 NA 0.0000 9999 980 0 0 0
2017/11/20 15:07:00 BASE 3.57 226 4.99 203 -2.4 97 -2.9 207 526 986.5 NA 0.0000 9999 950 0 0 0
2017/11/20 15:08:00 BASE 3.35 224 4.78 205 -2.4 97 -2.9 205 520 986.5 NA 0.0000 9999 950 0 0 0
2017/11/20 15:09:00 BASE 2.99 223 4.58 222 -2.4 97 -2.8 203 517 986.4 NA 0.0000 9999 950 0 0 0
2017/11/20 15:10:00 BASE 2.77 218 4.58 222 -2.4 97 -2.8 202 514 986.5 NA 0.0000 9999 980 0 0 0
2017/11/20 15:11:00 BASE 2.80 213 4.58 222 -2.4 97 -2.8 199 508 986.5 NA 0.0000 9999 950 0 0 0
2017/11/20 15:12:00 BASE 2.98 211 4.58 222 -2.4 97 -2.8 196 502 986.5 NA 0.0000 9999 950 0 0 0
2017/11/20 15:13:00 BASE 3.06 212 4.58 222 -2.4 97 -2.8 196 501 986.4 NA 0.0000 9999 950 0 0 0
2017/11/20 15:14:00 BASE 3.01 225 4.58 222 -2.4 97 -2.8 196 502 986.4 NA 0.0000 9999 920 0 0 0
2017/11/20 15:15:00 BASE 2.77 235 4.17 227 -2.4 97 -2.7 197 504 986.4 NA 0.0000 9999 920 0 0 0
2017/11/20 15:16:00 BASE 2.91 228 4.17 227 -2.4 98 -2.7 195 500 986.4 NA 0.0000 9999 920 0 0 0
2017/11/20 15:17:00 BASE 3.33 222 4.06 225 -2.4 98 -2.7 193 496 986.4 NA 0.0000 9999 950 0 0 0
2017/11/20 15:18:00 BASE 3.35 220 4.06 225 -2.4 98 -2.6 191 492 986.4 NA 0.0000 9999 920 21820 0 0
2017/11/20 15:19:00 BASE 3.15 219 4.06 225 -2.4 98 -2.6 188 485 986.4 NA 0.0000 9999 920 0 0 0
2017/11/20 15:20:00 BASE 3.15 217 4.06 225 -2.3 98 -2.6 183 474 986.4 NA 0.0000 9999 920 0 0 0
2017/11/20 15:21:00 BASE 3.60 220 4.89 237 -2.3 98 -2.6 186 478 986.4 NA 0.0000 9999 890 0 0 0
2017/11/20 15:22:00 BASE 4.22 230 4.89 237 -2.3 98 -2.6 201 507 986.4 NA 0.0000 9999 890 0 0 0
2017/11/20 15:23:00 BASE 4.14 230 4.89 237 -2.3 98 -2.6 215 538 986.4 NA 0.0000 9999 1120 0 0 0
2017/11/20 15:24:00 BASE 3.90 230 5.04 232 -2.3 98 -2.6 230 571 986.4 NA 0.0000 9999 1080 0 0 0
2017/11/20 15:25:00 BASE 3.95 233 5.04 232 -2.3 98 -2.6 244 603 986.4 NA 0.0000 9999 1180 0 0 0
2017/11/20 15:26:00 BASE 3.90 223 5.04 232 -2.3 98 -2.6 249 614 986.4 NA 0.0000 9999 1210 0 0 0
2017/11/20 15:27:00 BASE 3.86 218 5.04 232 -2.3 98 -2.6 244 605 986.4 NA 0.0000 9999 1210 0 0 0
2017/11/20 15:28:00 BASE 3.48 219 5.04 232 -2.3 98 -2.6 238 593 986.4 NA 0.0000 9999 1180 0 0 0
2017/11/20 15:29:00 BASE 3.21 213 5.04 232 -2.3 98 -2.6 231 581 986.4 NA 0.0000 9999 1210 0 0 0
2017/11/20 15:30:00 BASE 3.34 211 5.04 232 -2.3 98 -2.6 226 570 986.4 NA 0.0000 9999 1120 0 0 0
2017/11/20 15:31:00 BASE 3.25 215 5.04 232 -2.3 97 -2.6 222 562 986.4 NA 0.0000 9999 1120 0 0 0
2017/11/20 15:32:00 BASE 3.23 229 5.04 232 -2.3 97 -2.7 218 553 986.4 NA 0.0000 9999 1080 0 0 0
2017/11/20 15:33:00 BASE 3.41 239 5.04 232 -2.3 97 -2.7 216 549 986.4 NA 0.0000 9999 1020 0 0 0
2017/11/20 15:34:00 BASE 3.54 240 4.58 218 -2.3 97 -2.7 219 553 986.4 NA 0.0000 9999 1020 0 0 0
2017/11/20 15:35:00 BASE 3.32 239 4.58 218 -2.3 97 -2.7 219 554 986.4 NA 0.0000 9999 980 0 0 0
2017/11/20 15:36:00 BASE 2.90 237 4.58 218 -2.3 97 -2.7 218 553 986.3 NA 0.0000 9999 1020 0 0 0
2017/11/20 15:37:00 BASE 2.90 238 4.27 243 -2.2 97 -2.6 219 553 986.3 NA 0.0000 9999 920 0 0 0
2017/11/20 15:38:00 BASE 3.09 237 4.27 243 -2.2 97 -2.6 220 557 986.3 NA 0.0000 9999 950 0 0 0
2017/11/20 15:39:00 BASE 3.69 236 5.40 238 -2.2 97 -2.6 221 558 986.3 NA 0.0000 9999 890 0 0 0
2017/11/20 15:40:00 BASE 4.61 236 5.45 239 -2.2 97 -2.6 218 553 986.3 NA 0.0000 9999 920 0 0 0
2017/11/20 15:41:00 BASE 4.86 232 5.45 239 -2.2 97 -2.6 219 555 986.3 NA 0.0000 9999 920 0 0 0
2017/11/20 15:42:00 BASE 4.42 233 5.45 239 -2.2 97 -2.6 216 548 986.3 NA 0.0000 9999 920 0 0 0
2017/11/20 15:43:00 BASE 4.24 236 5.45 239 -2.2 98 -2.5 214 542 986.2 NA 0.0000 9999 890 0 0 0
2017/11/20 15:44:00 BASE 4.13 236 5.45 239 -2.2 98 -2.5 208 530 986.3 NA 0.0000 9999 890 0 0 0
2017/11/20 15:45:00 BASE 4.00 235 5.45 239 -2.2 98 -2.5 203 518 986.3 NA 0.0000 9999 890 0 0 0
2017/11/20 15:46:00 BASE 3.65 237 5.45 239 -2.2 98 -2.5 198 507 986.3 NA 0.0000 9999 890 0 0 0
2017/11/20 15:47:00 BASE 3.01 243 5.45 239 -2.2 98 -2.5 196 501 986.3 NA 0.0000 9999 820 0 0 0
2017/11/20 15:48:00 BASE 3.03 244 5.45 239 -2.2 98 -2.4 197 503 986.3 NA 0.0000 9999 820 0 0 0
2017/11/20 15:49:00 BASE 3.33 240 5.45 239 -2.2 98 -2.4 205 520 986.2 NA 0.0000 9999 820 0 0 0
2017/11/20 15:50:00 BASE 4.03 233 5.25 227 -2.2 99 -2.4 222 555 986.2 NA 0.0000 9999 890 0 0 0
2017/11/20 15:51:00 BASE 4.63 227 5.66 218 -2.2 99 -2.4 245 603 986.2 NA 0.0000 9999 920 0 0 0
2017/11/20 15:52:00 BASE 4.84 223 5.66 218 -2.2 99 -2.3 256 628 986.2 NA 0.0000 9999 1250 0 0 0
2017/11/20 15:53:00 BASE 4.82 215 5.66 218 -2.2 99 -2.3 262 642 986.2 NA 0.0000 9999 1210 0 0 0
2017/11/20 15:54:00 BASE 4.62 212 5.66 218 -2.2 99 -2.3 263 646 986.2 NA 0.0000 9999 1250 0 0 0
2017/11/20 15:55:00 BASE 4.91 212 5.81 214 -2.2 99 -2.4 263 647 986.2 NA 0.0000 9999 1250 0 0 0
2017/11/20 15:56:00 BASE 5.49 215 6.58 219 -2.1 98 -2.4 263 647 986.2 NA 0.0000 9999 1210 0 0 0
2017/11/20 15:57:00 BASE 5.43 225 6.58 219 -2.2 98 -2.4 267 655 986.2 NA 0.0000 9999 1180 0 0 0
2017/11/20 15:58:00 BASE 4.83 230 6.58 219 -2.1 98 -2.4 265 651 986.2 NA 0.0000 9999 1210 19030 22640 0
2017/11/20 15:59:00 BASE 4.18 229 6.58 219 -2.1 98 -2.4 250 623 986.2 NA 0.0000 9999 1210 0 0 0
2017/11/20 16:00:01 BASE 3.94 233 6.58 219 -2.1 98 -2.4 237 595 986.2 NA 0.0000 9999 1080 0 0 0
2017/11/20 16:01:00 BASE 4.16 228 6.58 219 -2.1 98 -2.5 227 575 986.2 NA 0.0000 9999 1180 0 0 0
2017/11/20 16:02:00 BASE 4.11 229 6.58 219 -2.1 97 -2.5 220 561 986.2 NA 0.0000 9999 1120 0 0 0
2017/11/20 16:03:00 BASE 4.01 234 6.58 219 -2.1 97 -2.5 209 536 986.2 NA 0.0000 9999 1020 0 0 0
2017/11/20 16:04:00 BASE 4.18 230 6.58 219 -2.1 97 -2.5 195 504 986.2 NA 0.0000 9999 920 0 0 0
2017/11/20 16:05:00 BASE 4.51 229 6.58 219 -2.1 97 -2.5 196 502 986.2 NA 0.0000 9999 890 0 0 0
2017/11/20 16:06:00 BASE 4.83 228 5.45 223 -2.1 97 -2.5 209 526 986.2 NA 0.0000 9999 890 0 0 0
2017/11/20 16:07:00 BASE 5.06 228 5.61 235 -2.1 97 -2.5 214 539 986.2 NA 0.0000 9999 1150 0 0 0
2017/11/20 16:08:00 BASE 4.90 230 5.61 235 -2.1 97 -2.4 214 539 986.2 NA 0.0000 9999 1250 0 0 0
2017/11/20 16:09:00 BASE 4.91 229 5.97 223 -2.1 98 -2.4 220 551 986.2 NA 0.0000 9999 920 0 0 0
2017/11/20 16:10:00 BASE 5.21 225 5.97 223 -2.1 98 -2.4 229 571 986.2 NA 0.0000 9999 1250 0 0 0
2017/11/20 16:11:00 BASE 5.26 222 5.97 223 -2.2 98 -2.4 235 583 986.2 NA 0.0000 9999 1180 0 0 0
2017/11/20 16:12:00 BASE 4.99 223 5.97 223 -2.2 98 -2.4 235 585 986.2 NA 0.0000 9999 1180 0 0 0
2017/11/20 16:13:00 BASE 4.64 225 5.97 223 -2.2 98 -2.5 230 577 986.2 NA 0.0000 9999 1150 0 0 0
2017/11/20 16:14:00 BASE 4.28 227 5.97 223 -2.2 98 -2.5 217 552 986.2 NA 0.0000 9999 1210 0 0 0
2017/11/20 16:15:00 BASE 4.20 230 5.97 223 -2.2 98 -2.5 199 514 986.2 NA 0.0000 9999 980 0 0 0
2017/11/20 16:16:00 BASE 3.82 229 5.97 223 -2.2 98 -2.5 186 484 986.2 NA 0.0000 9999 890 0 0 0
2017/11/20 16:17:00 BASE 3.41 233 5.97 223 -2.2 98 -2.5 179 465 986.2 NA 0.0000 9999 820 0 0 0
2017/11/20 16:18:00 BASE 3.55 228 5.97 223 -2.2 98 -2.5 177 461 986.2 NA 0.0000 9999 820 0 0 0
2017/11/20 16:19:00 BASE 3.72 216 5.61 221 -2.2 98 -2.4 181 468 986.2 NA 0.0000 9999 790 0 0 0
2017/11/20 16:20:00 BASE 3.92 213 5.56 227 -2.2 98 -2.4 186 477 986.2 NA 0.0000 9999 820 0 0 0
2017/11/20 16:21:00 BASE 4.36 215 5.56 214 -2.1 98 -2.4 186 478 986.2 NA 0.0000 9999 850 0 0 0
2017/11/20 16:22:00 BASE 4.56 223 5.56 214 -2.1 98 -2.4 181 468 986.2 NA 0.0000 9999 850 0 0 0
2017/11/20 16:23:00 BASE 4.44 231 5.56 214 -2.2 99 -2.3 182 470 986.2 NA 0.0000 9999 850 0 0 0
2017/11/20 16:24:00 BASE 4.42 232 5.56 214 -2.2 99 -2.3 186 479 986.2 NA 0.0000 9999 850 0 0 0
2017/11/20 16:25:00 BASE 4.19 230 5.56 214 -2.1 99 -2.3 191 489 986.2 NA 0.0000 9999 920 0 0 0
2017/11/20 16:26:00 BASE 4.03 228 5.56 214 -2.2 99 -2.3 195 497 986.2 NA 0.0000 9999 950 0 0 0
2017/11/20 16:27:00 BASE 4.20 229 5.56 214 -2.1 99 -2.3 199 507 986.2 NA 0.0000 9999 920 0 0 0
2017/11/20 16:28:00 BASE 4.70 227 5.56 214 -2.2 99 -2.3 204 517 986.2 NA 0.0000 9999 920 0 0 0
2017/11/20 16:29:00 BASE 5.21 224 5.71 224 -2.1 99 -2.3 210 529 986.2 NA 0.0000 9999 920 0 0 0
2017/11/20 16:30:00 BASE 5.16 226 5.71 224 -2.2 99 -2.3 216 543 986.2 NA 0.0000 9999 920 0 0 0
2017/11/20 16:31:00 BASE 4.56 229 5.71 224 -2.2 99 -2.3 226 563 986.2 NA 0.0000 9999 980 0 0 0
2017/11/20 16:32:00 BASE 4.37 232 5.71 224 -2.2 99 -2.4 234 581 986.2 NA 0.0000 9999 980 0 0 0
2017/11/20 16:33:00 BASE 4.50 230 5.71 224 -2.2 99 -2.3 242 598 986.2 NA 0.0000 9999 1150 0 0 0
2017/11/20 16:34:00 BASE 4.59 230 5.71 224 -2.2 99 -2.3 249 613 986.1 NA 0.0000 9999 1210 0 0 0
2017/11/20 16:35:00 BASE 4.82 235 5.71 224 -2.2 99 -2.3 251 619 986.2 NA 0.0000 9999 1250 0 0 0
2017/11/20 16:36:00 BASE 5.02 238 5.71 224 -2.2 99 -2.4 250 619 986.2 NA 0.0000 9999 1210 0 0 0
2017/11/20 16:37:00 BASE 5.01 232 5.71 224 -2.2 98 -2.4 252 623 986.2 NA 0.0000 9999 1250 0 0 0
2017/11/20 16:38:00 BASE 5.10 229 5.71 224 -2.2 98 -2.4 261 642 986.2 NA 0.0000 9999 1120 0 0 0
2017/11/20 16:39:00 BASE 5.21 231 5.66 230 -2.2 98 -2.4 269 661 986.2 NA 0.0000 9999 1020 0 0 0
2017/11/20 16:40:00 BASE 5.09 228 5.66 230 -2.2 98 -2.5 274 671 986.2 NA 0.0000 9999 1250 0 0 0
2017/11/20 16:41:00 BASE 4.82 225 5.66 230 -2.2 98 -2.5 275 674 986.2 NA 0.0000 9999 1180 0 0 0
2017/11/20 16:42:00 BASE 4.46 223 5.66 230 -2.2 98 -2.5 274 672 986.2 NA 0.0000 9999 1150 0 0 0
2017/11/20 16:43:00 BASE 4.24 224 5.66 230 -2.2 98 -2.5 272 666 986.2 NA 0.0000 9999 1150 21750 22380 0
2017/11/20 16:44:00 BASE 4.39 228 5.66 230 -2.2 98 -2.5 269 661 986.2 NA 0.0000 9999 1120 0 0 0
2017/11/20 16:45:00 BASE 4.51 229 5.66 230 -2.2 98 -2.5 266 656 986.1 NA 0.0000 9999 1050 0 0 0
2017/11/20 16:46:00 BASE 4.40 230 5.66 230 -2.2 98 -2.5 260 642 986.2 NA 0.0000 9999 1080 0 0 0
2017/11/20 16:47:00 BASE 4.40 233 5.66 230 -2.2 98 -2.5 254 629 986.2 NA 0.0000 9999 1120 0 0 0
2017/11/20 16:48:00 BASE 4.44 234 5.61 218 -2.2 98 -2.5 253 628 986.1 NA 0.0000 9999 920 0 0 0
2017/11/20 16:49:00 BASE 4.38 231 5.61 218 -2.2 98 -2.5 253 625 986.1 NA 0.0000 9999 890 0 0 0
2017/11/20 16:50:00 BASE 4.24 232 5.61 218 -2.2 98 -2.5 249 616 986.1 NA 0.0000 9999 1020 0 0 0
2017/11/20 16:51:00 BASE 4.34 233 4.99 238 -2.2 98 -2.5 248 613 986.1 NA 0.0000 9999 920 0 0 0
2017/11/20 16:52:00 BASE 4.91 234 5.97 236 -2.2 98 -2.5 254 625 986.0 NA 0.0000 9999 890 0 0 0
2017/11/20 16:53:00 BASE 5.14 235 5.97 236 -2.2 98 -2.5 257 631 986.0 NA 0.0000 9999 1050 0 0 0
2017/11/20 16:54:00 BASE 5.19 234 6.33 235 -2.2 98 -2.5 251 619 986.0 NA 0.0000 9999 920 0 0 0
2017/11/20 16:55:00 BASE 5.48 233 6.33 235 -2.2 98 -2.5 247 612 986.1 NA 0.0000 9999 1020 0 0 0
2017/11/20 16:56:00 BASE 5.24 234 6.33 235 -2.2 98 -2.5 245 609 986.1 NA 0.0000 9999 1120 0 0 0
2017/11/20 16:57:00 BASE 4.87 235 6.33 235 -2.2 98 -2.5 244 604 986.1 NA 0.0000 9999 1080 0 0 0
2017/11/20 16:58:00 BASE 5.17 235 6.33 235 -2.2 98 -2.5 246 610 986.1 NA 0.0000 9999 920 0 0 0
2017/11/20 16:59:00 BASE 5.26 234 6.33 235 -2.2 98 -2.5 259 635 986.0 NA 0.0000 9999 890 1310 0 0
2017/11/20 17:00:00 BASE 5.07 233 6.33 235 -2.2 98 -2.5 268 653 986.0 NA 0.0000 9999 920 0 0 0
2017/11/20 17:01:00 BASE 5.11 234 6.33 235 -2.2 98 -2.5 277 672 986.0 NA 0.0000 9999 920 0 0 0
2017/11/20 17:02:00 BASE 5.03 233 6.33 235 -2.2 98 -2.5 272 663 986.0 NA 0.0000 9999 1120 0 0 0
2017/11/20 17:03:00 BASE 4.91 230 6.33 235 -2.2 98 -2.5 271 661 986.0 NA 0.0000 9999 1050 0 0 0
2017/11/20 17:04:00 BASE 4.86 229 6.33 235 -2.2 98 -2.5 278 675 986.1 NA 0.0000 9999 1080 0 0 0
2017/11/20 17:05:00 BASE 4.63 226 6.17 231 -2.2 98 -2.5 274 668 986.1 NA 0.0000 9999 1250 0 0 0
2017/11/20 17:06:00 BASE 4.47 224 6.17 231 -2.2 98 -2.5 265 650 986.0 NA 0.0000 9999 1020 0 0 0
2017/11/20 17:07:00 BASE 4.47 226 6.17 231 -2.2 98 -2.5 268 657 986.0 NA 0.0000 9999 1080 0 0 0
2017/11/20 17:08:00 BASE 4.60 229 5.86 234 -2.2 98 -2.5 269 658 986.0 NA 0.0000 9999 1150 0 0 0
2017/11/20 17:09:00 BASE 4.69 231 5.86 234 -2.2 98 -2.5 266 651 986.0 NA 0.0000 9999 1180 0 0 0
2017/11/20 17:10:01 BASE 4.57 235 5.71 225 -2.2 98 -2.5 264 646 986.0 NA 0.0000 9999 1150 0 0 0
2017/11/20 17:11:00 BASE 4.41 235 5.71 225 -2.2 98 -2.6 260 640 986.0 NA 0.0000 9999 1120 0 0 0
2017/11/20 17:12:00 BASE 4.12 234 5.45 232 -2.2 97 -2.6 248 616 986.0 NA 0.0000 9999 1120 0 0 0
2017/11/20 17:13:00 BASE 4.01 234 5.45 232 -2.2 97 -2.6 236 590 986.0 NA 0.0000 9999 1150 0 0 0
2017/11/20 17:14:00 BASE 4.32 234 5.45 232 -2.2 97 -2.6 233 582 986.0 NA 0.0000 9999 1080 0 0 0
2017/11/20 17:15:00 BASE 4.17 234 5.45 232 -2.2 97 -2.6 237 589 986.0 NA 0.0000 9999 1020 0 0 0
2017/11/20 17:16:00 BASE 3.97 234 5.45 232 -2.2 97 -2.6 233 582 986.0 NA 0.0000 9999 1050 0 0 0
2017/11/20 17:17:00 BASE 4.29 234 5.45 232 -2.2 97 -2.6 226 568 986.0 NA 0.0000 9999 1180 0 0 0
2017/11/20 17:18:00 BASE 4.46 234 5.45 232 -2.2 97 -2.6 229 574 986.0 NA 0.0000 9999 920 0 0 0
2017/11/20 17:19:00 BASE 4.58 230 5.20 237 -2.2 97 -2.6 236 585 986.0 NA 0.0000 9999 920 0 0 0
2017/11/20 17:20:00 BASE 4.33 225 5.14 227 -2.2 97 -2.6 233 579 986.0 NA 0.0000 9999 1180 0 0 0
2017/11/20 17:21:00 BASE 4.00 223 5.14 227 -2.2 97 -2.6 226 566 986.0 NA 0.0000 9999 1150 0 0 0
2017/11/20 17:22:00 BASE 3.71 226 5.14 227 -2.2 97 -2.6 215 543 986.0 NA 0.0000 9999 1080 0 0 0
2017/11/20 17:23:00 BASE 3.89 232 5.14 227 -2.2 97 -2.6 207 526 986.0 NA 0.0000 9999 1080 0 0 0
2017/11/20 17:24:00 BASE 4.17 237 5.14 227 -2.2 97 -2.6 214 537 986.0 NA 0.0000 9999 980 0 0 0
2017/11/20 17:25:00 BASE 3.77 236 5.14 227 -2.2 97 -2.7 219 548 986.0 NA 0.0000 9999 1050 0 0 0
2017/11/20 17:26:00 BASE 3.31 235 5.14 227 -2.2 97 -2.6 214 540 986.0 NA 0.0000 9999 1210 0 0 0
2017/11/20 17:27:00 BASE 3.01 234 5.14 227 -2.2 97 -2.6 207 524 986.0 NA 0.0000 9999 1210 0 0 0
2017/11/20 17:28:00 BASE 3.11 229 5.14 227 -2.2 97 -2.6 204 520 986.0 NA 0.0000 9999 1050 0 0 0
2017/11/20 17:29:00 BASE 3.51 231 4.78 231 -2.2 97 -2.5 204 518 986.0 NA 0.0000 9999 1080 0 0 0
2017/11/20 17:30:00 BASE 3.74 234 4.78 231 -2.1 97 -2.5 201 511 986.0 NA 0.0000 9999 1150 0 0 0
2017/11/20 17:31:00 BASE 3.74 231 4.78 231 -2.1 97 -2.5 198 505 986.0 NA 0.0000 9999 1120 0 0 0
2017/11/20 17:32:00 BASE 3.63 229 4.78 231 -2.2 97 -2.5 196 500 986.0 NA 0.0000 9999 1050 0 0 0
2017/11/20 17:33:00 BASE 3.30 230 4.37 242 -2.2 97 -2.6 193 492 986.0 NA 0.0000 9999 980 0 0 0
2017/11/20 17:34:00 BASE 3.22 236 4.22 233 -2.2 97 -2.6 187 480 985.9 NA 0.0000 9999 980 0 0 0
2017/11/20 17:35:00 BASE 3.48 242 4.32 230 -2.3 97 -2.7 183 471 985.9 NA 0.0000 9999 950 0 0 0
2017/11/20 17:36:00 BASE 3.70 242 4.37 245 -2.3 97 -2.7 178 461 985.9 NA 0.0000 9999 920 0 0 0
2017/11/20 17:37:00 BASE 3.72 240 4.37 245 -2.3 97 -2.7 176 455 985.9 NA 0.0000 9999 920 0 0 0
2017/11/20 17:38:00 BASE 3.60 232 4.37 245 -2.3 97 -2.7 180 461 985.9 NA 0.0000 9999 950 0 0 0
2017/11/20 17:39:00 BASE 3.31 233 4.37 239 -2.3 97 -2.7 184 470 985.9 NA 0.0000 9999 980 0 0 0
2017/11/20 17:40:00 BASE 3.26 235 4.37 239 -2.3 97 -2.7 184 471 985.9 NA 0.0000 9999 1020 23000 0 0
2017/11/20 17:41:00 BASE 3.36 229 4.37 239 -2.3 97 -2.7 185 473 985.9 NA 0.0000 9999 950 0 0 0
2017/11/20 17:42:00 BASE 3.12 223 4.37 239 -2.2 97 -2.6 184 470 985.9 NA 0.0000 9999 950 0 0 0
2017/11/20 17:43:00 BASE 3.06 220 4.37 239 -2.2 97 -2.5 181 463 985.8 NA 0.0000 9999 920 0 0 0
2017/11/20 17:44:00 BASE 3.65 220 4.89 215 -2.1 97 -2.5 178 456 985.8 NA 0.0000 9999 1020 0 0 0
2017/11/20 17:45:00 BASE 4.23 218 5.14 215 -2.1 97 -2.5 176 452 985.8 NA 0.0000 9999 980 0 0 0
2017/11/20 17:46:00 BASE 4.00 214 5.14 215 -2.1 97 -2.5 175 450 985.8 NA 0.0000 9999 1050 0 0 0
2017/11/20 17:47:00 BASE 3.66 212 5.14 215 -2.1 97 -2.5 173 446 985.8 NA 0.0000 9999 1050 0 0 0
2017/11/20 17:48:00 BASE 3.82 210 5.14 215 -2.1 97 -2.5 170 440 985.8 NA 0.0000 9999 950 0 0 0
2017/11/20 17:49:00 BASE 3.94 207 5.14 215 -2.2 97 -2.6 167 433 985.8 NA 0.0000 9999 980 0 0 0
2017/11/20 17:50:00 BASE 3.87 205 5.14 215 -2.2 97 -2.6 168 434 985.8 NA 0.0000 9999 950 0 0 0
2017/11/20 17:51:00 BASE 4.14 207 5.14 215 -2.2 97 -2.6 168 436 985.8 NA 0.0000 9999 920 0 0 0
2017/11/20 17:52:00 BASE 4.26 210 5.14 215 -2.3 97 -2.7 167 431 985.8 NA 0.0000 9999 950 0 0 0
2017/11/20 17:53:00 BASE 4.20 210 5.14 215 -2.3 97 -2.7 165 427 985.8 NA 0.0000 9999 950 0 0 0
2017/11/20 17:54:00 BASE 3.89 213 5.14 215 -2.3 97 -2.7 165 428 985.8 NA 0.0000 9999 950 22840 0 0
2017/11/20 17:55:00 BASE 3.58 216 4.73 210 -2.3 97 -2.7 167 432 985.8 NA 0.0000 9999 950 0 0 0
2017/11/20 17:56:00 BASE 3.81 212 4.73 210 -2.3 97 -2.6 169 435 985.8 NA 0.0000 9999 980 0 0 0
2017/11/20 17:57:00 BASE 4.30 217 5.04 218 -2.2 98 -2.6 170 437 985.8 NA 0.0000 9999 1020 0 0 0
2017/11/20 17:58:00 BASE 4.41 217 5.04 218 -2.2 98 -2.6 170 438 985.8 NA 0.0000 9999 980 0 0 0
2017/11/20 17:59:00 BASE 4.01 215 5.04 218 -2.2 98 -2.6 172 442 985.8 NA 0.0000 9999 1020 0 0 0
2017/11/20 18:00:00 BASE 4.11 221 5.04 218 -2.2 97 -2.6 178 453 985.8 NA 0.0000 9999 980 0 0 0
2017/11/20 18:01:00 BASE 4.37 223 5.04 218 -2.2 97 -2.6 182 462 985.8 NA 0.0000 9999 980 0 0 0
2017/11/20 18:02:00 BASE 4.01 217 5.04 218 -2.2 97 -2.6 184 466 985.8 NA 0.0000 9999 980 0 0 0
2017/11/20 18:03:00 BASE 3.94 219 5.09 229 -2.2 97 -2.6 185 470 985.8 NA 0.0000 9999 980 0 0 0
2017/11/20 18:04:00 BASE 4.42 224 5.09 229 -2.2 97 -2.6 187 473 985.8 NA 0.0000 9999 1020 0 0 0
2017/11/20 18:05:00 BASE 4.64 223 5.14 226 -2.2 97 -2.6 187 473 985.8 NA 0.0000 9999 1050 0 0 0
2017/11/20 18:06:00 BASE 4.35 220 5.14 226 -2.2 97 -2.6 188 475 985.8 NA 0.0000 9999 1050 0 0 0
2017/11/20 18:07:00 BASE 4.05 216 5.14 226 -2.2 97 -2.7 192 484 985.8 NA 0.0000 9999 1050 0 0 0
2017/11/20 18:08:00 BASE 4.01 215 5.14 226 -2.3 97 -2.7 196 493 985.8 NA 0.0000 9999 1050 0 0 0
2017/11/20 18:09:00 BASE 3.99 224 5.14 226 -2.3 96 -2.8 197 495 985.8 NA 0.0000 9999 1080 0 0 0
2017/11/20 18:10:00 BASE 3.93 232 5.14 226 -2.3 96 -2.8 195 492 985.8 NA 0.0000 9999 1080 0 0 0
2017/11/20 18:11:00 BASE 3.95 234 5.14 226 -2.2 96 -2.8 193 487 985.8 NA 0.0000 9999 1120 0 0 0
2017/11/20 18:12:00 BASE 4.33 235 5.14 237 -2.2 96 -2.8 190 480 985.8 NA 0.0000 9999 1080 0 0 0
2017/11/20 18:13:00 BASE 4.26 231 5.14 237 -2.2 96 -2.8 187 474 985.8 NA 0.0000 9999 1080 0 0 0
2017/11/20 18:14:00 BASE 3.83 224 5.14 237 -2.2 96 -2.7 184 466 985.8 NA 0.0000 9999 1080 0 0 0
2017/11/20 18:15:00 BASE 3.84 220 5.14 237 -2.2 96 -2.7 178 454 985.9 NA 0.0000 9999 1080 0 0 0
2017/11/20 18:16:00 BASE 3.90 225 5.14 237 -2.2 96 -2.7 177 452 985.8 NA 0.0000 9999 1120 22770 0 0
2017/11/20 18:17:00 BASE 3.90 230 5.14 237 -2.2 96 -2.7 182 462 985.8 NA 0.0000 9999 1080 0 0 0
2017/11/20 18:18:00 BASE 3.94 229 5.14 237 -2.2 96 -2.7 189 476 985.8 NA 0.0000 9999 1080 0 0 0
2017/11/20 18:19:00 BASE 3.85 219 5.14 237 -2.2 96 -2.7 198 495 985.8 NA 0.0000 9999 1280 0 0 0
2017/11/20 18:20:00 BASE 3.59 212 5.14 237 -2.2 96 -2.7 202 505 985.8 NA 0.0000 9999 1210 0 0 0
2017/11/20 18:21:00 BASE 3.34 214 5.14 237 -2.2 96 -2.7 199 500 985.8 NA 0.0000 9999 1210 0 0 0
2017/11/20 18:22:00 BASE 3.48 215 4.53 228 -2.2 96 -2.7 197 496 985.8 NA 0.0000 9999 1210 0 0 0
2017/11/20 18:23:00 BASE 4.02 214 4.89 213 -2.2 96 -2.7 203 509 985.8 NA 0.0000 9999 1120 0 0 0
2017/11/20 18:24:00 BASE 4.21 211 4.89 213 -2.2 96 -2.8 216 534 985.8 NA 0.0000 9999 1150 0 0 0
2017/11/20 18:25:00 BASE 4.13 209 4.89 213 -2.2 96 -2.8 225 552 985.8 NA 0.0000 9999 1180 0 0 0
2017/11/20 18:26:00 BASE 4.32 209 4.89 213 -2.2 96 -2.8 224 552 985.8 NA 0.0000 9999 1120 0 0 0
2017/11/20 18:27:00 BASE 4.19 211 4.89 213 -2.3 96 -2.8 218 539 985.8 NA 0.0000 9999 1150 0 0 0
2017/11/20 18:28:00 BASE 3.86 213 4.89 213 -2.3 96 -2.9 214 530 985.8 NA 0.0000 9999 1150 0 0 0
2017/11/20 18:29:00 BASE 3.87 214 4.89 213 -2.3 95 -2.9 210 522 985.8 NA 0.0000 9999 1250 0 0 0
2017/11/20 18:30:00 BASE 3.59 215 4.89 213 -2.3 95 -3.0 200 502 985.8 NA 0.0000 9999 1210 0 0 0
2017/11/20 18:31:00 BASE 3.07 218 4.89 213 -2.3 95 -3.0 191 481 985.8 NA 0.0000 9999 1180 0 0 0
2017/11/20 18:32:00 BASE 2.99 217 4.89 213 -2.3 95 -3.0 188 475 985.8 NA 0.0000 9999 1150 0 0 0
2017/11/20 18:33:00 BASE 2.95 216 4.84 208 -2.3 95 -2.9 189 477 985.8 NA 0.0000 9999 1120 0 0 0
2017/11/20 18:34:00 BASE 2.71 214 4.84 208 -2.2 95 -2.9 191 479 985.8 NA 0.0000 9999 1150 20410 0 0
2017/11/20 18:35:01 BASE 2.52 212 4.84 208 -2.2 95 -2.9 193 485 985.8 NA 0.0000 9999 1150 0 0 0
2017/11/20 18:36:00 BASE 2.62 210 4.58 214 -2.2 95 -2.8 202 502 985.8 NA 0.0000 9999 1150 0 0 0
2017/11/20 18:37:00 BASE 3.31 210 5.14 214 -2.1 95 -2.8 215 530 985.8 NA 0.0000 9999 1150 21030 0 0
2017/11/20 18:38:00 BASE 4.38 213 5.30 212 -2.1 95 -2.8 224 549 985.8 NA 0.0000 9999 1350 0 0 0
2017/11/20 18:39:00 BASE 4.86 213 5.40 211 -2.1 95 -2.8 227 554 985.8 NA 0.0000 9999 1410 0 0 0
2017/11/20 18:40:00 BASE 4.73 219 5.40 211 -2.1 95 -2.8 223 548 985.8 NA 0.0000 9999 1210 0 0 0
2017/11/20 18:41:00 BASE 4.31 225 5.40 211 -2.1 95 -2.8 217 535 985.8 NA 0.0000 9999 1180 0 0 0
2017/11/20 18:42:00 BASE 3.61 220 5.40 211 -2.2 95 -2.9 211 523 985.8 NA 0.0000 9999 1180 0 0 0
2017/11/20 18:43:00 BASE 3.35 214 5.40 211 -2.2 95 -2.9 208 517 985.8 NA 0.0000 9999 1180 0 0 0
2017/11/20 18:44:00 BASE 3.26 215 5.40 211 -2.2 95 -2.8 208 515 985.8 NA 0.0000 9999 1180 0 0 0
2017/11/20 18:45:00 BASE 2.97 218 5.40 211 -2.2 95 -2.9 208 516 985.8 NA 0.0000 9999 1180 0 0 0
2017/11/20 18:46:00 BASE 2.83 223 5.40 211 -2.2 95 -2.8 208 515 985.8 NA 0.0000 9999 1180 0 0 0
2017/11/20 18:47:00 BASE 2.83 219 5.40 211 -2.2 95 -2.8 208 515 985.8 NA 0.0000 9999 1280 0 0 0
2017/11/20 18:48:00 BASE 2.75 212 5.40 211 -2.2 95 -2.9 210 519 985.8 NA 0.0000 9999 1210 0 0 0
2017/11/20 18:49:00 BASE 2.96 213 5.25 219 -2.2 95 -2.9 211 521 985.8 NA 0.0000 9999 1250 0 0 0
2017/11/20 18:50:00 BASE 3.12 212 4.32 231 -2.2 95 -2.9 212 523 985.8 NA 0.0000 9999 1210 0 0 0
2017/11/20 18:51:00 BASE 2.95 212 4.12 208 -2.2 95 -2.9 210 519 985.8 NA 0.0000 9999 1350 0 0 0
2017/11/20 18:52:00 BASE 2.80 211 4.12 208 -2.2 95 -2.9 207 513 985.8 NA 0.0000 9999 1210 21230 0 0
2017/11/20 18:53:00 BASE 2.89 209 4.53 211 -2.2 95 -2.9 201 499 985.8 NA 0.0000 9999 1150 21490 0 0
2017/11/20 18:54:00 BASE 3.76 208 5.20 207 -2.2 95 -2.9 195 485 985.8 NA 0.0000 9999 1150 0 0 0
2017/11/20 18:55:00 BASE 4.28 211 5.20 207 -2.2 95 -2.9 193 481 985.8 NA 0.0000 9999 1210 0 0 0
2017/11/20 18:56:00 BASE 4.07 218 5.20 207 -2.1 95 -2.8 195 485 985.8 NA 0.0000 9999 1180 0 0 0
2017/11/20 18:57:00 BASE 3.90 217 5.20 207 -2.1 95 -2.8 193 481 985.8 NA 0.0000 9999 1150 0 0 0
2017/11/20 18:58:00 BASE 3.73 213 5.20 207 -2.1 95 -2.8 191 477 985.7 NA 0.0000 9999 1180 0 0 0
2017/11/20 18:59:00 BASE 3.80 216 5.20 207 -2.1 95 -2.8 195 484 985.8 NA 0.0000 9999 1150 0 0 0
2017/11/20 19:00:00 BASE 4.24 221 5.71 218 -2.1 95 -2.8 197 489 985.7 NA 0.0000 9999 1180 0 0 0
2017/11/20 19:01:00 BASE 4.69 220 5.71 227 -2.1 95 -2.8 196 487 985.8 NA 0.0000 9999 1210 0 0 0
2017/11/20 19:02:00 BASE 4.61 218 5.71 227 -2.1 95 -2.8 197 490 985.8 NA 0.0000 9999 1210 0 0 0
2017/11/20 19:03:00 BASE 4.59 218 5.71 227 -2.1 95 -2.8 202 500 985.8 NA 0.0000 9999 1180 0 0 0
2017/11/20 19:04:00 BASE 4.68 212 6.07 210 -2.2 95 -2.8 208 512 985.8 NA 0.0000 9999 1280 0 0 0
2017/11/20 19:05:00 BASE 5.22 208 6.22 209 -2.2 95 -2.9 213 521 985.7 NA 0.0000 9999 1250 0 0 0
2017/11/20 19:06:00 BASE 5.65 209 6.22 209 -2.2 95 -2.9 217 529 985.8 NA 0.0000 9999 1210 20240 21390 0
2017/11/20 19:07:00 BASE 5.36 208 6.22 209 -2.2 95 -2.9 225 547 985.8 NA 0.0000 9999 1250 0 0 0
2017/11/20 19:08:00 BASE 5.03 207 6.22 209 -2.2 95 -2.9 234 566 985.7 NA 0.0000 9999 1250 23360 0 0
2017/11/20 19:09:00 BASE 5.26 209 6.58 209 -2.2 95 -2.9 241 579 985.7 NA 0.0000 9999 1310 0 0 0
2017/11/20 19:10:00 BASE 5.22 211 6.58 209 -2.2 95 -2.9 241 580 985.8 NA 0.0000 9999 1280 0 0 0
2017/11/20 19:11:00 BASE 4.91 213 6.58 209 -2.2 95 -3.0 230 558 985.8 NA 0.0000 9999 1280 0 0 0
2017/11/20 19:12:00 BASE 4.82 214 6.58 209 -2.3 95 -3.0 215 527 985.8 NA 0.0000 9999 1250 0 0 0
2017/11/20 19:13:00 BASE 4.42 214 6.58 209 -2.3 94 -3.1 206 507 985.8 NA 0.0000 9999 1250 0 0 0
2017/11/20 19:14:00 BASE 4.00 218 6.58 209 -2.3 94 -3.1 201 497 985.8 NA 0.0000 9999 1210 0 0 0
2017/11/20 19:15:00 BASE 4.07 222 6.58 209 -2.3 94 -3.1 197 486 985.8 NA 0.0000 9999 1210 0 0 0
2017/11/20 19:16:00 BASE 3.99 224 6.58 209 -2.3 94 -3.1 193 477 985.8 NA 0.0000 9999 1210 0 0 0
2017/11/20 19:17:00 BASE 3.70 224 6.58 209 -2.2 94 -3.1 190 472 985.8 NA 0.0000 9999 1180 0 0 0
2017/11/20 19:18:00 BASE 3.79 225 6.58 209 -2.2 94 -3.1 192 475 985.8 NA 0.0000 9999 1180 0 0 0
2017/11/20 19:19:00 BASE 4.00 227 5.61 214 -2.2 94 -3.0 195 481 985.8 NA 0.0000 9999 1150 0 0 0
2017/11/20 19:20:00 BASE 4.11 226 5.61 214 -2.2 94 -3.0 198 487 985.8 NA 0.0000 9999 1180 0 0 0
2017/11/20 19:21:00 BASE 3.92 226 4.99 216 -2.2 94 -3.0 199 488 985.8 NA 0.0000 9999 1210 0 0 0
2017/11/20 19:22:00 BASE 3.96 222 4.99 216 -2.2 94 -3.0 198 486 985.8 NA 0.0000 9999 1250 0 0 0
2017/11/20 19:23:00 BASE 3.94 221 4.68 215 -2.2 94 -3.0 196 483 985.8 NA 0.0000 9999 1210 0 0 0
2017/11/20 19:24:00 BASE 3.91 225 4.68 215 -2.2 94 -3.0 192 473 985.8 NA 0.0000 9999 1180 0 0 0
2017/11/20 19:25:00 BASE 3.73 226 4.68 215 -2.2 94 -3.0 186 460 985.8 NA 0.0000 9999 1180 0 0 0
2017/11/20 19:26:00 BASE 3.28 227 4.68 215 -2.2 94 -3.1 182 453 985.8 NA 0.0000 9999 1210 0 0 0
2017/11/20 19:27:00 BASE 3.32 231 4.68 215 -2.2 94 -3.0 181 450 985.8 NA 0.0000 9999 1180 0 0 0
2017/11/20 19:28:00 BASE 3.25 226 4.68 215 -2.2 94 -3.0 179 445 985.8 NA 0.0000 9999 1150 0 0 0
2017/11/20 19:29:00 BASE 2.68 217 4.68 215 -2.2 94 -3.0 176 439 985.7 NA 0.0000 9999 1150 0 0 0
2017/11/20 19:30:00 BASE 2.70 212 4.68 215 -2.2 94 -3.0 174 434 985.8 NA 0.0000 9999 1150 0 0 0
2017/11/20 19:31:00 BASE 3.78 212 5.30 215 -2.2 94 -3.0 171 426 985.7 NA 0.0000 9999 1150 0 0 0
2017/11/20 19:32:00 BASE 4.65 214 5.30 215 -2.2 94 -3.0 168 419 985.7 NA 0.0000 9999 1150 0 0 0
2017/11/20 19:33:00 BASE 4.34 215 5.30 215 -2.2 94 -3.0 164 412 985.8 NA 0.0000 9999 1150 0 0 0
2017/11/20 19:34:00 BASE 4.18 221 5.30 215 -2.2 94 -3.1 163 408 985.8 NA 0.0000 9999 1210 0 0 0
2017/11/20 19:35:00 BASE 4.09 223 5.30 215 -2.2 94 -3.0 162 406 985.8 NA 0.0000 9999 1210 0 0 0
2017/11/20 19:36:00 BASE 3.69 223 5.30 215 -2.2 94 -3.0 162 406 985.8 NA 0.0000 9999 1210 0 0 0
2017/11/20 19:37:00 BASE 3.48 224 5.30 215 -2.2 94 -3.0 161 403 985.8 NA 0.0000 9999 1210 0 0 0
2017/11/20 19:38:00 BASE 3.23 225 5.30 215 -2.2 94 -3.0 162 407 985.8 NA 0.0000 9999 1210 0 0 0
2017/11/20 19:39:00 BASE 3.32 225 5.30 215 -2.2 94 -3.0 168 418 985.8 NA 0.0000 9999 1250 0 0 0
2017/11/20 19:40:00 BASE 3.65 223 5.30 215 -2.2 94 -3.0 172 427 985.8 NA 0.0000 9999 1310 0 0 0
2017/11/20 19:41:00 BASE 3.74 221 5.04 210 -2.1 94 -2.9 175 433 985.7 NA 0.0000 9999 1210 0 0 0
2017/11/20 19:42:00 BASE 4.47 219 5.92 227 -2.1 95 -2.9 179 442 985.7 NA 0.0000 9999 1310 0 0 0
2017/11/20 19:43:00 BASE 5.27 221 6.12 219 -2.1 95 -2.9 187 458 985.7 NA 0.0000 9999 1280 0 0 0
2017/11/20 19:44:00 BASE 5.42 225 6.12 223 -2.1 95 -2.9 196 478 985.7 NA 0.0000 9999 1350 0 0 0
2017/11/20 19:45:00 BASE 5.32 223 6.12 223 -2.1 94 -2.9 201 488 985.7 NA 0.0000 9999 1380 0 0 0
2017/11/20 19:46:00 BASE 5.30 218 6.53 213 -2.1 94 -2.9 202 489 985.7 NA 0.0000 9999 1350 0 0 0
2017/11/20 19:47:00 BASE 5.40 217 6.53 213 -2.0 94 -2.9 201 488 985.7 NA 0.0000 9999 1380 0 0 0
2017/11/20 19:48:00 BASE 5.05 219 6.53 213 -2.1 93 -3.0 199 484 985.7 NA 0.0000 9999 1280 0 0 0
2017/11/20 19:49:00 BASE 4.68 218 6.53 213 -2.1 93 -3.0 193 470 985.8 NA 0.0000 9999 1380 0 0 0
2017/11/20 19:50:00 BASE 4.27 214 6.53 213 -2.1 93 -3.0 187 457 985.8 NA 0.0000 9999 1440 0 0 0
2017/11/20 19:51:00 BASE 4.13 206 6.53 213 -2.1 93 -3.0 186 456 985.8 NA 0.0000 9999 1410 0 0 0
2017/11/20 19:52:00 BASE 4.36 201 6.53 213 -2.1 93 -3.1 188 459 985.8 NA 0.0000 9999 1380 19750 21420 0
2017/11/20 19:53:00 BASE 4.40 196 6.53 213 -2.1 93 -3.1 192 467 985.8 NA 0.0000 9999 1380 0 0 0
2017/11/20 19:54:00 BASE 4.23 196 6.53 213 -2.1 93 -3.1 204 492 985.8 NA 0.0000 9999 1380 0 0 0
2017/11/20 19:55:00 BASE 3.97 200 6.53 213 -2.1 93 -3.1 214 512 985.7 NA 0.0000 9999 1510 0 0 0
2017/11/20 19:56:00 BASE 3.93 203 6.12 215 -2.1 93 -3.1 217 516 985.8 NA 0.0000 9999 1570 0 0 0
2017/11/20 19:57:00 BASE 4.30 205 5.14 211 -2.1 93 -3.1 212 506 985.8 NA 0.0000 9999 1640 0 0 0
2017/11/20 19:58:00 BASE 4.48 206 5.14 211 -2.1 92 -3.2 201 485 985.8 NA 0.0000 9999 1610 0 0 0
2017/11/20 19:59:00 BASE 4.12 207 5.14 211 -2.1 92 -3.2 188 457 985.8 NA 0.0000 9999 1540 0 0 0
2017/11/20 20:00:00 BASE 3.88 209 5.14 211 -2.0 92 -3.1 177 436 985.8 NA 0.0000 9999 1410 0 0 0
2017/11/20 20:01:00 BASE 3.71 208 5.14 211 -2.0 92 -3.2 171 421 985.8 NA 0.0000 9999 1440 0 0 0
2017/11/20 20:02:00 BASE 3.70 205 5.14 211 -2.0 92 -3.2 167 413 985.8 NA 0.0000 9999 1380 0 0 0
2017/11/20 20:03:00 BASE 4.00 202 5.14 211 -2.0 92 -3.1 165 409 985.8 NA 0.0000 9999 1440 0 0 0
2017/11/20 20:04:00 BASE 4.04 203 5.14 211 -2.0 92 -3.1 161 399 985.8 NA 0.0000 9999 1480 0 0 0
2017/11/20 20:05:00 BASE 3.64 209 5.14 211 -2.0 92 -3.1 156 389 985.8 NA 0.0000 9999 1380 0 0 0
2017/11/20 20:06:00 BASE 3.38 209 5.14 211 -2.0 92 -3.1 155 387 985.8 NA 0.0000 9999 1310 0 0 0
2017/11/20 20:07:00 BASE 3.30 204 4.99 196 -2.0 92 -3.1 156 388 985.8 NA 0.0000 9999 1280 0 0 0
2017/11/20 20:08:00 BASE 3.46 203 4.99 196 -2.0 92 -3.1 159 394 985.8 NA 0.0000 9999 1250 0 0 0
2017/11/20 20:09:00 BASE 3.50 202 4.99 196 -2.0 92 -3.1 160 394 985.8 NA 0.0000 9999 1250 0 0 0
2017/11/20 20:10:00 BASE 3.45 198 4.99 196 -2.0 93 -3.0 158 390 985.9 NA 0.0000 9999 1180 0 0 0
2017/11/20 20:11:00 BASE 3.90 197 5.04 201 -2.0 93 -3.0 161 396 985.8 NA 0.0000 9999 1250 0 0 0
2017/11/20 20:12:00 BASE 4.49 205 5.56 206 -2.0 93 -3.0 165 405 985.9 NA 0.0000 9999 1440 0 0 0
2017/11/20 20:13:00 BASE 5.11 210 6.17 212 -2.0 93 -3.0 165 406 985.8 NA 0.0000 9999 1380 0 0 0
2017/11/20 20:14:00 BASE 5.59 211 6.17 212 -2.0 93 -3.0 169 412 985.8 NA 0.0000 9999 1380 21160 0 0
2017/11/20 20:15:00 BASE 5.35 210 6.17 212 -2.0 93 -3.0 179 434 985.9 NA 0.0000 9999 1510 0 0 0
2017/11/20 20:16:00 BASE 4.93 206 6.17 212 -2.0 93 -3.0 187 451 985.9 NA 0.0000 9999 1670 0 0 0
2017/11/20 20:17:00 BASE 4.71 201 6.17 212 -2.0 93 -3.0 191 461 985.9 NA 0.0000 9999 1710 0 0 0
2017/11/20 20:18:00 BASE 4.35 197 6.17 212 -2.0 93 -3.0 191 461 985.9 NA 0.0000 9999 1710 0 0 0
2017/11/20 20:19:00 BASE 3.60 196 6.17 212 -2.0 93 -3.0 189 456 985.9 NA 0.0000 9999 1670 0 0 0
2017/11/20 20:20:00 BASE 2.99 197 6.17 212 -2.0 93 -3.0 191 461 985.9 NA 0.0000 9999 1640 0 0 0
2017/11/20 20:21:00 BASE 3.21 203 6.17 212 -2.0 92 -3.1 192 463 985.8 NA 0.0000 9999 1640 0 0 0
2017/11/20 20:22:00 BASE 3.58 204 6.17 212 -2.0 92 -3.1 190 458 985.8 NA 0.0000 9999 1640 0 0 0
2017/11/20 20:23:00 BASE 3.68 206 6.12 212 -2.0 92 -3.2 188 453 985.8 NA 0.0000 9999 1570 0 0 0
2017/11/20 20:24:00 BASE 4.08 214 5.56 204 -2.0 91 -3.3 186 448 985.8 NA 0.0000 9999 1640 0 0 0
2017/11/20 20:25:00 BASE 4.30 215 5.35 213 -2.0 91 -3.3 179 434 985.8 NA 0.0000 9999 1670 0 0 0
2017/11/20 20:26:00 BASE 4.15 209 5.35 213 -2.0 90 -3.4 167 410 985.8 NA 0.0000 9999 1640 0 0 0
2017/11/20 20:27:00 BASE 3.83 205 5.35 213 -2.0 90 -3.4 159 391 985.9 NA 0.0000 9999 1570 0 0 0
2017/11/20 20:28:00 BASE 4.03 204 5.76 202 -2.0 90 -3.4 151 376 985.8 NA 0.0000 9999 1570 0 0 0
2017/11/20 20:29:00 BASE 5.25 200 6.48 198 -2.0 90 -3.4 146 363 985.8 NA 0.0000 9999 1570 0 0 0
2017/11/20 20:30:00 BASE 5.80 197 6.48 198 -2.0 90 -3.4 143 357 985.8 NA 0.0000 9999 1480 0 0 0
2017/11/20 20:31:00 BASE 5.12 192 6.48 198 -1.9 90 -3.4 144 358 985.8 NA 0.0000 9999 1610 0 0 0
2017/11/20 20:32:00 BASE 4.52 185 6.48 198 -1.9 90 -3.4 143 357 985.8 NA 0.0000 9999 1610 0 0 0
2017/11/20 20:33:00 BASE 4.60 193 6.48 198 -1.9 90 -3.4 143 355 985.8 NA 0.0000 9999 1610 0 0 0
2017/11/20 20:34:00 BASE 4.77 203 6.48 198 -1.9 90 -3.3 145 360 985.9 NA 0.0000 9999 1510 0 0 0
2017/11/20 20:35:00 BASE 4.63 204 6.48 198 -1.9 90 -3.3 149 367 985.9 NA 0.0000 9999 1540 0 0 0
2017/11/20 20:36:00 BASE 4.52 200 6.48 198 -1.9 90 -3.3 152 374 985.9 NA 0.0000 9999 1640 20010 22970 0
2017/11/20 20:37:00 BASE 4.20 194 6.48 198 -1.9 90 -3.3 156 381 985.8 NA 0.0000 9999 1570 0 0 0
2017/11/20 20:38:00 BASE 3.74 190 6.48 198 -1.9 91 -3.2 158 385 985.8 NA 0.0000 9999 1510 0 0 0
2017/11/20 20:39:00 BASE 3.92 187 6.07 196 -1.9 91 -3.2 157 383 985.8 NA 0.0000 9999 1710 0 0 0
2017/11/20 20:40:00 BASE 4.13 185 5.45 214 -1.9 91 -3.2 157 383 985.8 NA 0.0000 9999 1610 0 0 0
2017/11/20 20:41:00 BASE 4.11 189 5.45 214 -1.9 90 -3.3 153 375 985.8 NA 0.0000 9999 1670 0 0 0
2017/11/20 20:42:00 BASE 3.93 201 5.45 214 -1.9 90 -3.3 148 364 985.8 NA 0.0000 9999 1570 0 0 0
2017/11/20 20:43:00 BASE 3.59 202 5.45 214 -1.9 90 -3.3 145 357 985.8 NA 0.0000 9999 1510 0 0 0
2017/11/20 20:44:00 BASE 3.51 194 5.35 186 -1.9 90 -3.3 142 351 985.8 NA 0.0000 9999 1570 0 0 0
2017/11/20 20:45:00 BASE 3.86 194 5.35 186 -1.9 90 -3.3 144 356 985.8 NA 0.0000 9999 1440 0 0 0
2017/11/20 20:46:00 BASE 4.54 197 5.35 186 -1.9 90 -3.3 153 372 985.8 NA 0.0000 9999 1480 0 0 0
2017/11/20 20:47:00 BASE 4.85 197 5.35 202 -1.9 91 -3.2 159 385 985.8 NA 0.0000 9999 1540 0 0 0
2017/11/20 20:48:00 BASE 5.18 197 5.81 203 -1.9 91 -3.2 160 387 985.8 NA 0.0000 9999 1440 0 0 0
2017/11/20 20:49:00 BASE 5.04 197 5.81 203 -1.9 91 -3.2 161 388 985.8 NA 0.0000 9999 1570 0 0 0
2017/11/20 20:50:00 BASE 4.41 198 5.81 203 -1.9 91 -3.2 161 388 985.8 NA 0.0000 9999 1640 0 0 0
2017/11/20 20:51:00 BASE 4.37 199 5.81 203 -1.9 91 -3.2 161 389 985.8 NA 0.0000 9999 1640 0 0 0
2017/11/20 20:52:00 BASE 4.64 195 5.81 203 -1.9 91 -3.2 160 386 985.8 NA 0.0000 9999 1640 0 0 0
2017/11/20 20:53:00 BASE 4.64 196 5.81 203 -1.9 91 -3.2 157 380 985.8 NA 0.0000 9999 1710 0 0 0
2017/11/20 20:54:00 BASE 4.45 197 5.81 203 -1.9 91 -3.2 155 375 985.8 NA 0.0000 9999 1670 0 0 0
2017/11/20 20:55:00 BASE 4.78 193 5.81 203 -1.9 91 -3.2 149 363 985.8 NA 0.0000 9999 1670 0 0 0
2017/11/20 20:56:00 BASE 4.99 194 5.81 203 -1.9 91 -3.2 146 356 985.8 NA 0.0000 9999 1610 0 0 0
2017/11/20 20:57:00 BASE 4.87 195 5.81 203 -1.9 91 -3.2 145 354 985.8 NA 0.0000 9999 1640 0 0 0
2017/11/20 20:58:00 BASE 4.86 200 5.56 193 -1.9 91 -3.2 145 353 985.8 NA 0.0000 9999 1640 0 0 0
2017/11/20 20:59:00 BASE 4.64 203 5.56 190 -1.9 91 -3.2 144 350 985.8 NA 0.0000 9999 1610 0 0 0
2017/11/20 21:00:00 BASE 4.90 197 5.66 196 -2.0 91 -3.2 140 342 985.8 NA 0.0000 9999 1570 0 0 0
2017/11/20 21:01:00 BASE 5.02 197 5.71 204 -1.9 91 -3.2 137 336 985.8 NA 0.0000 9999 1570 0 0 0
2017/11/20 21:02:00 BASE 4.57 203 5.71 204 -1.9 91 -3.2 138 336 985.8 NA 0.0000 9999 1610 0 0 0
2017/11/20 21:03:00 BASE 4.31 203 5.71 204 -1.9 91 -3.2 140 340 985.8 NA 0.0000 9999 1570 0 0 0
2017/11/20 21:04:00 BASE 4.59 201 5.71 204 -1.9 91 -3.2 142 343 985.8 NA 0.0000 9999 1640 0 0 0
2017/11/20 21:05:00 BASE 4.83 203 5.71 204 -1.9 91 -3.2 144 347 985.8 NA 0.0000 9999 1640 0 0 0
2017/11/20 21:06:00 BASE 4.69 206 5.71 204 -1.9 91 -3.2 139 338 985.8 NA 0.0000 9999 1610 0 0 0
2017/11/20 21:07:00 BASE 4.89 206 5.71 204 -1.9 91 -3.2 135 328 985.8 NA 0.0000 9999 1540 0 0 0
2017/11/20 21:08:00 BASE 5.02 201 6.43 184 -1.9 91 -3.2 133 324 985.8 NA 0.0000 9999 1570 0 0 0
2017/11/20 21:09:00 BASE 4.91 191 6.43 184 -1.9 91 -3.2 130 318 985.8 NA 0.0000 9999 1570 0 0 0
2017/11/20 21:10:00 BASE 4.60 188 6.43 184 -1.9 91 -3.2 126 310 985.8 NA 0.0000 9999 1540 0 0 0
2017/11/20 21:11:00 BASE 4.22 193 6.43 184 -1.9 91 -3.3 120 297 985.8 NA 0.0000 9999 1540 0 0 0
2017/11/20 21:12:00 BASE 4.37 199 6.43 184 -1.9 91 -3.3 115 285 985.8 NA 0.0000 9999 1480 0 0 0
2017/11/20 21:13:00 BASE 4.67 203 6.43 184 -1.9 91 -3.3 112 280 985.8 NA 0.0000 9999 1410 0 0 0
2017/11/20 21:14:00 BASE 4.22 195 6.43 184 -1.9 91 -3.3 111 277 985.8 NA 0.0000 9999 1410 0 0 0
2017/11/20 21:15:01 BASE 3.46 183 6.43 184 -1.9 91 -3.2 109 273 985.8 NA 0.0000 9999 1480 0 0 0
2017/11/20 21:16:00 BASE 3.66 192 6.43 184 -1.9 91 -3.2 108 270 985.8 NA 0.0000 9999 1540 0 0 0
2017/11/20 21:17:00 BASE 4.18 206 6.43 184 -1.9 91 -3.2 105 263 985.8 NA 0.0000 9999 1540 0 0 0
2017/11/20 21:18:00 BASE 3.93 216 5.92 185 -1.9 91 -3.2 102 257 985.8 NA 0.0000 9999 1510 0 0 0
2017/11/20 21:19:00 BASE 3.93 216 5.04 206 -1.9 91 -3.2 100 253 985.8 NA 0.0000 9999 1440 0 0 0
2017/11/20 21:20:00 BASE 4.55 206 5.40 200 -1.9 91 -3.2 101 254 985.8 NA 0.0000 9999 1410 0 0 0
2017/11/20 21:21:00 BASE 4.88 202 5.40 200 -1.9 91 -3.2 103 256 985.8 NA 0.0000 9999 1410 0 0 0
2017/11/20 21:22:00 BASE 4.84 202 5.66 194 -1.9 91 -3.2 103 257 985.8 NA 0.0000 9999 1480 0 0 0
2017/11/20 21:23:00 BASE 4.97 198 6.12 192 -1.9 91 -3.2 101 253 985.7 NA 0.0000 9999 1480 0 0 0
2017/11/20 21:24:00 BASE 5.10 195 6.12 192 -1.9 91 -3.2 98 246 985.7 NA 0.0000 9999 1440 0 0 0
2017/11/20 21:25:00 BASE 4.66 190 6.12 192 -1.9 91 -3.2 97 242 985.7 NA 0.0000 9999 1510 0 0 0
2017/11/20 21:26:00 BASE 4.26 186 6.12 192 -1.9 91 -3.2 96 240 985.7 NA 0.0000 9999 1480 0 0 0
2017/11/20 21:27:00 BASE 4.13 193 6.12 192 -1.9 91 -3.2 97 242 985.8 NA 0.0000 9999 1440 0 0 0
2017/11/20 21:28:00 BASE 4.04 201 6.12 192 -1.9 91 -3.2 99 246 985.8 NA 0.0000 9999 1440 0 0 0
2017/11/20 21:29:00 BASE 4.10 198 6.12 192 -1.9 91 -3.1 100 247 985.8 NA 0.0000 9999 1440 0 0 0
2017/11/20 21:30:00 BASE 4.39 194 6.12 192 -1.9 91 -3.1 99 245 985.8 NA 0.0000 9999 1440 0 0 0
2017/11/20 21:31:00 BASE 4.90 193 6.12 192 -1.8 92 -3.0 99 244 985.8 NA 0.0000 9999 1440 0 0 0
2017/11/20 21:32:00 BASE 4.93 186 6.12 192 -1.8 92 -3.0 99 245 985.8 NA 0.0000 9999 1410 0 0 0
2017/11/20 21:33:00 BASE 4.84 184 5.92 196 -1.9 92 -3.0 100 247 985.8 NA 0.0000 9999 1410 0 0 0
2017/11/20 21:34:00 BASE 4.43 194 5.92 196 -1.9 92 -3.0 98 243 985.8 NA 0.0000 9999 1440 0 0 0
2017/11/20 21:35:00 BASE 3.59 199 5.92 196 -1.9 92 -3.0 96 238 985.8 NA 0.0000 9999 1440 0 0 0
2017/11/20 21:36:00 BASE 3.19 192 5.92 196 -1.9 92 -3.0 94 234 985.8 NA 0.0000 9999 1410 0 0 0
2017/11/20 21:37:00 BASE 3.43 184 5.92 196 -1.9 92 -3.0 92 229 985.8 NA 0.0000 9999 1380 0 0 0
2017/11/20 21:38:00 BASE 3.48 186 5.92 196 -1.9 92 -3.0 91 227 985.8 NA 0.0000 9999 1440 0 0 0
2017/11/20 21:39:00 BASE 3.20 197 5.92 196 -1.9 92 -3.0 90 223 985.8 NA 0.0000 9999 1380 0 0 0
2017/11/20 21:40:00 BASE 3.54 203 5.76 191 -1.9 92 -3.0 87 217 985.8 NA 0.0000 9999 1410 0 0 0
2017/11/20 21:41:00 BASE 3.97 201 5.40 183 -1.9 92 -3.0 85 213 985.8 NA 0.0000 9999 1440 0 0 0
2017/11/20 21:42:00 BASE 3.88 197 5.40 183 -1.9 92 -3.0 84 211 985.8 NA 0.0000 9999 1380 0 0 0
2017/11/20 21:43:00 BASE 3.90 189 4.78 189 -1.9 92 -3.0 83 208 985.8 NA 0.0000 9999 1350 0 0 0
2017/11/20 21:44:00 BASE 3.70 191 4.68 188 -1.9 93 -2.9 82 206 985.8 NA 0.0000 9999 1350 0 0 0
2017/11/20 21:45:00 BASE 4.18 201 5.56 201 -1.9 93 -2.9 81 203 985.8 NA 0.0000 9999 1350 0 0 0
2017/11/20 21:46:00 BASE 4.79 200 5.56 201 -1.9 93 -2.9 80 200 985.8 NA 0.0000 9999 1350 0 0 0
2017/11/20 21:47:00 BASE 4.76 195 5.56 201 -1.9 93 -2.9 79 199 985.8 NA 0.0000 9999 1350 0 0 0
2017/11/20 21:48:01 BASE 4.84 192 5.56 201 -1.9 93 -2.9 80 200 985.8 NA 0.0000 9999 1350 0 0 0
2017/11/20 21:49:00 BASE 4.80 192 5.56 201 -1.9 93 -2.9 82 204 985.8 NA 0.0000 9999 1350 0 0 0
2017/11/20 21:50:00 BASE 5.15 193 6.12 195 -1.9 93 -2.9 85 210 985.8 NA 0.0000 9999 1350 0 0 0
2017/11/20 21:51:00 BASE 5.79 193 6.74 192 -1.9 93 -2.9 86 212 985.7 NA 0.0000 9999 1380 0 0 0
2017/11/20 21:52:00 BASE 5.63 189 6.74 192 -1.9 93 -2.9 86 212 985.8 NA 0.0000 9999 1350 0 0 0
2017/11/20 21:53:00 BASE 5.31 190 6.74 192 -1.9 93 -2.9 86 210 985.8 NA 0.0000 9999 1350 0 0 0
2017/11/20 21:54:00 BASE 5.21 196 6.74 192 -1.9 93 -2.9 86 210 985.8 NA 0.0000 9999 1350 0 0 0
2017/11/20 21:55:00 BASE 5.20 198 6.74 192 -1.9 93 -2.9 86 210 985.8 NA 0.0000 9999 1350 0 0 0
2017/11/20 21:56:00 BASE 5.26 195 6.74 192 -2.0 93 -2.9 84 208 985.8 NA 0.0000 9999 1350 0 0 0
2017/11/20 21:57:00 BASE 5.44 187 6.74 192 -2.0 93 -2.9 84 206 985.8 NA 0.0000 9999 1380 0 0 0
2017/11/20 21:58:00 BASE 5.59 185 6.74 192 -2.0 93 -3.0 83 205 985.8 NA 0.0000 9999 1410 0 0 0
2017/11/20 21:59:00 BASE 5.03 187 6.74 192 -2.0 93 -3.0 81 199 985.8 NA 0.0000 9999 1380 0 0 0
2017/11/20 22:00:00 BASE 4.50 190 6.74 192 -2.0 93 -3.0 77 191 985.8 NA 0.0000 9999 1380 0 0 0
2017/11/20 22:01:00 BASE 4.32 193 6.33 184 -2.0 93 -3.0 75 187 985.8 NA 0.0000 9999 1350 0 0 0
2017/11/20 22:02:00 BASE 4.22 193 6.33 184 -2.0 93 -3.0 74 185 985.8 NA 0.0000 9999 1380 0 0 0
2017/11/20 22:03:00 BASE 4.02 194 6.33 184 -2.0 93 -3.0 74 185 985.8 NA 0.0000 9999 1380 0 0 0
2017/11/20 22:04:00 BASE 4.04 191 6.33 184 -2.0 93 -3.0 74 183 985.8 NA 0.0000 9999 1350 0 0 0
2017/11/20 22:05:00 BASE 4.47 193 6.33 184 -2.0 93 -3.0 72 181 985.8 NA 0.0000 9999 1380 0 0 0
2017/11/20 22:06:00 BASE 5.09 196 6.33 184 -2.0 93 -3.0 71 178 985.8 NA 0.0000 9999 1380 0 0 0
2017/11/20 22:07:00 BASE 5.27 193 5.97 202 -2.0 93 -2.9 70 176 985.8 NA 0.0000 9999 1380 0 0 0
2017/11/20 22:08:00 BASE 5.22 189 5.97 202 -2.0 93 -3.0 68 172 985.8 NA 0.0000 9999 1410 0 0 0
2017/11/20 22:09:00 BASE 5.31 188 6.28 194 -2.0 93 -3.0 67 169 985.8 NA 0.0000 9999 1380 0 0 0
2017/11/20 22:10:00 BASE 5.37 193 6.28 194 -2.0 92 -3.1 65 166 985.8 NA 0.0000 9999 1380 0 0 0
2017/11/20 22:11:00 BASE 5.37 194 6.28 194 -2.0 92 -3.1 64 162 985.8 NA 0.0000 9999 1380 0 0 0
2017/11/20 22:12:00 BASE 5.19 191 6.28 194 -2.0 92 -3.1 61 157 985.8 NA 0.0000 9999 1380 0 0 0
2017/11/20 22:13:00 BASE 4.78 191 6.28 194 -2.0 92 -3.1 59 152 985.8 NA 0.0000 9999 1350 0 0 0
2017/11/20 22:14:00 BASE 4.35 197 6.28 194 -2.0 92 -3.0 58 150 985.7 NA 0.0000 9999 1380 0 0 0
2017/11/20 22:15:00 BASE 4.14 199 6.28 194 -1.9 93 -3.0 58 149 985.8 NA 0.0000 9999 1380 0 0 0
2017/11/20 22:16:00 BASE 3.90 200 6.28 194 -1.9 93 -2.9 58 148 985.8 NA 0.0000 9999 1380 0 0 0
2017/11/20 22:17:00 BASE 3.90 205 6.28 194 -1.9 93 -2.9 56 145 985.8 NA 0.0000 9999 1380 0 0 0
2017/11/20 22:18:00 BASE 4.04 205 6.28 194 -1.9 93 -2.9 55 141 985.8 NA 0.0000 9999 1350 0 0 0
2017/11/20 22:19:00 BASE 3.76 197 6.12 196 -1.9 93 -2.9 53 138 985.8 NA 0.0000 9999 1350 0 0 0
2017/11/20 22:20:00 BASE 3.62 192 5.66 195 -1.9 93 -2.9 52 136 985.7 NA 0.0000 9999 1310 0 0 0
2017/11/20 22:21:00 BASE 3.97 196 5.35 186 -1.9 93 -2.9 52 135 985.7 NA 0.0000 9999 1310 0 0 0
2017/11/20 22:22:01 BASE 4.54 199 5.66 196 -1.9 93 -2.9 53 135 985.7 NA 0.0000 9999 1280 0 0 0
2017/11/20 22:23:00 BASE 4.92 195 5.66 196 -1.9 93 -2.9 51 133 985.7 NA 0.0000 9999 1350 0 0 0
2017/11/20 22:24:00 BASE 5.06 192 5.66 196 -1.9 93 -2.8 52 134 985.7 NA 0.0000 9999 1350 0 0 0
2017/11/20 22:25:00 BASE 5.49 190 6.38 192 -1.9 93 -2.8 54 138 985.7 NA 0.0000 9999 1350 0 0 0
2017/11/20 22:26:00 BASE 6.10 194 7.41 203 -1.9 93 -2.8 55 140 985.7 NA 0.0000 9999 1380 0 0 0
2017/11/20 22:27:00 BASE 5.75 199 7.41 203 -1.9 93 -2.8 56 141 985.7 NA 0.0000 9999 1280 0 0 0
2017/11/20 22:28:00 BASE 5.39 203 7.41 203 -1.9 93 -2.9 57 143 985.7 NA 0.0000 9999 1350 0 0 0
2017/11/20 22:29:00 BASE 6.26 207 7.46 207 -2.0 93 -2.9 57 143 985.7 NA 0.0000 9999 1350 0 0 0
2017/11/20 22:30:00 BASE 6.40 204 7.46 207 -2.0 93 -3.0 55 139 985.7 NA 0.0000 9999 1350 0 0 0
2017/11/20 22:31:00 BASE 5.60 202 7.46 207 -2.0 93 -3.0 53 136 985.7 NA 0.0000 9999 1350 0 0 0
2017/11/20 22:32:00 BASE 5.42 202 7.46 207 -2.0 93 -3.0 52 133 985.7 NA 0.0000 9999 1350 0 0 0
2017/11/20 22:33:00 BASE 5.55 206 7.46 207 -2.0 93 -3.0 52 132 985.7 NA 0.0000 9999 1380 0 0 0
2017/11/20 22:34:00 BASE 5.12 210 7.46 207 -2.0 93 -3.0 53 133 985.7 NA 0.0000 9999 1380 0 0 0
2017/11/20 22:35:00 BASE 4.38 208 7.46 207 -1.9 93 -3.0 53 133 985.7 NA 0.0000 9999 1380 0 0 0
2017/11/20 22:36:00 BASE 4.43 205 7.46 207 -1.9 93 -2.9 54 134 985.7 NA 0.0000 9999 1380 0 0 0
2017/11/20 22:37:00 BASE 4.93 203 7.46 207 -1.9 93 -2.9 56 138 985.7 NA 0.0000 9999 1380 0 0 0
2017/11/20 22:38:00 BASE 4.97 199 7.46 207 -1.9 93 -2.9 56 137 985.7 NA 0.0000 9999 1380 0 0 0
2017/11/20 22:39:00 BASE 4.64 196 6.58 199 -1.9 93 -2.9 54 133 985.7 NA 0.0000 9999 1380 0 0 0
2017/11/20 22:40:00 BASE 4.28 196 6.33 208 -1.9 93 -2.9 52 129 985.7 NA 0.0000 9999 1350 0 0 0
2017/11/20 22:41:00 BASE 4.08 195 6.33 208 -1.9 93 -2.9 52 129 985.7 NA 0.0000 9999 1350 0 0 0
2017/11/20 22:42:00 BASE 3.83 199 6.33 208 -1.9 93 -2.9 51 127 985.7 NA 0.0000 9999 1310 0 0 0
2017/11/20 22:43:00 BASE 3.63 205 5.40 202 -1.9 93 -2.9 50 125 985.7 NA 0.0000 9999 1350 0 0 0
2017/11/20 22:44:00 BASE 4.01 205 5.40 202 -1.9 93 -2.8 49 122 985.7 NA 0.0000 9999 1350 0 0 0
2017/11/20 22:45:00 BASE 4.59 201 5.40 202 -1.8 93 -2.8 46 117 985.7 NA 0.0000 9999 1310 0 0 0
2017/11/20 22:46:00 BASE 4.29 197 5.40 202 -1.8 93 -2.8 44 112 985.7 NA 0.0000 9999 1280 0 0 0
2017/11/20 22:47:00 BASE 3.83 190 5.04 206 -1.8 93 -2.8 42 107 985.7 NA 0.0000 9999 1310 0 0 0
2017/11/20 22:48:00 BASE 3.95 186 5.04 206 -1.8 93 -2.8 40 103 985.7 NA 0.0000 9999 1280 0 0 0
2017/11/20 22:49:00 BASE 3.86 189 5.04 206 -1.9 93 -2.8 40 103 985.7 NA 0.0000 9999 1280 0 0 0
2017/11/20 22:50:00 BASE 3.64 200 5.04 206 -1.9 93 -2.8 41 104 985.7 NA 0.0000 9999 1280 0 0 0
2017/11/20 22:51:00 BASE 3.58 207 5.04 206 -1.9 93 -2.8 41 105 985.8 NA 0.0000 9999 1280 0 0 0
2017/11/20 22:52:00 BASE 3.37 200 5.04 206 -1.8 93 -2.8 41 104 985.7 NA 0.0000 9999 1250 0 0 0
2017/11/20 22:53:00 BASE 3.51 196 5.04 198 -1.8 93 -2.8 41 104 985.8 NA 0.0000 9999 1280 0 0 0
2017/11/20 22:54:00 BASE 4.16 195 5.04 198 -1.8 94 -2.7 42 105 985.7 NA 0.0000 9999 1250 0 0 0
2017/11/20 22:55:00 BASE 4.28 196 5.04 198 -1.8 94 -2.7 42 105 985.7 NA 0.0000 9999 1310 0 0 0
2017/11/20 22:56:00 BASE 4.69 200 6.12 200 -1.8 94 -2.6 42 106 985.7 NA 0.0000 9999 1310 0 0 0
2017/11/20 22:57:00 BASE 5.45 205 6.12 200 -1.8 94 -2.7 42 104 985.7 NA 0.0000 9999 1280 0 0 0
2017/11/20 22:58:00 BASE 5.22 207 6.12 200 -1.8 94 -2.7 40 101 985.7 NA 0.0000 9999 1280 0 0 0
2017/11/20 22:59:00 BASE 4.70 206 6.12 200 -1.9 94 -2.7 40 101 985.7 NA 0.0000 9999 1280 0 0 0
2017/11/20 23:00:00 BASE 4.37 206 6.12 200 -1.9 94 -2.7 41 101 985.8 NA 0.0000 9999 1310 0 0 0
2017/11/20 23:01:00 BASE 4.31 198 6.12 200 -1.9 94 -2.7 41 101 985.7 NA 0.0000 9999 1310 0 0 0
2017/11/20 23:02:00 BASE 4.51 189 6.12 200 -1.9 94 -2.7 41 101 985.7 NA 0.0000 9999 1310 0 0 0
2017/11/20 23:03:00 BASE 5.09 189 6.28 187 -1.9 94 -2.7 42 102 985.7 NA 0.0000 9999 1280 0 0 0
2017/11/20 23:04:00 BASE 5.46 190 6.28 187 -1.9 94 -2.7 42 102 985.7 NA 0.0000 9999 1280 0 0 0
2017/11/20 23:05:00 BASE 5.21 195 6.28 187 -1.9 94 -2.7 41 101 985.7 NA 0.0000 9999 1280 0 0 0
2017/11/20 23:06:00 BASE 4.86 195 6.28 187 -1.9 94 -2.7 41 100 985.7 NA 0.0000 9999 1280 0 0 0
2017/11/20 23:07:00 BASE 4.93 194 6.28 187 -1.9 94 -2.7 40 99 985.7 NA 0.0000 9999 1280 0 0 0
2017/11/20 23:08:00 BASE 5.38 197 6.28 187 -1.9 94 -2.7 40 98 985.7 NA 0.0000 9999 1280 0 0 0
2017/11/20 23:09:00 BASE 5.32 201 6.28 187 -1.9 94 -2.7 39 96 985.7 NA 0.0000 9999 1310 0 0 0
2017/11/20 23:10:00 BASE 5.23 202 6.28 187 -1.9 94 -2.7 38 94 985.7 NA 0.0000 9999 1310 0 0 0
2017/11/20 23:11:00 BASE 5.56 200 6.33 196 -1.9 94 -2.7 38 94 985.7 NA 0.0000 9999 1310 0 0 0
2017/11/20 23:12:00 BASE 5.82 196 6.33 196 -1.9 94 -2.7 38 94 985.7 NA 0.0000 9999 1350 0 0 0
2017/11/20 23:13:00 BASE 6.06 201 6.79 210 -1.9 94 -2.7 37 92 985.7 NA 0.0000 9999 1310 0 0 0
2017/11/20 23:14:00 BASE 5.83 204 6.79 210 -1.9 94 -2.7 36 90 985.7 NA 0.0000 9999 1310 0 0 0
2017/11/20 23:15:00 BASE 5.46 197 6.79 210 -1.9 94 -2.8 35 88 985.7 NA 0.0000 9999 1310 0 0 0
2017/11/20 23:16:00 BASE 5.20 188 6.79 210 -2.0 94 -2.9 34 86 985.7 NA 0.0000 9999 1380 0 0 0
2017/11/20 23:17:00 BASE 4.93 188 6.79 210 -2.0 93 -2.9 33 84 985.7 NA 0.0000 9999 1350 0 0 0
2017/11/20 23:18:00 BASE 5.18 200 6.79 210 -2.0 93 -3.0 33 84 985.7 NA 0.0000 9999 1350 0 0 0
2017/11/20 23:19:00 BASE 5.21 207 6.79 210 -2.0 93 -3.0 33 83 985.7 NA 0.0000 9999 1380 0 0 0
2017/11/20 23:20:00 BASE 4.69 206 6.79 210 -2.0 93 -3.0 34 84 985.7 NA 0.0000 9999 1380 0 0 0
2017/11/20 23:21:00 BASE 4.79 206 6.79 210 -2.0 92 -3.0 35 86 985.7 NA 0.0000 9999 1380 0 0 0
2017/11/20 23:22:00 BASE 5.31 204 6.79 210 -1.9 92 -3.0 35 86 985.7 NA 0.0000 9999 1380 0 0 0
2017/11/20 23:23:00 BASE 5.37 204 6.33 197 -1.9 92 -3.0 35 85 985.7 NA 0.0000 9999 1350 0 0 0
2017/11/20 23:24:00 BASE 5.57 204 6.48 207 -1.9 92 -3.0 36 87 985.7 NA 0.0000 9999 1380 0 0 0
2017/11/20 23:25:00 BASE 6.26 203 7.51 198 -1.9 93 -2.9 37 88 985.7 NA 0.0000 9999 1410 0 0 0
2017/11/20 23:26:00 BASE 6.89 204 7.72 208 -1.9 93 -2.9 37 88 985.7 NA 0.0000 9999 1440 0 0 0
2017/11/20 23:27:00 BASE 7.10 205 7.72 208 -1.9 93 -2.9 37 88 985.7 NA 0.0000 9999 1440 0 0 0
2017/11/20 23:28:00 BASE 6.38 206 7.72 208 -1.9 93 -2.9 37 87 985.7 NA 0.0000 9999 1440 0 0 0
2017/11/20 23:29:00 BASE 5.74 205 7.72 208 -1.9 93 -2.9 37 88 985.7 NA 0.0000 9999 1410 0 0 0
2017/11/20 23:30:00 BASE 5.79 204 7.72 208 -2.0 93 -3.0 37 88 985.8 NA 0.0000 9999 1410 0 0 0
2017/11/20 23:31:00 BASE 5.65 205 7.72 208 -2.0 92 -3.0 38 89 985.7 NA 0.0000 9999 1440 0 0 0
2017/11/20 23:32:00 BASE 5.37 207 7.72 208 -2.0 92 -3.1 38 89 985.7 NA 0.0000 9999 1480 0 0 0
2017/11/20 23:33:00 BASE 5.39 211 7.72 208 -2.0 92 -3.1 38 88 985.7 NA 0.0000 9999 1480 0 0 0
2017/11/20 23:34:00 BASE 5.59 215 7.72 208 -2.0 92 -3.1 37 86 985.7 NA 0.0000 9999 1540 0 0 0
2017/11/20 23:35:00 BASE 5.63 216 7.72 208 -1.9 92 -3.1 36 85 985.7 NA 0.0000 9999 1440 0 0 0
2017/11/20 23:36:00 BASE 5.58 215 7.31 204 -1.9 92 -3.1 36 84 985.7 NA 0.0000 9999 1510 0 0 0
2017/11/20 23:37:00 BASE 5.86 211 7.25 205 -1.9 92 -3.1 36 83 985.7 NA 0.0000 9999 1510 0 0 0
2017/11/20 23:38:00 BASE 5.94 204 6.79 201 -1.9 91 -3.1 35 82 985.7 NA 0.0000 9999 1510 0 0 0
2017/11/20 23:39:00 BASE 5.63 207 6.79 201 -1.9 91 -3.1 34 80 985.7 NA 0.0000 9999 1480 0 0 0
2017/11/20 23:40:00 BASE 5.54 215 6.79 201 -1.9 91 -3.2 33 78 985.7 NA 0.0000 9999 1480 0 0 0
2017/11/20 23:41:00 BASE 5.82 214 6.79 201 -1.9 91 -3.2 32 76 985.7 NA 0.0000 9999 1440 0 0 0
2017/11/20 23:42:00 BASE 5.63 203 6.79 201 -1.9 91 -3.2 31 74 985.7 NA 0.0000 9999 1510 0 0 0
2017/11/20 23:43:00 BASE 5.21 203 6.79 201 -1.9 91 -3.2 30 72 985.7 NA 0.0000 9999 1510 0 0 0
2017/11/20 23:44:00 BASE 5.35 206 6.79 201 -1.9 91 -3.1 30 72 985.7 NA 0.0000 9999 1480 0 0 0
2017/11/20 23:45:00 BASE 5.57 207 6.79 201 -1.9 91 -3.1 30 72 985.7 NA 0.0000 9999 1440 0 0 0
2017/11/20 23:46:00 BASE 5.84 206 6.79 201 -1.8 91 -3.1 29 71 985.7 NA 0.0000 9999 1570 0 0 0
2017/11/20 23:47:00 BASE 5.53 193 6.79 201 -1.8 91 -3.1 30 72 985.7 NA 0.0000 9999 1610 0 0 0
2017/11/20 23:48:00 BASE 4.54 189 6.69 208 -1.8 91 -3.1 29 71 985.7 NA 0.0000 9999 1610 0 0 0
2017/11/20 23:49:00 BASE 3.83 192 6.69 208 -1.9 91 -3.1 27 68 985.7 NA 0.0000 9999 1610 0 0 0
2017/11/20 23:50:00 BASE 3.85 191 6.69 208 -1.9 91 -3.1 26 65 985.7 NA 0.0000 9999 1610 0 0 0
2017/11/20 23:51:00 BASE 4.20 194 6.43 214 -1.9 91 -3.1 25 62 985.7 NA 0.0000 9999 1770 0 0 0
2017/11/20 23:52:00 BASE 4.54 200 6.43 214 -1.8 91 -3.1 24 61 985.7 NA 0.0000 9999 1710 0 0 0
2017/11/20 23:53:00 BASE 4.60 208 6.43 214 -1.8 91 -3.1 25 61 985.7 NA 0.0000 9999 1710 0 0 0
2017/11/20 23:54:00 BASE 4.65 208 6.43 214 -1.8 91 -3.1 24 60 985.7 NA 0.0000 9999 1740 0 0 0
2017/11/20 23:55:00 BASE 5.09 209 6.17 217 -1.8 91 -3.0 24 60 985.7 NA 0.0000 9999 1770 0 0 0
2017/11/20 23:56:00 BASE 5.54 213 6.07 213 -1.7 91 -3.0 24 60 985.7 NA 0.0000 9999 1770 0 0 0
2017/11/20 23:57:00 BASE 5.84 213 6.58 215 -1.7 91 -3.0 24 59 985.6 NA 0.0000 9999 1800 0 0 0
2017/11/20 23:58:00 BASE 5.91 211 6.58 215 -1.7 91 -3.1 24 59 985.7 NA 0.0000 9999 1800 0 0 0
2017/11/20 23:59:00 BASE 5.61 208 6.58 215 -1.7 90 -3.1 24 58 985.6 NA 0.0000 9999 1770 0 0 0